Provisional Data: Little Clearfield Creek near Dimeling, PA


Please select a monitoring station.
Please select start date.
Please select start date.

Toggle Unit: C/F Toggle Unit: C/F
Sample Time Temperature (C) Temperature (F) Specific Conductivity (mS/cm) pH   Turbidity (NTU+) DO (mg/L)
8/1/2022 12:00:00 AM 19.86 67.748 0.504 8.11 3.03 8.23
8/1/2022 12:15:00 AM 19.85 67.73 0.504 8.1 2.93 8.22
8/1/2022 12:30:00 AM 19.83 67.694 0.505 8.1 3.22 8.23
8/1/2022 12:45:00 AM 19.82 67.676 0.505 8.09 3.23 8.23
8/1/2022 1:00:00 AM 19.81 67.658 0.505 8.1 2.95 8.24
8/1/2022 1:15:00 AM 19.79 67.622 0.505 8.1 3.08 8.2
8/1/2022 1:30:00 AM 19.78 67.604 0.505 8.09 2.92 8.18
8/1/2022 1:45:00 AM 19.76 67.568 0.505 8.09 3.06 8.23
8/1/2022 2:00:00 AM 19.73 67.514 0.505 8.09 3.04 8.23
8/1/2022 2:15:00 AM 19.69 67.442 0.505 8.07 3.27 8.19
8/1/2022 2:30:00 AM 19.66 67.388 0.505 8.06 3.11 8.17
8/1/2022 2:45:00 AM 19.64 67.352 0.505 8.07 2.97 8.25
8/1/2022 3:00:00 AM 19.64 67.352 0.505 8.07 3.24 8.21
8/1/2022 3:15:00 AM 19.63 67.334 0.505 8.08 3.21 8.2
8/1/2022 3:30:00 AM 19.62 67.316 0.506 8.08 3.2 8.23
8/1/2022 3:45:00 AM 19.6 67.28 0.506 8.09 3.2 8.24
8/1/2022 4:00:00 AM 19.59 67.262 0.506 8.09 2.92 8.27
8/1/2022 4:15:00 AM 19.57 67.226 0.506 8.08 3.11 8.22
8/1/2022 4:30:00 AM 19.55 67.19 0.506 8.06 5.74 8.15
8/1/2022 4:45:00 AM 19.54 67.172 0.506 8.07 3.85 8.25
8/1/2022 5:00:00 AM 19.52 67.136 0.506 8.07 3.28 8.21
8/1/2022 5:15:00 AM 19.52 67.136 0.506 8.06 3.15 8.2
8/1/2022 5:30:00 AM 19.5 67.1 0.506 8.05 3.37 8.14
8/1/2022 5:45:00 AM 19.48 67.064 0.506 8.07 3.26 8.27
8/1/2022 6:00:00 AM 19.47 67.046 0.506 8.07 4.57 8.28
8/1/2022 6:15:00 AM 19.46 67.028 0.507 8.05 4.1 8.21
8/1/2022 6:30:00 AM 19.45 67.01 0.507 8.06 3.55 8.29
8/1/2022 6:45:00 AM 19.44 66.992 0.507 8.06 3.55 8.24
8/1/2022 7:00:00 AM 19.43 66.974 0.507 8.07 3.37 8.32
8/1/2022 7:15:00 AM 19.42 66.956 0.507 8.06 3.88 8.31
8/1/2022 7:30:00 AM 19.42 66.956 0.507 8.06 3.83 8.36
8/1/2022 7:45:00 AM 19.44 66.992 0.507 8.08 4.4 8.46
8/1/2022 8:00:00 AM 19.47 67.046 0.507 8.11 4.16 8.52
8/1/2022 8:15:00 AM 19.5 67.1 0.507 8.1 4.07 8.48
8/1/2022 8:30:00 AM 19.51 67.118 0.507 8.12 3.32 8.66
8/1/2022 8:45:00 AM 19.53 67.154 0.507 8.13 3.48 8.71
8/1/2022 9:00:00 AM 19.59 67.262 0.507 8.15 3.81 8.77
8/1/2022 9:15:00 AM 19.69 67.442 0.507 8.14 3.73 8.74
8/1/2022 9:30:00 AM 19.76 67.568 0.507 8.15 3.61 8.74
8/1/2022 9:45:00 AM 19.91 67.838 0.507 8.15 3.86 8.76
8/1/2022 10:00:00 AM 20.16 68.288 0.507 8.19 3.89 8.94
8/1/2022 10:15:00 AM 20.13 68.234 0.507 8.25 3.5 9.09
8/1/2022 10:30:00 AM 20.3 68.54 0.507 8.3 3.27 9.3
8/1/2022 10:45:00 AM 20.61 69.098 0.507 8.33 3.34 9.4
8/1/2022 11:00:00 AM 20.7 69.26 0.507 8.34 3.17 9.4
8/1/2022 11:15:00 AM 20.84 69.512 0.507 8.34 3.22 9.46
8/1/2022 11:30:00 AM 20.94 69.692 0.507 8.36 3.61 9.48
8/1/2022 11:45:00 AM 21.14 70.052 0.507 8.39 3.26 9.53
8/1/2022 12:00:00 PM 21.68 71.024 0.506 8.41 3.24 9.59
8/1/2022 12:15:00 PM 22.28 72.104 0.506 8.43 3.6 9.76
8/1/2022 12:30:00 PM 22.49 72.482 0.506 8.45 3.53 9.7
8/1/2022 12:45:00 PM 22.4 72.32 0.506 8.44 3.41 9.55
8/1/2022 1:00:00 PM 22.61 72.698 0.505 8.46 3.39 9.68
8/1/2022 1:15:00 PM 22.62 72.716 0.505 8.47 3.44 9.66
8/1/2022 1:30:00 PM 22.89 73.202 0.505 8.47 3.74 9.67
8/1/2022 1:45:00 PM 23.33 73.994 0.505 8.5 3.63 9.8
8/1/2022 2:00:00 PM 23.52 74.336 0.504 8.52 3.43 9.79
8/1/2022 2:15:00 PM 23.71 74.67799 0.504 8.51 3.87 9.8
8/1/2022 2:30:00 PM 23.51 74.318 0.503 8.52 3.39 9.65
8/1/2022 2:45:00 PM 23.25 73.85 0.503 8.52 3.38 9.59
8/1/2022 3:00:00 PM 23.06 73.508 0.503 8.52 3.37 9.58
8/1/2022 3:15:00 PM 23.14 73.652 0.503 8.51 3.55 9.56
8/1/2022 3:30:00 PM 23.32 73.976 0.503 8.52 3.86 9.53
8/1/2022 3:45:00 PM 23.77 74.786 0.503 8.52 3.62 9.53
8/1/2022 4:00:00 PM 24.11 75.398 0.502 8.55 4.09 9.68
8/1/2022 4:15:00 PM 24.31 75.758 0.502 8.55 3.53 9.57
8/1/2022 4:30:00 PM 24.41 75.938 0.503 8.55 3.49 9.46
8/1/2022 4:45:00 PM 24.39 75.902 0.502 8.55 3.38 9.44
8/1/2022 5:00:00 PM 24.42 75.956 0.502 8.55 3.68 9.41
8/1/2022 5:15:00 PM 24.49 76.082 0.502 8.54 3.36 9.26
8/1/2022 5:30:00 PM 24.05 75.29 0.502 8.52 3.53 9.14
8/1/2022 5:45:00 PM 23.94 75.092 0.503 8.51 3.43 8.99
8/1/2022 6:00:00 PM 23.72 74.696 0.503 8.49 3.83 8.87
8/1/2022 6:15:00 PM 23.52 74.336 0.503 8.47 3.28 8.72
8/1/2022 6:30:00 PM 23.48 74.264 0.504 8.45 3.46 8.6
8/1/2022 6:45:00 PM 23.41 74.138 0.504 8.42 3.64 8.48
8/1/2022 7:00:00 PM 23.28 73.904 0.504 8.41 3.64 8.39
8/1/2022 7:15:00 PM 23.19 73.742 0.504 8.37 3.57 8.24
8/1/2022 7:30:00 PM 23.04 73.472 0.505 8.34 3.43 8.12
8/1/2022 7:45:00 PM 22.92 73.256 0.506 8.32 3.76 7.97
8/1/2022 8:00:00 PM 22.77 72.986 0.506 8.28 3.77 7.93
8/1/2022 8:15:00 PM 22.64 72.752 0.506 8.27 3.7 7.89
8/1/2022 8:30:00 PM 22.53 72.554 0.507 8.24 3.81 7.82
8/1/2022 8:45:00 PM 22.45 72.41 0.507 8.2 3.57 7.7
8/1/2022 9:00:00 PM 22.35 72.23 0.507 8.19 3.32 7.67
8/1/2022 9:15:00 PM 22.25 72.05 0.507 8.16 3.35 7.71
8/1/2022 9:30:00 PM 22.18 71.924 0.507 8.12 3.83 7.75
8/1/2022 9:45:00 PM 22.13 71.834 0.507 8.13 3.31 7.71
8/1/2022 10:00:00 PM 22.06 71.708 0.507 8.11 3.25 7.7
8/1/2022 10:15:00 PM 21.97 71.546 0.508 8.08 3.96 7.64
8/1/2022 10:30:00 PM 21.89 71.402 0.507 8.08 3.27 7.72
8/1/2022 10:45:00 PM 21.82 71.276 0.507 8.06 3.76 7.64
8/1/2022 11:00:00 PM 21.76 71.168 0.507 8.07 3.2 7.74
8/1/2022 11:15:00 PM 21.67 71.006 0.507 8.07 3.14 7.72
8/1/2022 11:30:00 PM 21.6 70.88 0.507 8.07 3.08 7.75
8/1/2022 11:45:00 PM 21.55 70.79 0.507 8.06 3.29 7.73
8/2/2022 12:00:00 AM 21.52 70.736 0.507 8.08 3.16 7.83
8/2/2022 12:15:00 AM 21.46 70.628 0.507 8.07 3.94 7.78
8/2/2022 12:30:00 AM 21.4 70.52 0.507 8.08 3.44 7.82
8/2/2022 12:45:00 AM 21.35 70.43 0.507 8.07 3.22 7.84
8/2/2022 1:00:00 AM 21.29 70.32201 0.507 8.07 2.92 7.82
8/2/2022 1:15:00 AM 21.22 70.196 0.507 8.06 3.04 7.85
8/2/2022 1:30:00 AM 21.21 70.17799 0.507 8.06 4.37 7.82
8/2/2022 1:45:00 AM 21.16 70.088 0.507 8.08 3.03 7.87
8/2/2022 2:00:00 AM 21.15 70.07 0.507 8.09 3.27 7.87
8/2/2022 2:15:00 AM 21.1 69.98 0.507 8.08 3.2 7.83
8/2/2022 2:30:00 AM 21.04 69.872 0.507 8.07 3.17 7.86
8/2/2022 2:45:00 AM 21 69.8 0.507 8.06 3.21 7.88
8/2/2022 3:00:00 AM 20.96 69.728 0.507 8.06 2.98 7.9
8/2/2022 3:15:00 AM 20.92 69.656 0.507 8.06 3.37 7.9
8/2/2022 3:30:00 AM 20.88 69.584 0.507 8.07 3.11 7.9
8/2/2022 3:45:00 AM 20.85 69.53 0.507 8.07 3.31 7.9
8/2/2022 4:00:00 AM 20.81 69.458 0.507 8.07 3.2 7.93
8/2/2022 4:15:00 AM 20.8 69.44 0.507 8.07 3.06 7.92
8/2/2022 4:30:00 AM 20.77 69.386 0.507 8.07 3.23 7.93
8/2/2022 4:45:00 AM 20.76 69.368 0.508 8.07 3.3 7.95
8/2/2022 5:00:00 AM 20.73 69.314 0.508 8.04 5.3 7.87
8/2/2022 5:15:00 AM 20.72 69.296 0.508 8.06 3.28 7.9
8/2/2022 5:30:00 AM 20.7 69.26 0.508 8.06 5.6 7.91
8/2/2022 5:45:00 AM 20.67 69.206 0.508 8.06 3.08 7.95
8/2/2022 6:00:00 AM 20.64 69.152 0.508 8.06 3.22 7.95
8/2/2022 6:15:00 AM 20.62 69.116 0.508 8.05 3.76 7.96
8/2/2022 6:30:00 AM 20.61 69.098 0.509 8.05 3.17 7.93
8/2/2022 6:45:00 AM 20.59 69.062 0.509 8.05 3.09 8
8/2/2022 7:00:00 AM 20.58 69.044 0.509 8.06 3.27 8.01
8/2/2022 7:15:00 AM 20.58 69.044 0.509 8.07 2.9 8.08
8/2/2022 7:30:00 AM 20.58 69.044 0.509 8.07 2.88 8.13
8/2/2022 7:45:00 AM 20.6 69.08 0.509 8.08 3.74 8.18
8/2/2022 8:00:00 AM 20.61 69.098 0.51 8.09 3.09 8.21
8/2/2022 8:15:00 AM 20.65 69.17 0.51 8.12 2.86 8.34
8/2/2022 8:30:00 AM 20.66 69.188 0.51 8.14 3.01 8.46
8/2/2022 8:45:00 AM 20.71 69.278 0.51 8.15 2.91 8.54
8/2/2022 9:00:00 AM 20.76 69.368 0.51 8.17 2.96 8.61
8/2/2022 9:15:00 AM 20.83 69.494 0.511 8.18 2.84 8.65
8/2/2022 9:30:00 AM 20.9 69.62 0.511 8.2 3.05 8.71
8/2/2022 9:45:00 AM 21.02 69.836 0.511 8.19 13.72 8.82
8/2/2022 10:00:00 AM 21.13 70.034 0.511 8.19 24.57 8.88
8/2/2022 10:15:00 AM 21.14 70.052 0.511 8.26 3.74 8.94
8/2/2022 10:30:00 AM 21.37 70.466 0.511 8.29 3.26 9.04
8/2/2022 10:45:00 AM 21.48 70.664 0.51 8.3 3.14 9.1
8/2/2022 11:00:00 AM 21.64 70.952 0.51 8.33 2.98 9.14
8/2/2022 11:15:00 AM 21.76 71.168 0.51 8.34 2.94 9.17
8/2/2022 11:30:00 AM 22.08 71.744 0.509 8.35 2.96 9.23
8/2/2022 11:45:00 AM 22.63 72.734 0.509 8.36 3.34 9.3
8/2/2022 12:00:00 PM 22.63 72.734 0.509 8.38 2.84 9.31
8/2/2022 12:15:00 PM 22.48 72.464 0.508 8.41 2.76 9.25
8/2/2022 12:30:00 PM 22.96 73.328 0.508 8.39 3.14 9.24
8/2/2022 12:45:00 PM 23.92 75.056 0.508 8.43 3.18 9.37
8/2/2022 1:00:00 PM 24.21 75.578 0.508 8.44 3.63 9.33
8/2/2022 1:15:00 PM 24.73 76.514 0.509 8.44 3.39 9.34
8/2/2022 1:30:00 PM 25.46 77.828 0.507 8.45 3.65 9.39
8/2/2022 1:45:00 PM 25.29 77.522 0.507 8.48 3.2 9.47
8/2/2022 2:00:00 PM 25.6 78.08 0.507 8.48 3.38 9.37
8/2/2022 2:15:00 PM 25.29 77.522 0.507 8.49 3.17 9.33
8/2/2022 2:30:00 PM 25.34 77.612 0.509 8.48 3.46 9.32
8/2/2022 2:45:00 PM 25.83 78.494 0.509 8.49 3.53 9.25
8/2/2022 3:00:00 PM 26.16 79.088 0.508 8.49 3.41 9.19
8/2/2022 3:15:00 PM 26.47 79.646 0.509 8.49 3.61 9.26
8/2/2022 3:30:00 PM 26.5 79.7 0.509 8.49 3.45 9.32
8/2/2022 3:45:00 PM 26.14 79.052 0.51 8.46 4.18 9
8/2/2022 4:00:00 PM 26.46 79.628 0.51 8.47 3.75 8.95
8/2/2022 4:15:00 PM 26.3 79.34 0.51 8.46 4.15 8.95
8/2/2022 4:30:00 PM 26.56 79.808 0.51 8.44 4.16 8.88
8/2/2022 4:45:00 PM 26.41 79.538 0.509 8.47 3.56 8.96
8/2/2022 5:00:00 PM 26.41 79.538 0.509 8.47 3.51 8.91
8/2/2022 5:15:00 PM 26.5 79.7 0.51 8.45 4.22 8.77
8/2/2022 5:30:00 PM 26.12 79.016 0.51 8.44 3.95 8.67
8/2/2022 5:45:00 PM 25.81 78.458 0.51 8.44 3.36 8.56
8/2/2022 6:00:00 PM 25.57 78.026 0.51 8.43 3.15 8.5
8/2/2022 6:15:00 PM 25.23 77.414 0.51 8.42 3.49 8.39
8/2/2022 6:30:00 PM 25.07 77.126 0.51 8.41 3.32 8.2
8/2/2022 6:45:00 PM 24.88 76.784 0.51 8.39 2.98 8.12
8/2/2022 7:00:00 PM 24.71 76.478 0.511 8.37 3.16 8.04
8/2/2022 7:15:00 PM 24.55 76.19 0.511 8.36 3.22 7.98
8/2/2022 7:30:00 PM 24.42 75.956 0.511 8.33 2.93 7.88
8/2/2022 7:45:00 PM 24.29 75.722 0.512 8.3 3.44 7.7
8/2/2022 8:00:00 PM 24.09 75.362 0.512 8.24 3.99 7.52
8/2/2022 8:15:00 PM 23.82 74.876 0.513 8.22 3.56 7.52
8/2/2022 8:30:00 PM 23.64 74.552 0.513 8.19 4.49 7.35
8/2/2022 8:45:00 PM 23.39 74.102 0.513 8.2 3.47 7.45
8/2/2022 9:00:00 PM 23.18 73.724 0.514 8.18 4.18 7.43
8/2/2022 9:15:00 PM 23.04 73.472 0.514 8.18 4.53 7.34
8/2/2022 9:30:00 PM 22.86 73.148 0.514 8.2 4.01 7.38
8/2/2022 9:45:00 PM 22.7 72.86 0.514 8.22 3.45 7.6
8/2/2022 10:00:00 PM 22.51 72.518 0.514 8.2 3.46 7.53
8/2/2022 10:15:00 PM 22.42 72.356 0.514 8.23 3.1 7.59
8/2/2022 10:30:00 PM 22.31 72.158 0.514 8.21 3.48 7.59
8/2/2022 10:45:00 PM 22.2 71.96 0.514 8.22 3.28 7.63
8/2/2022 11:00:00 PM 22.09 71.762 0.514 8.24 3.45 7.61
8/2/2022 11:15:00 PM 22.03 71.654 0.514 8.22 3.28 7.68
8/2/2022 11:30:00 PM 21.92 71.456 0.514 8.2 3.1 7.71
8/2/2022 11:45:00 PM 21.77 71.186 0.513 8.2 3.06 7.69
8/3/2022 12:00:00 AM 21.68 71.024 0.514 8.21 3.49 7.69
8/3/2022 12:15:00 AM 21.62 70.916 0.513 8.19 3.13 7.78
8/3/2022 12:30:00 AM 21.51 70.718 0.513 8.21 3.09 7.77
8/3/2022 12:45:00 AM 21.39 70.502 0.513 8.22 3.06 7.81
8/3/2022 1:00:00 AM 21.27 70.286 0.513 8.22 3.14 7.77
8/3/2022 1:15:00 AM 21.24 70.232 0.513 8.22 2.93 7.85
8/3/2022 1:30:00 AM 21.08 69.944 0.513 8.21 2.98 7.8
8/3/2022 1:45:00 AM 20.98 69.764 0.513 8.2 3.11 7.87
8/3/2022 2:00:00 AM 20.91 69.638 0.513 8.2 3 7.87
8/3/2022 2:15:00 AM 20.76 69.368 0.514 8.21 2.89 7.9
8/3/2022 2:30:00 AM 20.69 69.242 0.513 8.23 3.21 7.9
8/3/2022 2:45:00 AM 20.61 69.098 0.513 8.19 3.28 7.97
8/3/2022 3:00:00 AM 20.51 68.918 0.514 8.23 3.17 7.96
8/3/2022 3:15:00 AM 20.4 68.72 0.514 8.22 2.91 8.01
8/3/2022 3:30:00 AM 20.31 68.558 0.514 8.22 3.14 8.03
8/3/2022 3:45:00 AM 20.21 68.378 0.514 8.18 3.22 8.04
8/3/2022 4:00:00 AM 20.06 68.108 0.514 8.23 2.84 8.06
8/3/2022 4:15:00 AM 20 68 0.515 8.22 2.97 8.1
8/3/2022 4:30:00 AM 19.89 67.802 0.514 8.2 2.88 8.11
8/3/2022 4:45:00 AM 19.74 67.532 0.515 8.17 3.01 8.11
8/3/2022 5:00:00 AM 19.65 67.37 0.515 8.18 3.09 8.14
8/3/2022 5:15:00 AM 19.55 67.19 0.515 8.18 2.96 8.17
8/3/2022 5:30:00 AM 19.42 66.956 0.515 8.16 3.15 8.18
8/3/2022 5:45:00 AM 19.31 66.758 0.515 8.18 3.14 8.2
8/3/2022 6:00:00 AM 19.26 66.668 0.516 8.15 3.16 8.25
8/3/2022 6:15:00 AM 19.13 66.434 0.516 8.16 3.45 8.26
8/3/2022 6:30:00 AM 18.99 66.182 0.516 8.14 3.44 8.29
8/3/2022 6:45:00 AM 18.92 66.056 0.516 8.18 3.15 8.33
8/3/2022 7:00:00 AM 18.81 65.858 0.517 8.17 3.15 8.38
8/3/2022 7:15:00 AM 18.78 65.804 0.516 8.24 3.18 8.42
8/3/2022 7:30:00 AM 18.7 65.66 0.517 8.2 2.94 8.45
8/3/2022 7:45:00 AM 18.65 65.57 0.516 8.25 3 8.51
8/3/2022 8:00:00 AM 18.61 65.498 0.516 8.26 3.01 8.52
8/3/2022 8:15:00 AM 18.62 65.516 0.516 8.26 2.97 8.54
8/3/2022 8:30:00 AM 18.57 65.426 0.516 8.28 3.15 8.56
8/3/2022 8:45:00 AM 18.62 65.516 0.517 8.29 2.94 8.65
8/3/2022 9:00:00 AM 18.65 65.57 0.517 8.32 3.02 8.64
8/3/2022 9:15:00 AM 18.78 65.804 0.517 8.35 3.21 8.72
8/3/2022 9:30:00 AM 18.88 65.984 0.517 8.39 3.02 8.79
8/3/2022 9:45:00 AM 19.14 66.452 0.517 8.39 2.91 8.91
8/3/2022 10:00:00 AM 19.4 66.92 0.517 8.4 2.67 8.99
8/3/2022 10:15:00 AM 19.73 67.514 0.517 8.44 2.8 9.08
8/3/2022 10:30:00 AM 19.86 67.748 0.517 8.44 2.98 9.05
8/3/2022 10:45:00 AM 20.05 68.09 0.517 8.45 2.93 9.1
8/3/2022 11:00:00 AM 20.23 68.414 0.518 8.42 3.09 9.14
8/3/2022 11:15:00 AM 20.51 68.918 0.518 8.4 2.84 9.12
8/3/2022 11:30:00 AM 20.78 69.404 0.518 8.43 2.95 9.15
8/3/2022 11:45:00 AM 21.29 70.32201 0.518 8.42 3.19 9.23
8/3/2022 12:00:00 PM 21.95 71.51 0.517 8.44 2.77 9.27
8/3/2022 12:15:00 PM 22.74 72.932 0.518 8.45 3.1 9.39
8/3/2022 12:30:00 PM 23.02 73.436 0.518 8.46 2.89 9.45
8/3/2022 12:45:00 PM 23.73 74.714 0.518 8.45 3.81 9.47
8/3/2022 1:00:00 PM 23.98 75.164 0.517 8.44 3.07 9.44
8/3/2022 1:15:00 PM 24.9 76.82 0.517 8.43 4.42 9.51
8/3/2022 1:30:00 PM 25.12 77.216 0.517 8.44 4.11 9.56
8/3/2022 1:45:00 PM 25.25 77.45 0.519 8.5 3.3 9.66
8/3/2022 2:00:00 PM 25.84 78.512 0.516 8.5 3.76 9.64
8/3/2022 2:15:00 PM 25.38 77.684 0.518 8.51 3.88 9.44
8/3/2022 2:30:00 PM 25.73 78.314 0.519 8.52 3.67 9.44
8/3/2022 2:45:00 PM 26.17 79.106 0.517 8.54 3.92 9.41
8/3/2022 3:00:00 PM 26.4 79.52 0.518 8.55 3.91 9.48
8/3/2022 3:15:00 PM 26.54 79.772 0.518 8.55 4.9 9.48
8/3/2022 3:30:00 PM 26.86 80.348 0.516 8.53 4.2 9.42
8/3/2022 3:45:00 PM 26.68 80.024 0.517 8.54 3.71 9.35
8/3/2022 4:00:00 PM 27.22 80.996 0.519 8.55 3.93 9.27
8/3/2022 4:15:00 PM 26.96 80.528 0.519 8.55 3.71 9.34
8/3/2022 4:30:00 PM 27.27 81.086 0.518 8.55 3.67 9.1
8/3/2022 4:45:00 PM 27.43 81.374 0.519 8.56 4.01 9.05
8/3/2022 5:00:00 PM 27.1 80.78 0.518 8.55 3.76 8.96
8/3/2022 5:15:00 PM 26.73 80.114 0.519 8.53 3.31 8.92
8/3/2022 5:30:00 PM 26.85 80.33 0.52 8.56 3.37 8.77
8/3/2022 5:45:00 PM 26.44 79.592 0.519 8.53 3.39 8.68
8/3/2022 6:00:00 PM 26.25 79.25 0.521 8.42 3.53 8.48
8/3/2022 6:15:00 PM 26.09 78.962 0.521 8.5 3.39 8.37
8/3/2022 6:30:00 PM 25.61 78.098 0.521 8.41 3.1 8.21
8/3/2022 6:45:00 PM 25.62 78.116 0.521 8.4 3.27 8.05
8/3/2022 7:00:00 PM 25.48 77.864 0.521 8.38 3.27 7.97
8/3/2022 7:15:00 PM 25.36 77.648 0.522 8.31 3.26 7.83
8/3/2022 7:30:00 PM 25.16 77.288 0.523 8.3 3.26 7.75
8/3/2022 7:45:00 PM 24.96 76.92799 0.523 8.27 3.68 7.66
8/3/2022 8:00:00 PM 24.74 76.532 0.524 8.27 3.44 7.58
8/3/2022 8:15:00 PM 24.5 76.1 0.525 8.28 3.82 7.51
8/3/2022 8:30:00 PM 24.28 75.704 0.525 8.27 3.79 7.44
8/3/2022 8:45:00 PM 24.04 75.272 0.526 8.26 4.56 7.38
8/3/2022 9:00:00 PM 23.81 74.858 0.526 8.24 4.27 7.3
8/3/2022 9:15:00 PM 23.63 74.534 0.527 8.25 3.65 7.28
8/3/2022 9:30:00 PM 23.47 74.246 0.527 8.23 3.61 7.33
8/3/2022 9:45:00 PM 23.27 73.886 0.527 8.22 3.1 7.39
8/3/2022 10:00:00 PM 23.16 73.688 0.527 8.23 3.34 7.49
8/3/2022 10:15:00 PM 23.05 73.49 0.527 8.22 3 7.56
8/3/2022 10:30:00 PM 22.94 73.292 0.527 8.22 3.21 7.52
8/3/2022 10:45:00 PM 22.86 73.148 0.527 8.21 2.98 7.59
8/3/2022 11:00:00 PM 22.78 73.004 0.527 8.2 3.06 7.6
8/3/2022 11:15:00 PM 22.7 72.86 0.527 8.2 2.75 7.6
8/3/2022 11:30:00 PM 22.63 72.734 0.527 8.19 3.03 7.61
8/3/2022 11:45:00 PM 22.58 72.644 0.527 8.2 2.82 7.64
8/4/2022 12:00:00 AM 22.52 72.536 0.527 8.19 2.75 7.67
8/4/2022 12:15:00 AM 22.45 72.41 0.527 8.19 2.62 7.66
8/4/2022 12:30:00 AM 22.41 72.338 0.527 8.19 2.62 7.69
8/4/2022 12:45:00 AM 22.35 72.23 0.527 8.19 2.76 7.7
8/4/2022 1:00:00 AM 22.29 72.122 0.527 8.18 2.99 7.68
8/4/2022 1:15:00 AM 22.26 72.068 0.527 8.18 2.7 7.71
8/4/2022 1:30:00 AM 22.2 71.96 0.527 8.16 3.1 7.69
8/4/2022 1:45:00 AM 22.13 71.834 0.527 8.17 2.76 7.74
8/4/2022 2:00:00 AM 22.07 71.726 0.527 8.17 2.89 7.71
8/4/2022 2:15:00 AM 22.03 71.654 0.527 8.16 2.81 7.74
8/4/2022 2:30:00 AM 21.99 71.582 0.528 8.17 2.91 7.76
8/4/2022 2:45:00 AM 21.92 71.456 0.528 8.15 2.94 7.77
8/4/2022 3:00:00 AM 21.87 71.366 0.528 8.16 2.81 7.76
8/4/2022 3:15:00 AM 21.81 71.258 0.528 8.15 2.78 7.8
8/4/2022 3:30:00 AM 21.73 71.114 0.528 8.15 2.9 7.79
8/4/2022 3:45:00 AM 21.68 71.024 0.528 8.15 2.66 7.78
8/4/2022 4:00:00 AM 21.61 70.898 0.529 8.13 2.77 7.79
8/4/2022 4:15:00 AM 21.55 70.79 0.529 8.15 2.96 7.8
8/4/2022 4:30:00 AM 21.49 70.682 0.529 8.15 2.76 7.83
8/4/2022 4:45:00 AM 21.43 70.574 0.529 8.14 2.71 7.84
8/4/2022 5:00:00 AM 21.34 70.412 0.529 8.15 2.9 7.8
8/4/2022 5:15:00 AM 21.29 70.32201 0.53 8.15 2.72 7.83
8/4/2022 5:30:00 AM 21.24 70.232 0.53 8.13 2.98 7.85
8/4/2022 5:45:00 AM 21.18 70.124 0.53 8.14 3.13 7.91
8/4/2022 6:00:00 AM 21.14 70.052 0.53 8.14 3.14 7.89
8/4/2022 6:15:00 AM 21.1 69.98 0.531 8.14 2.76 7.92
8/4/2022 6:30:00 AM 21.06 69.908 0.531 8.12 2.78 7.96
8/4/2022 6:45:00 AM 20.96 69.728 0.531 8.14 2.95 7.94
8/4/2022 7:00:00 AM 20.96 69.728 0.531 8.13 3.09 7.98
8/4/2022 7:15:00 AM 20.94 69.692 0.532 8.16 3.05 8.06
8/4/2022 7:30:00 AM 20.89 69.602 0.532 8.18 3.06 8.07
8/4/2022 7:45:00 AM 20.9 69.62 0.532 8.19 3 8.14
8/4/2022 8:00:00 AM 20.9 69.62 0.532 8.22 2.71 8.14
8/4/2022 8:15:00 AM 20.96 69.728 0.532 8.24 2.86 8.16
8/4/2022 8:30:00 AM 20.96 69.728 0.532 8.25 2.88 8.18
8/4/2022 8:45:00 AM 21.02 69.836 0.532 8.26 2.62 8.29
8/4/2022 9:00:00 AM 21.21 70.17799 0.532 8.28 2.84 8.27
8/4/2022 9:15:00 AM 21.38 70.484 0.532 8.31 3.1 8.23
8/4/2022 9:30:00 AM 21.43 70.574 0.532 8.33 2.5 8.58
8/4/2022 9:45:00 AM 21.76 71.168 0.532 8.31 3.06 8.51
8/4/2022 10:00:00 AM 22.19 71.942 0.531 8.3 2.63 8.72
8/4/2022 10:15:00 AM 22.26 72.068 0.532 8.37 2.68 8.79
8/4/2022 10:30:00 AM 24.28 75.704 0.001 6.31 4.22 8.27
8/4/2022 10:45:00 AM 22.21 71.978 0.531 7.73 6.96 8.84
8/4/2022 11:00:00 AM 22.45 72.41 0.53 7.81 3.46 8.92
8/4/2022 11:15:00 AM 22.74 72.932 0.531 7.86 3.34 8.95
8/4/2022 11:30:00 AM 23.16 73.688 0.53 7.87 3.17 8.99
8/4/2022 11:45:00 AM 23.44 74.192 0.53 7.89 3.12 9.08
8/4/2022 12:00:00 PM 23.66 74.588 0.531 7.92 2.95 9.11
8/4/2022 12:15:00 PM 24.06 75.308 0.531 7.94 3.3 9.18
8/4/2022 12:30:00 PM 24.45 76.01 0.53 7.93 2.94 9.28
8/4/2022 12:45:00 PM 25.02 77.036 0.531 7.91 4.13 9.4
8/4/2022 1:00:00 PM 25.31 77.558 0.53 7.94 3.94 9.58
8/4/2022 1:15:00 PM 25.43 77.774 0.528 7.95 4.22 9.69
8/4/2022 1:30:00 PM 26.07 78.926 0.531 7.98 4 9.71
8/4/2022 1:45:00 PM 26.65 79.97 0.533 8.02 3.22 9.69
8/4/2022 2:00:00 PM 26.31 79.358 0.533 8.03 3.63 9.51
8/4/2022 2:15:00 PM 26.58 79.844 0.532 8.04 3.16 9.41
8/4/2022 2:30:00 PM 26.66 79.988 0.533 8.05 3.23 9.37
8/4/2022 2:45:00 PM 26.73 80.114 0.534 8.05 3.09 9.32
8/4/2022 3:00:00 PM 26.94 80.492 0.533 8.05 3.28 9.32
8/4/2022 3:15:00 PM 27.13 80.834 0.533 8.06 3.86 9.32
8/4/2022 3:30:00 PM 27.03 80.654 0.533 8.07 3.25 9.22
8/4/2022 3:45:00 PM 27.21 80.978 0.534 8.05 3.61 9.12
8/4/2022 4:00:00 PM 27.48 81.464 0.533 8.05 4.71 9.14
8/4/2022 4:15:00 PM 27.11 80.798 0.533 8.07 4.2 9.13
8/4/2022 4:30:00 PM 27.28 81.104 0.534 8.05 4.12 8.96
8/4/2022 4:45:00 PM 26.76 80.168 0.534 8.09 3.42 8.85
8/4/2022 5:00:00 PM 25.98 78.764 0.512 8.04 21.82 8.29
8/4/2022 5:15:00 PM 25.48 77.864 0.509 8.05 16.42 8.14
8/4/2022 5:30:00 PM 25.23 77.414 0.507 8.02 9.7 8
8/4/2022 5:45:00 PM 25.03 77.054 0.503 8 7.14 7.85
8/4/2022 6:00:00 PM 24.8 76.64 0.501 7.96 6.27 7.69
8/4/2022 6:15:00 PM 24.55 76.19 0.499 7.92 5.69 7.63
8/4/2022 6:30:00 PM 24.4 75.92 0.499 7.9 6.93 7.6
8/4/2022 6:45:00 PM 24.26 75.668 0.5 7.89 5.12 7.56
8/4/2022 7:00:00 PM 24.12 75.416 0.5 7.87 4.86 7.57
8/4/2022 7:15:00 PM 23.97 75.146 0.499 7.85 4.96 7.56
8/4/2022 7:30:00 PM 23.79 74.82201 0.5 7.84 4.72 7.59
8/4/2022 7:45:00 PM 23.64 74.552 0.502 7.83 4.66 7.65
8/4/2022 8:00:00 PM 23.51 74.318 0.502 7.82 6.02 7.66
8/4/2022 8:15:00 PM 23.4 74.12 0.501 7.81 6.9 7.63
8/4/2022 8:30:00 PM 23.29 73.922 0.5 7.8 6.79 7.66
8/4/2022 8:45:00 PM 23.19 73.742 0.501 7.79 6.9 7.64
8/4/2022 9:00:00 PM 23.14 73.652 0.502 7.78 5.78 7.69
8/4/2022 9:15:00 PM 23.09 73.562 0.502 7.78 5.69 7.64
8/4/2022 9:30:00 PM 23.1 73.58 0.504 7.78 5.21 7.67
8/4/2022 9:45:00 PM 23.11 73.598 0.504 7.78 5.42 7.66
8/4/2022 10:00:00 PM 23.11 73.598 0.504 7.78 4.78 7.63
8/4/2022 10:15:00 PM 23.07 73.526 0.504 7.78 4.81 7.63
8/4/2022 10:30:00 PM 23.09 73.562 0.503 7.77 4.64 7.63
8/4/2022 10:45:00 PM 23.09 73.562 0.503 7.77 5.34 7.62
8/4/2022 11:00:00 PM 23.07 73.526 0.503 7.77 5.02 7.63
8/4/2022 11:15:00 PM 23.03 73.454 0.504 7.76 4.83 7.61
8/4/2022 11:30:00 PM 22.99 73.382 0.504 7.76 4.62 7.63
8/4/2022 11:45:00 PM 22.93 73.274 0.505 7.76 4.82 7.63
8/5/2022 12:00:00 AM 22.88 73.184 0.507 7.75 4.38 7.61
8/5/2022 12:15:00 AM 22.83 73.094 0.508 7.75 4.52 7.63
8/5/2022 12:30:00 AM 22.77 72.986 0.51 7.74 4.56 7.64
8/5/2022 12:45:00 AM 22.71 72.878 0.513 7.74 4.14 7.68
8/5/2022 1:00:00 AM 22.67 72.806 0.516 7.74 3.95 7.7
8/5/2022 1:15:00 AM 22.61 72.698 0.518 7.73 4.41 7.71
8/5/2022 1:30:00 AM 22.53 72.554 0.521 7.73 4.25 7.71
8/5/2022 1:45:00 AM 22.46 72.42799 0.524 7.73 4.13 7.74
8/5/2022 2:00:00 AM 22.41 72.338 0.526 7.73 3.9 7.76
8/5/2022 2:15:00 AM 22.36 72.248 0.528 7.72 4.04 7.76
8/5/2022 2:30:00 AM 22.28 72.104 0.529 7.71 9.26 7.72
8/5/2022 2:45:00 AM 22.24 72.032 0.53 7.71 5.08 7.73
8/5/2022 3:00:00 AM 22.18 71.924 0.531 7.71 4.77 7.73
8/5/2022 3:15:00 AM 22.13 71.834 0.531 7.71 4.93 7.77
8/5/2022 3:30:00 AM 22.06 71.708 0.53 7.7 5.86 7.73
8/5/2022 3:45:00 AM 22.02 71.636 0.53 7.7 5.72 7.76
8/5/2022 4:00:00 AM 21.96 71.528 0.529 7.7 5.16 7.77
8/5/2022 4:15:00 AM 21.91 71.438 0.528 7.7 5.78 7.79
8/5/2022 4:30:00 AM 21.85 71.33 0.526 7.69 5.81 7.8
8/5/2022 4:45:00 AM 21.8 71.24 0.525 7.69 6.11 7.84
8/5/2022 5:00:00 AM 21.74 71.132 0.523 7.69 6.39 7.83
8/5/2022 5:15:00 AM 21.7 71.06 0.522 7.69 6.06 7.84
8/5/2022 5:30:00 AM 21.66 70.988 0.521 7.69 6.11 7.83
8/5/2022 5:45:00 AM 21.62 70.916 0.519 7.69 5.94 7.88
8/5/2022 6:00:00 AM 21.56 70.808 0.518 7.69 5.48 7.91
8/5/2022 6:15:00 AM 21.53 70.754 0.517 7.69 5.91 7.9
8/5/2022 6:30:00 AM 21.5 70.7 0.516 7.69 5.75 7.9
8/5/2022 6:45:00 AM 21.45 70.61 0.515 7.69 5.42 7.91
8/5/2022 7:00:00 AM 21.42 70.556 0.515 7.69 5.56 7.92
8/5/2022 7:15:00 AM 21.38 70.484 0.514 7.69 4.94 7.97
8/5/2022 7:30:00 AM 21.36 70.448 0.514 7.69 4.89 8.01
8/5/2022 7:45:00 AM 21.34 70.412 0.514 7.7 4.44 8.04
8/5/2022 8:00:00 AM 21.32 70.376 0.514 7.7 4.34 8.08
8/5/2022 8:15:00 AM 21.3 70.34 0.514 7.71 4.31 8.14
8/5/2022 8:30:00 AM 21.3 70.34 0.514 7.71 4.27 8.16
8/5/2022 8:45:00 AM 21.31 70.358 0.514 7.72 4.17 8.25
8/5/2022 9:00:00 AM 21.34 70.412 0.514 7.73 4.72 8.33
8/5/2022 9:15:00 AM 21.38 70.484 0.514 7.75 4.1 8.41
8/5/2022 9:30:00 AM 21.45 70.61 0.514 7.76 3.63 8.52
8/5/2022 9:45:00 AM 21.51 70.718 0.515 7.78 3.59 8.65
8/5/2022 10:00:00 AM 21.57 70.826 0.515 7.79 4.78 8.69
8/5/2022 10:15:00 AM 21.61 70.898 0.515 7.8 3.65 8.73
8/5/2022 10:30:00 AM 21.67 71.006 0.516 7.82 3.51 8.82
8/5/2022 10:45:00 AM 21.75 71.15 0.517 7.83 3.6 8.87
8/5/2022 11:00:00 AM 21.85 71.33 0.517 7.86 3.66 9.01
8/5/2022 11:15:00 AM 22.09 71.762 0.518 7.88 3.15 9.1
8/5/2022 11:30:00 AM 22.34 72.212 0.518 7.89 3.11 9.19
8/5/2022 11:45:00 AM 22.57 72.626 0.519 7.91 3.76 9.24
8/5/2022 12:00:00 PM 22.78 73.004 0.52 7.93 3.02 9.35
8/5/2022 12:15:00 PM 22.91 73.238 0.521 7.95 3.08 9.41
8/5/2022 12:30:00 PM 23.13 73.634 0.521 7.95 3.64 9.46
8/5/2022 12:45:00 PM 23.35 74.03 0.523 7.99 3.04 9.51
8/5/2022 1:00:00 PM 23.32 73.976 0.523 8 3.25 9.65
8/5/2022 1:15:00 PM 23.48 74.264 0.525 8.03 3.01 9.62
8/5/2022 1:30:00 PM 23.68 74.624 0.526 8.04 3.18 9.61
8/5/2022 1:45:00 PM 24.05 75.29 0.527 8.05 3.01 9.62
8/5/2022 2:00:00 PM 24.41 75.938 0.527 8.04 3.36 9.69
8/5/2022 2:15:00 PM 24.68 76.424 0.528 8.05 3.21 9.8
8/5/2022 2:30:00 PM 24.81 76.658 0.529 8.06 3.02 9.74
8/5/2022 2:45:00 PM 24.93 76.874 0.53 8.08 3.42 9.79
8/5/2022 3:00:00 PM 25.21 77.378 0.531 8.09 3.13 9.63
8/5/2022 3:15:00 PM 25.03 77.054 0.532 8.09 3.43 9.47
8/5/2022 3:30:00 PM 25.16 77.288 0.532 8.08 3.21 9.44
8/5/2022 3:45:00 PM 25.23 77.414 0.532 8.08 2.99 9.28
8/5/2022 4:00:00 PM 25.4 77.72 0.532 8.08 3.17 9.25
8/5/2022 4:15:00 PM 25.22 77.396 0.532 8.08 3.13 9.04
8/5/2022 4:30:00 PM 24.96 76.92799 0.532 8.07 3.36 8.84
8/5/2022 4:45:00 PM 24.86 76.748 0.532 8.05 3.56 8.68
8/5/2022 5:00:00 PM 24.84 76.712 0.532 8.04 3.49 8.6
8/5/2022 5:15:00 PM 24.87 76.766 0.532 8.04 3.29 8.58
8/5/2022 5:30:00 PM 24.86 76.748 0.531 8.04 3.15 8.61
8/5/2022 5:45:00 PM 24.88 76.784 0.531 8.04 3.17 8.65
8/5/2022 6:00:00 PM 24.88 76.784 0.53 8.03 3.24 8.6
8/5/2022 6:15:00 PM 24.79 76.622 0.53 8.04 2.91 8.5
8/5/2022 6:30:00 PM 24.73 76.514 0.53 8.04 3.14 8.49
8/5/2022 6:45:00 PM 24.67 76.406 0.529 8.03 3.15 8.44
8/5/2022 7:00:00 PM 24.54 76.172 0.529 8.02 2.96 8.35
8/5/2022 7:15:00 PM 24.45 76.01 0.529 8.01 3.23 8.22
8/5/2022 7:30:00 PM 24.33 75.794 0.529 7.99 3.32 8.11
8/5/2022 7:45:00 PM 24.17 75.506 0.529 7.96 3.76 7.98
8/5/2022 8:00:00 PM 24.07 75.326 0.529 7.94 3.42 7.91
8/5/2022 8:15:00 PM 23.97 75.146 0.53 7.93 3.52 7.81
8/5/2022 8:30:00 PM 23.82 74.876 0.529 7.9 3.38 7.76
8/5/2022 8:45:00 PM 23.71 74.67799 0.53 7.89 3.04 7.75
8/5/2022 9:00:00 PM 23.61 74.498 0.53 7.88 4.18 7.71
8/5/2022 9:15:00 PM 23.53 74.354 0.53 7.86 3.28 7.65
8/5/2022 9:30:00 PM 23.47 74.246 0.53 7.85 3.82 7.67
8/5/2022 9:45:00 PM 23.4 74.12 0.53 7.84 3.47 7.66
8/5/2022 10:00:00 PM 23.36 74.048 0.529 7.83 3.43 7.67
8/5/2022 10:15:00 PM 23.32 73.976 0.529 7.83 3 7.65
8/5/2022 10:30:00 PM 23.29 73.922 0.529 7.82 3.21 7.69
8/5/2022 10:45:00 PM 23.27 73.886 0.529 7.82 4.05 7.71
8/5/2022 11:00:00 PM 23.24 73.832 0.528 7.81 3.92 7.69
8/5/2022 11:15:00 PM 23.22 73.796 0.528 7.8 3.22 7.65
8/5/2022 11:30:00 PM 23.19 73.742 0.528 7.8 3.17 7.7
8/5/2022 11:45:00 PM 23.18 73.724 0.528 7.8 3.2 7.7
8/6/2022 12:00:00 AM 23.16 73.688 0.528 7.79 2.99 7.69
8/6/2022 12:15:00 AM 23.14 73.652 0.527 7.79 3.09 7.69
8/6/2022 12:30:00 AM 23.12 73.616 0.527 7.79 3.53 7.7
8/6/2022 12:45:00 AM 23.11 73.598 0.527 7.79 3.52 7.71
8/6/2022 1:00:00 AM 23.08 73.544 0.527 7.79 3.36 7.72
8/6/2022 1:15:00 AM 23.04 73.472 0.527 7.78 3.26 7.7
8/6/2022 1:30:00 AM 23.01 73.418 0.527 7.79 3.18 7.73
8/6/2022 1:45:00 AM 22.96 73.328 0.526 7.78 3.21 7.73
8/6/2022 2:00:00 AM 22.91 73.238 0.526 7.78 3.61 7.72
8/6/2022 2:15:00 AM 22.86 73.148 0.526 7.78 3.42 7.75
8/6/2022 2:30:00 AM 22.81 73.058 0.526 7.78 3.28 7.74
8/6/2022 2:45:00 AM 22.77 72.986 0.526 7.78 3.5 7.73
8/6/2022 3:00:00 AM 22.72 72.896 0.526 7.78 3.09 7.75
8/6/2022 3:15:00 AM 22.67 72.806 0.526 7.78 2.91 7.79
8/6/2022 3:30:00 AM 22.62 72.716 0.526 7.77 3.17 7.8
8/6/2022 3:45:00 AM 22.56 72.608 0.526 7.78 3.21 7.79
8/6/2022 4:00:00 AM 22.51 72.518 0.526 7.78 3.27 7.8
8/6/2022 4:15:00 AM 22.45 72.41 0.526 7.77 3.19 7.82
8/6/2022 4:30:00 AM 22.41 72.338 0.526 7.77 3.27 7.83
8/6/2022 4:45:00 AM 22.36 72.248 0.526 7.77 3.63 7.85
8/6/2022 5:00:00 AM 22.31 72.158 0.526 7.77 3.28 7.87
8/6/2022 5:15:00 AM 22.26 72.068 0.527 7.77 3.27 7.87
8/6/2022 5:30:00 AM 22.2 71.96 0.527 7.77 3.25 7.88
8/6/2022 5:45:00 AM 22.15 71.87 0.527 7.77 3.31 7.89
8/6/2022 6:00:00 AM 22.1 71.78 0.527 7.78 3.32 7.92
8/6/2022 6:15:00 AM 22.05 71.69 0.528 7.78 3.53 7.92
8/6/2022 6:30:00 AM 22 71.6 0.528 7.78 3.28 7.93
8/6/2022 6:45:00 AM 21.97 71.546 0.528 7.77 3.38 7.94
8/6/2022 7:00:00 AM 21.94 71.492 0.528 7.77 3.4 7.95
8/6/2022 7:15:00 AM 21.9 71.42 0.529 7.78 3.05 8.02
8/6/2022 7:30:00 AM 21.87 71.366 0.529 7.78 3.02 8.04
8/6/2022 7:45:00 AM 21.9 71.42 0.529 7.79 3.29 8.12
8/6/2022 8:00:00 AM 21.98 71.564 0.53 7.81 3.48 8.29
8/6/2022 8:15:00 AM 22.01 71.618 0.53 7.83 2.98 8.41
8/6/2022 8:30:00 AM 22.04 71.672 0.53 7.85 3.19 8.45
8/6/2022 8:45:00 AM 22.06 71.708 0.53 7.86 3 8.53
8/6/2022 9:00:00 AM 22.08 71.744 0.531 7.88 2.89 8.56
8/6/2022 9:15:00 AM 22.13 71.834 0.531 7.9 2.93 8.62
8/6/2022 9:30:00 AM 22.2 71.96 0.531 7.9 2.86 8.72
8/6/2022 9:45:00 AM 22.28 72.104 0.532 7.92 3.04 8.78
8/6/2022 10:00:00 AM 22.38 72.284 0.531 7.93 3.31 8.86
8/6/2022 10:15:00 AM 22.42 72.356 0.532 7.94 2.87 8.91
8/6/2022 10:30:00 AM 22.52 72.536 0.532 7.96 2.77 8.98
8/6/2022 10:45:00 AM 22.59 72.662 0.532 7.97 2.95 8.98
8/6/2022 11:00:00 AM 22.64 72.752 0.533 7.98 2.76 8.99
8/6/2022 11:15:00 AM 22.72 72.896 0.533 7.99 2.77 9.02
8/6/2022 11:30:00 AM 22.79 73.022 0.533 8 2.9 9.05
8/6/2022 11:45:00 AM 22.95 73.31 0.533 8.01 2.88 9.12
8/6/2022 12:00:00 PM 23.32 73.976 0.534 8.03 2.71 9.2
8/6/2022 12:15:00 PM 23.52 74.336 0.534 8.02 2.91 9.23
8/6/2022 12:30:00 PM 23.44 74.192 0.534 8.04 2.81 9.3
8/6/2022 12:45:00 PM 23.47 74.246 0.534 8.06 2.83 9.29
8/6/2022 1:00:00 PM 23.61 74.498 0.534 8.07 2.68 9.29
8/6/2022 1:15:00 PM 23.62 74.516 0.534 8.07 2.97 9.29
8/6/2022 1:30:00 PM 23.7 74.66 0.534 8.08 3.05 9.28
8/6/2022 1:45:00 PM 24.34 75.812 0.534 8.06 3.48 9.28
8/6/2022 2:00:00 PM 24.75 76.55 0.534 8.07 3.23 9.5
8/6/2022 2:15:00 PM 24.66 76.388 0.534 8.09 2.92 9.54
8/6/2022 2:30:00 PM 24.97 76.946 0.534 8.07 4.62 9.51
8/6/2022 2:45:00 PM 25.14 77.252 0.534 8.1 2.96 9.58
8/6/2022 3:00:00 PM 25.77 78.386 0.534 8.1 3.59 9.69
8/6/2022 3:15:00 PM 25.89 78.602 0.534 8.1 3.23 9.65
8/6/2022 3:30:00 PM 25.99 78.782 0.534 8.12 2.99 9.55
8/6/2022 3:45:00 PM 25.79 78.422 0.534 8.13 2.82 9.3
8/6/2022 4:00:00 PM 25.58 78.044 0.535 8.12 3.04 9.12
8/6/2022 4:15:00 PM 25.45 77.81 0.535 8.12 2.97 9.01
8/6/2022 4:30:00 PM 25.39 77.702 0.535 8.11 2.95 8.86
8/6/2022 4:45:00 PM 25.49 77.882 0.535 8.1 3.09 8.85
8/6/2022 5:00:00 PM 25.48 77.864 0.536 8.09 2.85 8.72
8/6/2022 5:15:00 PM 25.29 77.522 0.536 8.08 2.96 8.59
8/6/2022 5:30:00 PM 25.2 77.36 0.537 8.07 3.46 8.47
8/6/2022 5:45:00 PM 25.02 77.036 0.524 8.05 7.98 8.31
8/6/2022 6:00:00 PM 25 77 0.527 8.05 3.79 8.28
8/6/2022 6:15:00 PM 24.99 76.982 0.526 8.04 3.82 8.29
8/6/2022 6:30:00 PM 24.95 76.91 0.527 8.03 3.59 8.25
8/6/2022 6:45:00 PM 24.86 76.748 0.529 8.02 3.62 8.25
8/6/2022 7:00:00 PM 24.79 76.622 0.531 8.02 3.34 8.22
8/6/2022 7:15:00 PM 24.69 76.442 0.533 8 3.1 8.15
8/6/2022 7:30:00 PM 24.56 76.208 0.536 7.99 3.43 8.06
8/6/2022 7:45:00 PM 24.43 75.974 0.537 7.98 3.18 8
8/6/2022 8:00:00 PM 24.31 75.758 0.539 7.97 3.35 7.94
8/6/2022 8:15:00 PM 24.19 75.542 0.539 7.95 2.88 7.88
8/6/2022 8:30:00 PM 24.12 75.416 0.54 7.93 3.32 7.8
8/6/2022 8:45:00 PM 24.04 75.272 0.54 7.92 2.89 7.77
8/6/2022 9:00:00 PM 23.98 75.164 0.54 7.9 2.97 7.68
8/6/2022 9:15:00 PM 23.92 75.056 0.54 7.89 3.36 7.68
8/6/2022 9:30:00 PM 23.87 74.966 0.54 7.88 3.28 7.65
8/6/2022 9:45:00 PM 23.82 74.876 0.54 7.87 2.96 7.65
8/6/2022 10:00:00 PM 23.79 74.82201 0.54 7.86 3.39 7.66
8/6/2022 10:15:00 PM 23.76 74.768 0.54 7.85 4.35 7.62
8/6/2022 10:30:00 PM 23.73 74.714 0.539 7.85 3.12 7.63
8/6/2022 10:45:00 PM 23.69 74.642 0.539 7.84 2.97 7.62
8/6/2022 11:00:00 PM 23.67 74.606 0.538 7.84 3.09 7.65
8/6/2022 11:15:00 PM 23.64 74.552 0.538 7.83 3.02 7.64
8/6/2022 11:30:00 PM 23.59 74.462 0.538 7.83 2.96 7.64
8/6/2022 11:45:00 PM 23.55 74.39 0.537 7.83 2.66 7.63
8/7/2022 12:00:00 AM 23.51 74.318 0.537 7.83 2.95 7.67
8/7/2022 12:15:00 AM 23.47 74.246 0.537 7.83 3.16 7.63
8/7/2022 12:30:00 AM 23.41 74.138 0.537 7.82 8.3 7.65
8/7/2022 12:45:00 AM 23.38 74.084 0.537 7.82 3.19 7.66
8/7/2022 1:00:00 AM 23.34 74.012 0.537 7.82 3.09 7.69
8/7/2022 1:15:00 AM 23.29 73.922 0.538 7.82 3.14 7.68
8/7/2022 1:30:00 AM 23.25 73.85 0.538 7.82 2.8 7.65
8/7/2022 1:45:00 AM 23.22 73.796 0.539 7.81 2.89 7.7
8/7/2022 2:00:00 AM 23.17 73.706 0.539 7.81 2.83 7.68
8/7/2022 2:15:00 AM 23.11 73.598 0.54 7.81 2.9 7.7
8/7/2022 2:30:00 AM 23.05 73.49 0.541 7.8 2.94 7.72
8/7/2022 2:45:00 AM 23.01 73.418 0.541 7.8 3.09 7.72
8/7/2022 3:00:00 AM 22.97 73.346 0.542 7.8 2.71 7.75
8/7/2022 3:15:00 AM 22.93 73.274 0.542 7.8 9.64 7.73
8/7/2022 3:30:00 AM 22.89 73.202 0.543 7.79 3.83 7.72
8/7/2022 3:45:00 AM 22.85 73.13 0.543 7.8 3.04 7.76
8/7/2022 4:00:00 AM 22.8 73.04 0.543 7.8 3.26 7.77
8/7/2022 4:15:00 AM 22.75 72.95 0.544 7.8 3.1 7.75
8/7/2022 4:30:00 AM 22.7 72.86 0.544 7.79 2.78 7.76
8/7/2022 4:45:00 AM 22.66 72.788 0.544 7.79 6.45 7.76
8/7/2022 5:00:00 AM 22.63 72.734 0.544 7.79 3.45 7.77
8/7/2022 5:15:00 AM 22.58 72.644 0.544 7.79 4.21 7.83
8/7/2022 5:30:00 AM 22.53 72.554 0.545 7.79 3.52 7.81
8/7/2022 5:45:00 AM 22.49 72.482 0.545 7.79 3.21 7.82
8/7/2022 6:00:00 AM 22.45 72.41 0.545 7.79 3.13 7.84
8/7/2022 6:15:00 AM 22.42 72.356 0.545 7.79 3.66 7.86
8/7/2022 6:30:00 AM 22.38 72.284 0.545 7.79 3.16 7.88
8/7/2022 6:45:00 AM 22.35 72.23 0.545 7.79 3.22 7.89
8/7/2022 7:00:00 AM 22.33 72.194 0.545 7.79 3.4 7.91
8/7/2022 7:15:00 AM 22.3 72.14 0.546 7.79 3.44 7.94
8/7/2022 7:30:00 AM 22.28 72.104 0.546 7.79 3.33 7.97
8/7/2022 7:45:00 AM 22.26 72.068 0.546 7.78 3.14 7.99
8/7/2022 8:00:00 AM 22.25 72.05 0.546 7.79 3.28 8
8/7/2022 8:15:00 AM 22.26 72.068 0.546 7.79 3.36 8.09
8/7/2022 8:30:00 AM 22.29 72.122 0.546 7.8 3.27 8.18
8/7/2022 8:45:00 AM 22.34 72.212 0.545 7.81 3.18 8.27
8/7/2022 9:00:00 AM 22.35 72.23 0.546 7.83 2.96 8.35
8/7/2022 9:15:00 AM 22.38 72.284 0.546 7.83 3.11 8.38
8/7/2022 9:30:00 AM 22.41 72.338 0.546 7.85 3.36 8.44
8/7/2022 9:45:00 AM 22.43 72.374 0.546 7.85 2.91 8.47
8/7/2022 10:00:00 AM 22.48 72.464 0.546 7.87 3.4 8.56
8/7/2022 10:15:00 AM 22.57 72.626 0.546 7.88 3.07 8.63
8/7/2022 10:30:00 AM 22.73 72.914 0.547 7.91 2.92 8.77
8/7/2022 10:45:00 AM 22.95 73.31 0.546 7.92 2.89 8.87
8/7/2022 11:00:00 AM 23 73.4 0.546 7.94 2.94 8.95
8/7/2022 11:15:00 AM 23.09 73.562 0.546 7.96 3.33 8.98
8/7/2022 11:30:00 AM 23.17 73.706 0.544 7.98 2.94 8.95
8/7/2022 11:45:00 AM 23.21 73.778 0.544 7.98 3.33 8.95
8/7/2022 12:00:00 PM 23.38 74.084 0.544 7.99 2.87 8.98
8/7/2022 12:15:00 PM 23.76 74.768 0.544 7.98 3.26 9.03
8/7/2022 12:30:00 PM 24.4 75.92 0.545 7.96 3.77 9.02
8/7/2022 12:45:00 PM 24.43 75.974 0.544 8 3.06 9.1
8/7/2022 1:00:00 PM 24.58 76.244 0.544 8 3.08 9.14
8/7/2022 1:15:00 PM 25.03 77.054 0.544 8.01 3.37 9.17
8/7/2022 1:30:00 PM 25.24 77.432 0.544 8.03 2.94 9.19
8/7/2022 1:45:00 PM 25.65 78.17 0.544 8.04 2.96 9.27
8/7/2022 2:00:00 PM 26.2 79.16 0.546 8.04 3.1 9.32
8/7/2022 2:15:00 PM 26.35 79.43 0.546 8.07 2.77 9.33
8/7/2022 2:30:00 PM 26.35 79.43 0.546 8.07 2.82 9.29
8/7/2022 2:45:00 PM 26.73 80.114 0.547 8.08 2.98 9.45
8/7/2022 3:00:00 PM 26.84 80.312 0.547 8.08 2.97 9.34
8/7/2022 3:15:00 PM 26.95 80.51 0.547 8.08 3.02 9.28
8/7/2022 3:30:00 PM 27.12 80.816 0.548 8.08 3.1 9.18
8/7/2022 3:45:00 PM 27.25 81.05 0.548 8.08 2.84 9.11
8/7/2022 4:00:00 PM 27.21 80.978 0.548 8.08 3.07 9.01
8/7/2022 4:15:00 PM 27.37 81.266 0.549 8.08 3.22 9.05
8/7/2022 4:30:00 PM 27.41 81.338 0.549 8.08 3.05 8.93
8/7/2022 4:45:00 PM 27.34 81.212 0.549 8.08 2.69 8.8
8/7/2022 5:00:00 PM 27.26 81.068 0.549 8.08 2.81 8.73
8/7/2022 5:15:00 PM 27.08 80.744 0.55 8.07 3.09 8.55
8/7/2022 5:30:00 PM 27 80.6 0.55 8.07 2.9 8.47
8/7/2022 5:45:00 PM 27.01 80.618 0.55 8.06 3.27 8.39
8/7/2022 6:00:00 PM 26.95 80.51 0.551 8.05 3.18 8.32
8/7/2022 6:15:00 PM 26.81 80.258 0.551 8.05 3.17 8.22
8/7/2022 6:30:00 PM 26.67 80.006 0.551 8.04 3.02 8.13
8/7/2022 6:45:00 PM 26.57 79.826 0.552 8.04 3.26 8.09
8/7/2022 7:00:00 PM 26.51 79.718 0.552 8.03 3.23 8.02
8/7/2022 7:15:00 PM 26.39 79.502 0.552 8.02 3.33 7.92
8/7/2022 7:30:00 PM 26.23 79.214 0.553 8.01 2.87 7.83
8/7/2022 7:45:00 PM 26.06 78.908 0.553 8 3.1 7.76
8/7/2022 8:00:00 PM 25.89 78.602 0.554 7.98 2.88 7.68
8/7/2022 8:15:00 PM 25.74 78.332 0.554 7.97 3.22 7.61
8/7/2022 8:30:00 PM 25.56 78.008 0.555 7.94 2.88 7.51
8/7/2022 8:45:00 PM 25.39 77.702 0.555 7.92 3.02 7.45
8/7/2022 9:00:00 PM 25.24 77.432 0.556 7.9 3.14 7.32
8/7/2022 9:15:00 PM 25.07 77.126 0.556 7.89 3.22 7.39
8/7/2022 9:30:00 PM 24.94 76.892 0.556 7.88 3.01 7.38
8/7/2022 9:45:00 PM 24.82 76.676 0.556 7.87 3.69 7.4
8/7/2022 10:00:00 PM 24.72 76.496 0.556 7.87 3.14 7.41
8/7/2022 10:15:00 PM 24.64 76.352 0.557 7.86 2.73 7.43
8/7/2022 10:30:00 PM 24.55 76.19 0.556 7.85 2.78 7.43
8/7/2022 10:45:00 PM 24.49 76.082 0.557 7.85 2.82 7.44
8/7/2022 11:00:00 PM 24.42 75.956 0.557 7.85 2.88 7.46
8/7/2022 11:15:00 PM 24.36 75.848 0.557 7.84 2.79 7.45
8/7/2022 11:30:00 PM 24.29 75.722 0.556 7.84 2.8 7.47
8/7/2022 11:45:00 PM 24.26 75.668 0.556 7.83 3 7.45
8/8/2022 12:00:00 AM 24.18 75.524 0.556 7.83 2.66 7.47
8/8/2022 12:15:00 AM 24.14 75.452 0.556 7.83 4.13 7.47
8/8/2022 12:30:00 AM 24.08 75.344 0.556 7.82 2.76 7.5
8/8/2022 12:45:00 AM 24.01 75.218 0.556 7.82 2.8 7.5
8/8/2022 1:00:00 AM 23.96 75.128 0.556 7.82 3.72 7.52
8/8/2022 1:15:00 AM 23.91 75.038 0.556 7.81 2.94 7.5
8/8/2022 1:30:00 AM 23.84 74.912 0.556 7.81 2.72 7.51
8/8/2022 1:45:00 AM 23.8 74.84 0.556 7.81 3.02 7.56
8/8/2022 2:00:00 AM 23.75 74.75 0.556 7.8 2.86 7.54
8/8/2022 2:15:00 AM 23.69 74.642 0.556 7.8 2.87 7.54
8/8/2022 2:30:00 AM 23.63 74.534 0.556 7.8 2.89 7.55
8/8/2022 2:45:00 AM 23.55 74.39 0.556 7.8 2.87 7.58
8/8/2022 3:00:00 AM 23.51 74.318 0.556 7.8 2.81 7.6
8/8/2022 3:15:00 AM 23.44 74.192 0.556 7.8 2.76 7.58
8/8/2022 3:30:00 AM 23.39 74.102 0.556 7.8 2.9 7.63
8/8/2022 3:45:00 AM 23.32 73.976 0.556 7.79 2.95 7.61
8/8/2022 4:00:00 AM 23.25 73.85 0.556 7.8 2.8 7.63
8/8/2022 4:15:00 AM 23.19 73.742 0.556 7.79 3.24 7.58
8/8/2022 4:30:00 AM 23.13 73.634 0.556 7.79 3.38 7.62
8/8/2022 4:45:00 AM 23.06 73.508 0.556 7.79 2.98 7.67
8/8/2022 5:00:00 AM 22.99 73.382 0.556 7.79 2.92 7.68
8/8/2022 5:15:00 AM 22.91 73.238 0.556 7.79 3.4 7.7
8/8/2022 5:30:00 AM 22.86 73.148 0.556 7.79 3 7.7
8/8/2022 5:45:00 AM 22.79 73.022 0.556 7.79 3.29 7.72
8/8/2022 6:00:00 AM 22.73 72.914 0.556 7.79 3.2 7.72
8/8/2022 6:15:00 AM 22.69 72.842 0.557 7.79 3.17 7.75
8/8/2022 6:30:00 AM 22.61 72.698 0.557 7.79 3.22 7.76
8/8/2022 6:45:00 AM 22.57 72.626 0.557 7.79 2.91 7.8
8/8/2022 7:00:00 AM 22.54 72.57201 0.557 7.78 4.22 7.77
8/8/2022 7:15:00 AM 22.54 72.57201 0.557 7.8 2.94 7.84
8/8/2022 7:30:00 AM 22.54 72.57201 0.557 7.8 2.88 7.87
8/8/2022 7:45:00 AM 22.52 72.536 0.557 7.8 2.85 7.92
8/8/2022 8:00:00 AM 22.54 72.57201 0.557 7.81 3.17 7.96
8/8/2022 8:15:00 AM 22.56 72.608 0.558 7.81 3.27 8.02
8/8/2022 8:30:00 AM 22.57 72.626 0.558 7.82 2.8 8.06
8/8/2022 8:45:00 AM 22.59 72.662 0.558 7.83 3.14 8.14
8/8/2022 9:00:00 AM 22.62 72.716 0.558 7.83 3 8.17
8/8/2022 9:15:00 AM 22.69 72.842 0.558 7.84 3.23 8.26
8/8/2022 9:30:00 AM 22.8 73.04 0.558 7.86 3.16 8.37
8/8/2022 9:45:00 AM 22.91 73.238 0.558 7.89 2.84 8.54
8/8/2022 10:00:00 AM 23.01 73.418 0.559 7.91 3 8.61
8/8/2022 10:15:00 AM 23.12 73.616 0.559 7.93 2.78 8.7
8/8/2022 10:30:00 AM 23.24 73.832 0.559 7.95 2.89 8.76
8/8/2022 10:45:00 AM 23.34 74.012 0.559 7.97 3.34 8.75
8/8/2022 11:00:00 AM 23.53 74.354 0.559 7.99 2.9 8.8
8/8/2022 11:15:00 AM 23.72 74.696 0.559 8 2.82 8.86
8/8/2022 11:30:00 AM 23.87 74.966 0.559 8 2.8 8.87
8/8/2022 11:45:00 AM 23.96 75.128 0.559 8.02 2.84 8.86
8/8/2022 12:00:00 PM 23.98 75.164 0.56 8.03 2.78 8.8
8/8/2022 12:15:00 PM 24.07 75.326 0.56 8.04 2.64 8.74
8/8/2022 12:30:00 PM 24.57 76.226 0.56 8.01 2.93 8.84
8/8/2022 12:45:00 PM 24.83 76.694 0.559 8 3.36 8.85
8/8/2022 1:00:00 PM 25.04 77.07201 0.56 8.01 3.43 8.93
8/8/2022 1:15:00 PM 25.31 77.558 0.56 8.02 3.21 8.96
8/8/2022 1:30:00 PM 25.54 77.972 0.561 8.04 2.81 9.02
8/8/2022 1:45:00 PM 25.66 78.188 0.561 8.06 2.64 9.03
8/8/2022 2:00:00 PM 25.74 78.332 0.561 8.06 2.86 8.92
8/8/2022 2:15:00 PM 25.77 78.386 0.561 8.07 2.66 8.95
8/8/2022 2:30:00 PM 25.61 78.098 0.559 8.09 3.1 8.86
8/8/2022 2:45:00 PM 25.65 78.17 0.56 8.09 2.74 8.84
8/8/2022 3:00:00 PM 25.66 78.188 0.559 8.09 2.92 8.83
8/8/2022 3:15:00 PM 25.66 78.188 0.559 8.09 3.22 8.87
8/8/2022 3:30:00 PM 25.55 77.99 0.543 8.09 15.81 8.69
8/8/2022 3:45:00 PM 25.29 77.522 0.546 8.08 7.68 8.56
8/8/2022 4:00:00 PM 25.24 77.432 0.544 8.08 6.13 8.46
8/8/2022 4:15:00 PM 25.33 77.594 0.544 8.07 5.1 8.46
8/8/2022 4:30:00 PM 25.44 77.792 0.543 8.05 5.15 8.46
8/8/2022 4:45:00 PM 25.47 77.846 0.543 8.06 4.64 8.58
8/8/2022 5:00:00 PM 25.58 78.044 0.543 8.05 4.05 8.64
8/8/2022 5:15:00 PM 25.49 77.882 0.542 8.05 3.99 8.58
8/8/2022 5:30:00 PM 25.18 77.324 0.543 8.07 3.46 8.48
8/8/2022 5:45:00 PM 25.19 77.342 0.542 8.05 3.76 8.41
8/8/2022 6:00:00 PM 25.25 77.45 0.542 8.05 3.82 8.4
8/8/2022 6:15:00 PM 25.24 77.432 0.542 8.05 3.33 8.42
8/8/2022 6:30:00 PM 25.15 77.27 0.543 8.04 3.4 8.34
8/8/2022 6:45:00 PM 25.06 77.108 0.544 8.03 3.87 8.28
8/8/2022 7:00:00 PM 24.95 76.91 0.545 8.03 3.05 8.22
8/8/2022 7:15:00 PM 24.79 76.622 0.546 8.01 3.29 8.08
8/8/2022 7:30:00 PM 24.67 76.406 0.546 8.01 3 8.01
8/8/2022 7:45:00 PM 24.56 76.208 0.547 8 3.33 7.95
8/8/2022 8:00:00 PM 24.46 76.028 0.548 7.98 3.25 7.88
8/8/2022 8:15:00 PM 24.35 75.83 0.549 7.97 2.95 7.81
8/8/2022 8:30:00 PM 24.27 75.686 0.55 7.96 2.97 7.74
8/8/2022 8:45:00 PM 24.16 75.488 0.551 7.94 3.22 7.67
8/8/2022 9:00:00 PM 24.07 75.326 0.551 7.92 3.24 7.63
8/8/2022 9:15:00 PM 23.99 75.182 0.552 7.91 3.12 7.61
8/8/2022 9:30:00 PM 23.93 75.074 0.552 7.9 3.09 7.57
8/8/2022 9:45:00 PM 23.85 74.93 0.552 7.89 3.22 7.51
8/8/2022 10:00:00 PM 23.78 74.804 0.552 7.88 4.03 7.51
8/8/2022 10:15:00 PM 23.71 74.67799 0.551 7.87 2.98 7.54
8/8/2022 10:30:00 PM 23.63 74.534 0.551 7.86 3.08 7.56
8/8/2022 10:45:00 PM 23.56 74.408 0.55 7.86 3.03 7.57
8/8/2022 11:00:00 PM 23.48 74.264 0.549 7.85 3 7.59
8/8/2022 11:15:00 PM 23.43 74.174 0.549 7.85 3.05 7.59
8/8/2022 11:30:00 PM 23.37 74.066 0.549 7.85 2.93 7.62
8/8/2022 11:45:00 PM 23.32 73.976 0.549 7.84 2.91 7.59
8/9/2022 12:00:00 AM 23.27 73.886 0.549 7.83 2.97 7.61
8/9/2022 12:15:00 AM 23.21 73.778 0.549 7.83 2.71 7.64
8/9/2022 12:30:00 AM 23.18 73.724 0.549 7.82 2.91 7.6
8/9/2022 12:45:00 AM 23.13 73.634 0.549 7.82 2.74 7.61
8/9/2022 1:00:00 AM 23.09 73.562 0.55 7.82 2.86 7.64
8/9/2022 1:15:00 AM 23.06 73.508 0.549 7.82 2.91 7.66
8/9/2022 1:30:00 AM 23.02 73.436 0.547 7.82 3.04 7.64
8/9/2022 1:45:00 AM 22.99 73.382 0.547 7.81 2.93 7.65
8/9/2022 2:00:00 AM 22.97 73.346 0.546 7.81 2.99 7.67
8/9/2022 2:15:00 AM 22.96 73.328 0.545 7.81 2.97 7.68
8/9/2022 2:30:00 AM 22.92 73.256 0.545 7.8 2.91 7.61
8/9/2022 2:45:00 AM 22.91 73.238 0.545 7.79 3.08 7.55
8/9/2022 3:00:00 AM 22.87 73.166 0.545 7.78 2.93 7.59
8/9/2022 3:15:00 AM 22.85 73.13 0.545 7.78 4.15 7.63
8/9/2022 3:30:00 AM 22.85 73.13 0.545 7.78 3.66 7.59
8/9/2022 3:45:00 AM 22.83 73.094 0.546 7.77 3.08 7.61
8/9/2022 4:00:00 AM 22.81 73.058 0.546 7.77 3.01 7.61
8/9/2022 4:15:00 AM 22.79 73.022 0.546 7.77 3.24 7.63
8/9/2022 4:30:00 AM 22.77 72.986 0.546 7.77 9.69 7.66
8/9/2022 4:45:00 AM 22.75 72.95 0.546 7.76 3.12 7.64
8/9/2022 5:00:00 AM 22.73 72.914 0.547 7.76 2.98 7.64
8/9/2022 5:15:00 AM 22.71 72.878 0.547 7.76 3.09 7.61
8/9/2022 5:30:00 AM 22.67 72.806 0.548 7.76 3.2 7.67
8/9/2022 5:45:00 AM 22.65 72.77 0.548 7.76 3.17 7.7
8/9/2022 6:00:00 AM 22.64 72.752 0.549 7.76 3.18 7.71
8/9/2022 6:15:00 AM 22.63 72.734 0.549 7.75 3.72 7.7
8/9/2022 6:30:00 AM 22.59 72.662 0.549 7.75 3.11 7.71
8/9/2022 6:45:00 AM 22.57 72.626 0.55 7.75 3.11 7.73
8/9/2022 7:00:00 AM 22.56 72.608 0.55 7.74 3.43 7.74
8/9/2022 7:15:00 AM 22.55 72.59 0.55 7.75 3.55 7.8
8/9/2022 7:30:00 AM 22.58 72.644 0.55 7.75 3.2 7.84
8/9/2022 7:45:00 AM 22.62 72.716 0.551 7.77 3.28 7.95
8/9/2022 8:00:00 AM 22.65 72.77 0.551 7.77 3.13 8
8/9/2022 8:15:00 AM 22.7 72.86 0.551 7.79 3.04 8.08
8/9/2022 8:30:00 AM 22.79 73.022 0.551 7.81 2.99 8.17
8/9/2022 8:45:00 AM 22.85 73.13 0.551 7.83 2.8 8.27
8/9/2022 9:00:00 AM 22.88 73.184 0.55 7.84 3.39 8.32
8/9/2022 9:15:00 AM 22.95 73.31 0.55 7.85 3.38 8.4
8/9/2022 9:30:00 AM 23.04 73.472 0.55 7.87 3.11 8.44
8/9/2022 9:45:00 AM 23.18 73.724 0.55 7.88 2.79 8.56
8/9/2022 10:00:00 AM 23.25 73.85 0.55 7.91 3.08 8.66
8/9/2022 10:15:00 AM 23.35 74.03 0.55 7.93 2.97 8.7
8/9/2022 10:30:00 AM 23.37 74.066 0.55 7.95 3.16 8.72
8/9/2022 10:45:00 AM 23.45 74.21 0.551 7.96 2.99 8.73
8/9/2022 11:00:00 AM 23.55 74.39 0.551 7.98 2.79 8.76
8/9/2022 11:15:00 AM 23.63 74.534 0.552 7.98 2.81 8.79
8/9/2022 11:30:00 AM 23.67 74.606 0.552 7.99 2.89 8.79
8/9/2022 11:45:00 AM 23.75 74.75 0.553 8.01 3.07 8.82
8/9/2022 12:00:00 PM 23.89 75.002 0.555 8.02 2.75 8.84
8/9/2022 12:15:00 PM 23.95 75.11 0.554 8.02 2.82 8.88
8/9/2022 12:30:00 PM 24.05 75.29 0.555 8.03 2.99 8.93
8/9/2022 12:45:00 PM 24.08 75.344 0.556 8.04 2.79 8.93
8/9/2022 1:00:00 PM 24.12 75.416 0.556 8.05 2.74 8.94
8/9/2022 1:15:00 PM 24.21 75.578 0.557 8.05 2.85 8.96
8/9/2022 1:30:00 PM 24.19 75.542 0.558 8.06 2.9 8.92
8/9/2022 1:45:00 PM 24.1 75.38 0.559 8.06 2.85 8.85
8/9/2022 2:00:00 PM 24.07 75.326 0.559 8.06 2.74 8.83
8/9/2022 2:15:00 PM 24.06 75.308 0.561 8.06 2.76 8.81
8/9/2022 2:30:00 PM 24.09 75.362 0.561 8.07 2.76 8.9
8/9/2022 2:45:00 PM 24.11 75.398 0.561 8.07 2.79 8.89
8/9/2022 3:00:00 PM 24.03 75.254 0.562 8.07 2.92 8.8
8/9/2022 3:15:00 PM 23.91 75.038 0.562 8.07 2.91 8.69
8/9/2022 3:30:00 PM 23.81 74.858 0.562 8.06 2.88 8.54
8/9/2022 3:45:00 PM 23.81 74.858 0.562 8.06 2.75 8.57
8/9/2022 4:00:00 PM 23.88 74.984 0.562 8.06 2.92 8.65
8/9/2022 4:15:00 PM 23.88 74.984 0.562 8.06 2.69 8.66
8/9/2022 4:30:00 PM 23.83 74.894 0.562 8.06 2.65 8.66
8/9/2022 4:45:00 PM 23.8 74.84 0.562 8.06 3 8.61
8/9/2022 5:00:00 PM 23.79 74.82201 0.563 8.06 2.98 8.61
8/9/2022 5:15:00 PM 23.84 74.912 0.563 8.06 3.28 8.62
8/9/2022 5:30:00 PM 24 75.2 0.563 8.06 2.63 8.68
8/9/2022 5:45:00 PM 24.07 75.326 0.562 8.06 2.82 8.71
8/9/2022 6:00:00 PM 24.05 75.29 0.562 8.07 3.06 8.71
8/9/2022 6:15:00 PM 24.01 75.218 0.562 8.07 2.88 8.64
8/9/2022 6:30:00 PM 23.95 75.11 0.562 8.06 2.81 8.54
8/9/2022 6:45:00 PM 23.92 75.056 0.562 8.06 2.7 8.48
8/9/2022 7:00:00 PM 23.86 74.948 0.562 8.05 2.69 8.41
8/9/2022 7:15:00 PM 23.78 74.804 0.561 8.04 2.83 8.33
8/9/2022 7:30:00 PM 23.73 74.714 0.561 8.02 2.85 8.23
8/9/2022 7:45:00 PM 23.69 74.642 0.561 8.01 2.83 8.16
8/9/2022 8:00:00 PM 23.65 74.57 0.561 8 2.74 8.1
8/9/2022 8:15:00 PM 23.6 74.48 0.561 7.98 3.07 7.98
8/9/2022 8:30:00 PM 23.53 74.354 0.561 7.96 2.92 7.91
8/9/2022 8:45:00 PM 23.46 74.228 0.561 7.94 3.35 7.84
8/9/2022 9:00:00 PM 23.39 74.102 0.561 7.92 3.08 7.75
8/9/2022 9:15:00 PM 23.32 73.976 0.561 7.91 2.87 7.7
8/9/2022 9:30:00 PM 23.25 73.85 0.561 7.9 3.11 7.73
8/9/2022 9:45:00 PM 23.17 73.706 0.561 7.89 3.64 7.71
8/9/2022 10:00:00 PM 23.08 73.544 0.561 7.88 3.45 7.76
8/9/2022 10:15:00 PM 23.02 73.436 0.561 7.87 3.21 7.7
8/9/2022 10:30:00 PM 22.98 73.364 0.561 7.86 3.2 7.7
8/9/2022 10:45:00 PM 22.93 73.274 0.56 7.87 3.08 7.74
8/9/2022 11:00:00 PM 22.89 73.202 0.56 7.86 3.02 7.77
8/9/2022 11:15:00 PM 22.86 73.148 0.56 7.86 3.28 7.77
8/9/2022 11:30:00 PM 22.82 73.076 0.559 7.85 2.8 7.75
8/9/2022 11:45:00 PM 22.79 73.022 0.559 7.85 2.85 7.76
8/10/2022 12:00:00 AM 22.75 72.95 0.559 7.85 5.11 7.78
8/10/2022 12:15:00 AM 22.72 72.896 0.559 7.84 4.81 7.76
8/10/2022 12:30:00 AM 22.7 72.86 0.558 7.84 3.53 7.76
8/10/2022 12:45:00 AM 22.67 72.806 0.558 7.83 3.65 7.76
8/10/2022 1:00:00 AM 22.65 72.77 0.558 7.83 3.48 7.81
8/10/2022 1:15:00 AM 22.63 72.734 0.557 7.83 3.06 7.8
8/10/2022 1:30:00 AM 22.59 72.662 0.557 7.83 3.07 7.79
8/10/2022 1:45:00 AM 22.56 72.608 0.557 7.83 3.34 7.83
8/10/2022 2:00:00 AM 22.53 72.554 0.556 7.83 3.61 7.82
8/10/2022 2:15:00 AM 22.5 72.5 0.556 7.82 4.32 7.79
8/10/2022 2:30:00 AM 22.47 72.446 0.556 7.82 3.4 7.79
8/10/2022 2:45:00 AM 22.44 72.392 0.555 7.83 3.12 7.84
8/10/2022 3:00:00 AM 22.39 72.302 0.555 7.83 3.07 7.84
8/10/2022 3:15:00 AM 22.34 72.212 0.555 7.83 4.53 7.82
8/10/2022 3:30:00 AM 22.31 72.158 0.554 7.83 2.88 7.85
8/10/2022 3:45:00 AM 22.28 72.104 0.554 7.83 3.08 7.85
8/10/2022 4:00:00 AM 22.22 71.996 0.554 7.83 2.98 7.84
8/10/2022 4:15:00 AM 22.18 71.924 0.554 7.83 3.12 7.87
8/10/2022 4:30:00 AM 22.15 71.87 0.553 7.83 2.75 7.87
8/10/2022 4:45:00 AM 22.11 71.798 0.553 7.83 2.78 7.89
8/10/2022 5:00:00 AM 22.05 71.69 0.553 7.83 2.71 7.89
8/10/2022 5:15:00 AM 22 71.6 0.552 7.83 2.86 7.92
8/10/2022 5:30:00 AM 21.97 71.546 0.552 7.83 3.03 7.92
8/10/2022 5:45:00 AM 21.92 71.456 0.552 7.83 3.09 7.92
8/10/2022 6:00:00 AM 21.87 71.366 0.551 7.83 2.93 7.94
8/10/2022 6:15:00 AM 21.8 71.24 0.551 7.83 3.1 7.94
8/10/2022 6:30:00 AM 21.77 71.186 0.551 7.83 3.32 7.96
8/10/2022 6:45:00 AM 21.71 71.078 0.551 7.83 3.36 7.96
8/10/2022 7:00:00 AM 21.67 71.006 0.55 7.83 3 8
8/10/2022 7:15:00 AM 21.66 70.988 0.55 7.83 3.13 8.03
8/10/2022 7:30:00 AM 21.65 70.97 0.55 7.84 2.86 8.1
8/10/2022 7:45:00 AM 21.62 70.916 0.549 7.85 2.97 8.14
8/10/2022 8:00:00 AM 21.59 70.862 0.549 7.85 3.07 8.16
8/10/2022 8:15:00 AM 21.58 70.844 0.549 7.86 3.29 8.25
8/10/2022 8:30:00 AM 21.6 70.88 0.549 7.88 3.12 8.32
8/10/2022 8:45:00 AM 21.63 70.934 0.548 7.89 2.99 8.42
8/10/2022 9:00:00 AM 21.65 70.97 0.548 7.9 2.82 8.49
8/10/2022 9:15:00 AM 21.69 71.042 0.548 7.92 2.74 8.62
8/10/2022 9:30:00 AM 21.73 71.114 0.547 7.94 2.97 8.71
8/10/2022 9:45:00 AM 21.74 71.132 0.547 7.95 3.17 8.76
8/10/2022 10:00:00 AM 21.77 71.186 0.547 7.97 2.99 8.83
8/10/2022 10:15:00 AM 21.84 71.312 0.547 7.98 2.88 8.89
8/10/2022 10:30:00 AM 21.88 71.384 0.546 7.99 2.88 8.97
8/10/2022 10:45:00 AM 21.98 71.564 0.546 8.01 2.77 9.03
8/10/2022 11:00:00 AM 22.06 71.708 0.546 8.01 2.93 9.06
8/10/2022 11:15:00 AM 22.25 72.05 0.546 7.99 3.82 9.07
8/10/2022 11:30:00 AM 22.5 72.5 0.545 7.97 4.29 9.03
8/10/2022 11:45:00 AM 22.56 72.608 0.545 7.99 3.96 9.09
8/10/2022 12:00:00 PM 22.74 72.932 0.545 7.97 5.18 9.04
8/10/2022 12:15:00 PM 22.94 73.292 0.544 7.97 5.27 9.12
8/10/2022 12:30:00 PM 23.11 73.598 0.544 8.04 3.7 9.36
8/10/2022 12:45:00 PM 23.16 73.688 0.542 8.09 3.74 9.41
8/10/2022 1:00:00 PM 23.29 73.922 0.542 8.1 3.34 9.45
8/10/2022 1:15:00 PM 23.39 74.102 0.542 8.13 3.32 9.53
8/10/2022 1:30:00 PM 23.52 74.336 0.542 8.14 3.39 9.51
8/10/2022 1:45:00 PM 23.63 74.534 0.541 8.14 3.04 9.48
8/10/2022 2:00:00 PM 23.91 75.038 0.541 8.13 3.62 9.5
8/10/2022 2:15:00 PM 24.06 75.308 0.54 8.14 3.59 9.57
8/10/2022 2:30:00 PM 24.22 75.596 0.54 8.17 3.22 9.64
8/10/2022 2:45:00 PM 25.01 77.018 0.54 8.15 3.88 9.75
8/10/2022 3:00:00 PM 25.04 77.07201 0.539 8.17 3.74 9.72
8/10/2022 3:15:00 PM 25.43 77.774 0.539 8.16 3.26 9.74
8/10/2022 3:30:00 PM 25.64 78.152 0.539 8.16 3.18 9.61
8/10/2022 3:45:00 PM 25.72 78.296 0.538 8.16 3.24 9.52
8/10/2022 4:00:00 PM 25.86 78.548 0.539 8.16 3.46 9.42
8/10/2022 4:15:00 PM 25.8 78.44 0.538 8.16 3.26 9.3
8/10/2022 4:30:00 PM 25.81 78.458 0.538 8.15 3.41 9.2
8/10/2022 4:45:00 PM 25.63 78.134 0.537 8.15 3.2 9.11
8/10/2022 5:00:00 PM 25.48 77.864 0.537 8.14 2.98 8.95
8/10/2022 5:15:00 PM 25.35 77.63 0.537 8.14 3.07 8.84
8/10/2022 5:30:00 PM 25.3 77.54 0.537 8.14 2.86 8.76
8/10/2022 5:45:00 PM 25.22 77.396 0.536 8.13 3.25 8.69
8/10/2022 6:00:00 PM 25.07 77.126 0.536 8.12 3.27 8.57
8/10/2022 6:15:00 PM 24.92 76.856 0.536 8.11 3.24 8.46
8/10/2022 6:30:00 PM 24.8 76.64 0.536 8.11 2.98 8.38
8/10/2022 6:45:00 PM 24.72 76.496 0.535 8.1 3.92 8.32
8/10/2022 7:00:00 PM 24.6 76.28 0.535 8.08 3.29 8.21
8/10/2022 7:15:00 PM 24.47 76.046 0.535 8.07 3.23 8.17
8/10/2022 7:30:00 PM 24.3 75.74 0.535 8.06 3.1 8.07
8/10/2022 7:45:00 PM 24.13 75.434 0.535 8.04 3.38 7.97
8/10/2022 8:00:00 PM 23.96 75.128 0.535 8.02 3.04 7.94
8/10/2022 8:15:00 PM 23.79 74.82201 0.535 8.01 2.87 7.89
8/10/2022 8:30:00 PM 23.64 74.552 0.535 7.99 2.81 7.83
8/10/2022 8:45:00 PM 23.49 74.282 0.535 7.97 3.03 7.79
8/10/2022 9:00:00 PM 23.34 74.012 0.534 7.96 2.91 7.78
8/10/2022 9:15:00 PM 23.2 73.76 0.534 7.94 2.9 7.74
8/10/2022 9:30:00 PM 23.07 73.526 0.534 7.93 2.89 7.74
8/10/2022 9:45:00 PM 22.94 73.292 0.534 7.91 3.11 7.73
8/10/2022 10:00:00 PM 22.83 73.094 0.534 7.91 2.9 7.74
8/10/2022 10:15:00 PM 22.73 72.914 0.533 7.9 2.9 7.77
8/10/2022 10:30:00 PM 22.63 72.734 0.533 7.89 2.97 7.79
8/10/2022 10:45:00 PM 22.55 72.59 0.533 7.89 2.75 7.79
8/10/2022 11:00:00 PM 22.46 72.42799 0.533 7.88 2.96 7.8
8/10/2022 11:15:00 PM 22.4 72.32 0.532 7.88 3.17 7.83
8/10/2022 11:30:00 PM 22.27 72.086 0.532 7.88 2.76 7.82
8/10/2022 11:45:00 PM 22.21 71.978 0.532 7.87 2.84 7.81
8/11/2022 12:00:00 AM 22.15 71.87 0.532 7.87 2.91 7.83
8/11/2022 12:15:00 AM 22.05 71.69 0.531 7.86 2.83 7.85
8/11/2022 12:30:00 AM 21.99 71.582 0.531 7.86 2.77 7.85
8/11/2022 12:45:00 AM 21.93 71.474 0.531 7.85 2.92 7.87
8/11/2022 1:00:00 AM 21.86 71.348 0.53 7.85 2.93 7.89
8/11/2022 1:15:00 AM 21.77 71.186 0.53 7.85 2.96 7.9
8/11/2022 1:30:00 AM 21.7 71.06 0.53 7.85 3.17 7.91
8/11/2022 1:45:00 AM 21.65 70.97 0.53 7.85 3.13 7.91
8/11/2022 2:00:00 AM 21.57 70.826 0.529 7.85 2.89 7.92
8/11/2022 2:15:00 AM 21.54 70.772 0.529 7.84 3.14 7.94
8/11/2022 2:30:00 AM 21.49 70.682 0.529 7.84 3.2 7.94
8/11/2022 2:45:00 AM 21.42 70.556 0.529 7.84 2.97 7.96
8/11/2022 3:00:00 AM 21.38 70.484 0.528 7.84 2.88 7.97
8/11/2022 3:15:00 AM 21.34 70.412 0.528 7.84 3.51 7.99
8/11/2022 3:30:00 AM 21.28 70.304 0.528 7.84 3.22 8.01
8/11/2022 3:45:00 AM 21.21 70.17799 0.528 7.84 3.02 7.99
8/11/2022 4:00:00 AM 21.16 70.088 0.528 7.84 3.21 8.02
8/11/2022 4:15:00 AM 21.08 69.944 0.528 7.84 3.23 8.03
8/11/2022 4:30:00 AM 21.03 69.854 0.528 7.83 3.18 8.03
8/11/2022 4:45:00 AM 20.93 69.674 0.528 7.83 2.81 8.02
8/11/2022 5:00:00 AM 20.89 69.602 0.528 7.83 2.92 8.03
8/11/2022 5:15:00 AM 20.85 69.53 0.528 7.83 3.04 8.05
8/11/2022 5:30:00 AM 20.77 69.386 0.528 7.83 3.03 8.05
8/11/2022 5:45:00 AM 20.7 69.26 0.528 7.83 3.01 8.06
8/11/2022 6:00:00 AM 20.65 69.17 0.528 7.83 3.18 8.09
8/11/2022 6:15:00 AM 20.61 69.098 0.528 7.83 3.59 8.09
8/11/2022 6:30:00 AM 20.54 68.972 0.528 7.83 3.17 8.08
8/11/2022 6:45:00 AM 20.51 68.918 0.528 7.83 3.48 8.14
8/11/2022 7:00:00 AM 20.46 68.828 0.528 7.84 3.31 8.19
8/11/2022 7:15:00 AM 20.42 68.756 0.528 7.84 3.21 8.24
8/11/2022 7:30:00 AM 20.34 68.612 0.528 7.84 3.12 8.23
8/11/2022 7:45:00 AM 20.32 68.576 0.528 7.85 3.03 8.35
8/11/2022 8:00:00 AM 20.25 68.45 0.528 7.86 2.98 8.41
8/11/2022 8:15:00 AM 20.26 68.468 0.528 7.85 3.13 8.37
8/11/2022 8:30:00 AM 20.17 68.306 0.529 7.85 3.07 8.37
8/11/2022 8:45:00 AM 20.08 68.144 0.529 7.84 3.25 8.35
8/11/2022 9:00:00 AM 20.2 68.36 0.529 7.84 4.02 8.32
8/11/2022 9:15:00 AM 20.42 68.756 0.529 7.8 4.6 8.22
8/11/2022 9:30:00 AM 20.65 69.17 0.529 7.82 4.19 8.38
8/11/2022 9:45:00 AM 20.57 69.026 0.529 7.86 3.56 8.59
8/11/2022 10:00:00 AM 20.62 69.116 0.53 7.89 3.49 8.71
8/11/2022 10:15:00 AM 20.65 69.17 0.53 7.93 3.17 8.83
8/11/2022 10:30:00 AM 20.86 69.548 0.53 7.96 2.81 8.94
8/11/2022 10:45:00 AM 21.02 69.836 0.53 7.98 2.92 9.01
8/11/2022 11:00:00 AM 21.13 70.034 0.53 7.99 2.96 9.06
8/11/2022 11:15:00 AM 21.34 70.412 0.531 8.01 2.99 9.13
8/11/2022 11:30:00 AM 21.53 70.754 0.53 8.04 2.85 9.18
8/11/2022 11:45:00 AM 21.7 71.06 0.531 8.05 3.31 9.18
8/11/2022 12:00:00 PM 21.87 71.366 0.531 8.06 2.78 9.27
8/11/2022 12:15:00 PM 22.05 71.69 0.531 8.06 2.98 9.27
8/11/2022 12:30:00 PM 22.47 72.446 0.53 8.05 3.03 9.39
8/11/2022 12:45:00 PM 22.55 72.59 0.53 8.06 3.11 9.42
8/11/2022 1:00:00 PM 22.66 72.788 0.531 8.07 3.66 9.39
8/11/2022 1:15:00 PM 22.85 73.13 0.53 8.07 3.64 9.48
8/11/2022 1:30:00 PM 23.47 74.246 0.53 8.04 4.83 9.52
8/11/2022 1:45:00 PM 23.08 73.544 0.531 8.11 2.88 9.47
8/11/2022 2:00:00 PM 23.15 73.67 0.531 8.09 3.57 9.4
8/11/2022 2:15:00 PM 23.28 73.904 0.531 8.12 3.05 9.36
8/11/2022 2:30:00 PM 23.75 74.75 0.532 8.12 3.69 9.37
8/11/2022 2:45:00 PM 24.3 75.74 0.532 8.12 3.57 9.43
8/11/2022 3:00:00 PM 24.43 75.974 0.532 8.13 3 9.54
8/11/2022 3:15:00 PM 24.79 76.622 0.533 8.13 3.37 9.64
8/11/2022 3:30:00 PM 24.89 76.802 0.533 8.13 3.26 9.47
8/11/2022 3:45:00 PM 25.11 77.198 0.533 8.13 3.34 9.39
8/11/2022 4:00:00 PM 25.2 77.36 0.534 8.13 3.28 9.36
8/11/2022 4:15:00 PM 25.04 77.07201 0.533 8.13 3.51 9.28
8/11/2022 4:30:00 PM 25.09 77.162 0.534 8.1 4.67 9.18
8/11/2022 4:45:00 PM 24.94 76.892 0.533 8.12 4.92 9.15
8/11/2022 5:00:00 PM 24.67 76.406 0.534 8.13 3.91 9.03
8/11/2022 5:15:00 PM 24.45 76.01 0.535 8.13 4.26 8.9
8/11/2022 5:30:00 PM 24.21 75.578 0.535 8.14 4.95 8.82
8/11/2022 5:45:00 PM 24.39 75.902 0.536 8.05 6.91 8.31
8/11/2022 6:00:00 PM 24.14 75.452 0.535 8.11 4.78 8.62
8/11/2022 6:15:00 PM 23.93 75.074 0.536 8.12 3.21 8.61
8/11/2022 6:30:00 PM 23.82 74.876 0.537 8.08 4.19 8.33
8/11/2022 6:45:00 PM 23.65 74.57 0.537 8.07 4.51 8.23
8/11/2022 7:00:00 PM 23.54 74.372 0.537 8.07 3.56 8.21
8/11/2022 7:15:00 PM 23.36 74.048 0.538 8.06 3.47 8.17
8/11/2022 7:30:00 PM 23.17 73.706 0.539 8.05 3.33 8.14
8/11/2022 7:45:00 PM 23.01 73.418 0.539 8.03 6.15 8.02
8/11/2022 8:00:00 PM 22.82 73.076 0.54 8.01 5.05 7.95
8/11/2022 8:15:00 PM 22.6 72.68 0.541 8 3.29 7.97
8/11/2022 8:30:00 PM 22.38 72.284 0.542 7.99 3.04 7.95
8/11/2022 8:45:00 PM 22.17 71.906 0.542 7.98 3.18 7.94
8/11/2022 9:00:00 PM 21.99 71.582 0.543 7.96 3.5 7.91
8/11/2022 9:15:00 PM 21.77 71.186 0.543 7.94 3.08 7.93
8/11/2022 9:30:00 PM 21.58 70.844 0.544 7.93 3.35 7.94
8/11/2022 9:45:00 PM 21.42 70.556 0.544 7.92 3.88 7.97
8/11/2022 10:00:00 PM 21.27 70.286 0.544 7.91 3.14 8.01
8/11/2022 10:15:00 PM 21.09 69.962 0.545 7.9 3.01 8.02
8/11/2022 10:30:00 PM 20.93 69.674 0.545 7.9 3.03 8.06
8/11/2022 10:45:00 PM 20.81 69.458 0.545 7.89 3.32 8.07
8/11/2022 11:00:00 PM 20.65 69.17 0.545 7.89 3.32 8.11
8/11/2022 11:15:00 PM 20.52 68.936 0.545 7.89 3.3 8.14
8/11/2022 11:30:00 PM 20.44 68.792 0.545 7.88 3.18 8.16
8/11/2022 11:45:00 PM 20.32 68.576 0.545 7.88 3.05 8.16
8/12/2022 12:00:00 AM 20.23 68.414 0.545 7.87 3.14 8.19
8/12/2022 12:15:00 AM 20.11 68.198 0.545 7.87 3.35 8.2
8/12/2022 12:30:00 AM 20 68 0.545 7.87 3.12 8.23
8/12/2022 12:45:00 AM 19.97 67.946 0.545 7.87 3.11 8.24
8/12/2022 1:00:00 AM 19.86 67.748 0.545 7.86 3.28 8.25
8/12/2022 1:15:00 AM 19.76 67.568 0.545 7.86 3.19 8.26
8/12/2022 1:30:00 AM 19.67 67.406 0.545 7.86 3.07 8.26
8/12/2022 1:45:00 AM 19.59 67.262 0.545 7.86 3.14 8.29
8/12/2022 2:00:00 AM 19.52 67.136 0.545 7.85 3.07 8.29
8/12/2022 2:15:00 AM 19.37 66.866 0.545 7.85 3.42 8.3
8/12/2022 2:30:00 AM 19.31 66.758 0.545 7.85 3.17 8.35
8/12/2022 2:45:00 AM 19.28 66.704 0.545 7.85 3.24 8.36
8/12/2022 3:00:00 AM 19.17 66.506 0.545 7.85 2.96 8.37
8/12/2022 3:15:00 AM 19.08 66.344 0.545 7.85 3.14 8.38
8/12/2022 3:30:00 AM 18.96 66.128 0.545 7.84 3.19 8.4
8/12/2022 3:45:00 AM 18.89 66.002 0.545 7.84 3.12 8.41
8/12/2022 4:00:00 AM 18.8 65.84 0.545 7.84 3.05 8.42
8/12/2022 4:15:00 AM 18.72 65.696 0.545 7.84 3.18 8.45
8/12/2022 4:30:00 AM 18.67 65.606 0.545 7.84 2.97 8.47
8/12/2022 4:45:00 AM 18.54 65.372 0.545 7.84 3.13 8.5
8/12/2022 5:00:00 AM 18.44 65.192 0.545 7.83 3.02 8.51
8/12/2022 5:15:00 AM 18.35 65.03 0.545 7.83 2.92 8.52
8/12/2022 5:30:00 AM 18.26 64.868 0.545 7.83 3.05 8.54
8/12/2022 5:45:00 AM 18.17 64.706 0.545 7.83 3.17 8.57
8/12/2022 6:00:00 AM 18.11 64.598 0.545 7.83 3.23 8.6
8/12/2022 6:15:00 AM 18.01 64.418 0.545 7.83 3.48 8.62
8/12/2022 6:30:00 AM 17.91 64.238 0.546 7.83 3.28 8.64
8/12/2022 6:45:00 AM 17.85 64.13 0.545 7.83 3.36 8.67
8/12/2022 7:00:00 AM 17.77 63.986 0.546 7.83 3.05 8.68
8/12/2022 7:15:00 AM 17.76 63.968 0.545 7.83 3.1 8.75
8/12/2022 7:30:00 AM 17.64 63.752 0.545 7.84 2.89 8.79
8/12/2022 7:45:00 AM 17.65 63.77 0.545 7.84 3.21 8.83
8/12/2022 8:00:00 AM 17.54 63.572 0.545 7.85 2.92 8.91
8/12/2022 8:15:00 AM 17.49 63.482 0.545 7.84 3.04 8.87
8/12/2022 8:30:00 AM 17.53 63.554 0.545 7.83 3.29 8.82
8/12/2022 8:45:00 AM 17.52 63.536 0.545 7.81 3.72 8.73
8/12/2022 9:00:00 AM 17.69 63.842 0.545 7.8 3.89 8.69
8/12/2022 9:15:00 AM 17.9 64.22 0.545 7.81 3.71 8.82
8/12/2022 9:30:00 AM 18.1 64.58 0.545 7.85 3.31 9.01
8/12/2022 9:45:00 AM 18.11 64.598 0.545 7.89 3.08 9.19
8/12/2022 10:00:00 AM 18.23 64.814 0.545 7.91 2.78 9.27
8/12/2022 10:15:00 AM 18.4 65.12 0.545 7.92 2.87 9.3
8/12/2022 10:30:00 AM 18.58 65.444 0.545 7.94 2.84 9.34
8/12/2022 10:45:00 AM 18.66 65.588 0.544 7.95 2.74 9.28
8/12/2022 11:00:00 AM 18.88 65.984 0.545 7.95 3.04 9.3
8/12/2022 11:15:00 AM 18.94 66.092 0.545 7.97 2.98 9.26
8/12/2022 11:30:00 AM 19.16 66.488 0.544 7.97 2.76 9.27
8/12/2022 11:45:00 AM 19.45 67.01 0.545 7.98 2.77 9.25
8/12/2022 12:00:00 PM 19.9 67.82 0.544 7.96 3.14 9.4
8/12/2022 12:15:00 PM 20.15 68.27 0.544 7.97 2.93 9.41
8/12/2022 12:30:00 PM 20.74 69.332 0.544 7.97 3.24 9.47
8/12/2022 12:45:00 PM 21.09 69.962 0.544 7.95 4.47 9.43
8/12/2022 1:00:00 PM 21.54 70.772 0.545 7.92 4.42 9.33
8/12/2022 1:15:00 PM 22.21 71.978 0.543 7.94 4.34 9.6
8/12/2022 1:30:00 PM 22.94 73.292 0.544 7.96 4.1 9.61
8/12/2022 1:45:00 PM 22.82 73.076 0.542 7.98 4.64 9.67
8/12/2022 2:00:00 PM 23.72 74.696 0.545 8 4.21 9.72
8/12/2022 2:15:00 PM 23.62 74.516 0.546 8.02 3.29 9.65
8/12/2022 2:30:00 PM 23.98 75.164 0.546 8.01 4.69 9.73
8/12/2022 2:45:00 PM 23.89 75.002 0.546 7.99 4.97 9.9
8/12/2022 3:00:00 PM 24.2 75.56 0.545 8.03 4.75 9.83
8/12/2022 3:15:00 PM 24.33 75.794 0.544 8.03 4.8 9.77
8/12/2022 3:30:00 PM 24.55 76.19 0.546 8.03 4.23 9.68
8/12/2022 3:45:00 PM 24.52 76.136 0.545 8.03 4.49 9.65
8/12/2022 4:00:00 PM 24.63 76.334 0.545 8.04 4.05 9.63
8/12/2022 4:15:00 PM 24.66 76.388 0.546 8.04 3.82 9.56
8/12/2022 4:30:00 PM 24.62 76.316 0.548 8.05 4.3 9.46
8/12/2022 4:45:00 PM 24.8 76.64 0.547 8.02 4.84 9.38
8/12/2022 5:00:00 PM 24.57 76.226 0.548 8.04 4.37 9.26
8/12/2022 5:15:00 PM 24.41 75.938 0.549 8.04 4.74 9.1
8/12/2022 5:30:00 PM 24.17 75.506 0.549 8.02 5.79 8.93
8/12/2022 5:45:00 PM 24.03 75.254 0.55 8 5.93 8.59
8/12/2022 6:00:00 PM 23.55 74.39 0.549 8.02 4.49 8.61
8/12/2022 6:15:00 PM 23.3 73.94 0.55 8 4.79 8.39
8/12/2022 6:30:00 PM 23.03 73.454 0.55 8 4.35 8.26
8/12/2022 6:45:00 PM 22.81 73.058 0.549 8.03 3.23 8.38
8/12/2022 7:00:00 PM 22.55 72.59 0.55 8.04 3.23 8.43
8/12/2022 7:15:00 PM 22.46 72.42799 0.55 8.03 3.01 8.4
8/12/2022 7:30:00 PM 22.27 72.086 0.55 8.03 3.08 8.33
8/12/2022 7:45:00 PM 22.11 71.798 0.551 8.01 3.08 8.27
8/12/2022 8:00:00 PM 21.92 71.456 0.551 8 3.2 8.21
8/12/2022 8:15:00 PM 21.7 71.06 0.552 7.98 3.16 8.15
8/12/2022 8:30:00 PM 21.46 70.628 0.552 7.96 2.85 8.16
8/12/2022 8:45:00 PM 21.26 70.268 0.553 7.95 3.07 8.13
8/12/2022 9:00:00 PM 21.06 69.908 0.553 7.93 3.11 8.09
8/12/2022 9:15:00 PM 20.81 69.458 0.554 7.93 3.08 8.14
8/12/2022 9:30:00 PM 20.58 69.044 0.554 7.92 3.09 8.18
8/12/2022 9:45:00 PM 20.35 68.63 0.555 7.92 3.08 8.19
8/12/2022 10:00:00 PM 20.15 68.27 0.555 7.91 3.04 8.22
8/12/2022 10:15:00 PM 19.99 67.982 0.555 7.9 3.19 8.27
8/12/2022 10:30:00 PM 19.84 67.712 0.556 7.89 3.35 8.28
8/12/2022 10:45:00 PM 19.64 67.352 0.556 7.89 3.1 8.32
8/12/2022 11:00:00 PM 19.49 67.082 0.556 7.89 3.17 8.35
8/12/2022 11:15:00 PM 19.31 66.758 0.556 7.88 3.05 8.38
8/12/2022 11:30:00 PM 19.17 66.506 0.556 7.88 3.22 8.43
8/12/2022 11:45:00 PM 19.02 66.236 0.556 7.88 3.14 8.41
8/13/2022 12:00:00 AM 18.89 66.002 0.557 7.87 3.13 8.46
8/13/2022 12:15:00 AM 18.75 65.75 0.557 7.87 3.22 8.5
8/13/2022 12:30:00 AM 18.66 65.588 0.557 7.87 3.21 8.51
8/13/2022 12:45:00 AM 18.53 65.354 0.557 7.87 3.32 8.54
8/13/2022 1:00:00 AM 18.45 65.21 0.557 7.86 3.25 8.51
8/13/2022 1:15:00 AM 18.36 65.048 0.557 7.86 3.08 8.55
8/13/2022 1:30:00 AM 18.23 64.814 0.557 7.86 3.1 8.57
8/13/2022 1:45:00 AM 18.16 64.688 0.557 7.85 3.28 8.6
8/13/2022 2:00:00 AM 18.04 64.472 0.557 7.85 3.3 8.59
8/13/2022 2:15:00 AM 17.91 64.238 0.557 7.85 3.43 8.63
8/13/2022 2:30:00 AM 17.77 63.986 0.557 7.85 3.39 8.63
8/13/2022 2:45:00 AM 17.75 63.95 0.557 7.85 3.37 8.66
8/13/2022 3:00:00 AM 17.63 63.734 0.557 7.84 3.33 8.67
8/13/2022 3:15:00 AM 17.47 63.446 0.556 7.84 3.4 8.72
8/13/2022 3:30:00 AM 17.4 63.32 0.556 7.84 3.17 8.72
8/13/2022 3:45:00 AM 17.32 63.176 0.557 7.84 3.25 8.74
8/13/2022 4:00:00 AM 17.23 63.014 0.556 7.84 3.28 8.75
8/13/2022 4:15:00 AM 17.16 62.888 0.557 7.84 3.13 8.78
8/13/2022 4:30:00 AM 17.06 62.708 0.557 7.84 3.26 8.81
8/13/2022 4:45:00 AM 16.92 62.456 0.556 7.84 3.35 8.84
8/13/2022 5:00:00 AM 16.81 62.258 0.556 7.84 3.29 8.84
8/13/2022 5:15:00 AM 16.76 62.168 0.556 7.83 3.11 8.85
8/13/2022 5:30:00 AM 16.65 61.97 0.557 7.84 3.26 8.9
8/13/2022 5:45:00 AM 16.52 61.736 0.556 7.83 3.56 8.93
8/13/2022 6:00:00 AM 16.46 61.628 0.557 7.83 3.58 8.95
8/13/2022 6:15:00 AM 16.42 61.556 0.556 7.83 3.27 8.95
8/13/2022 6:30:00 AM 16.32 61.376 0.557 7.83 3.34 8.97
8/13/2022 6:45:00 AM 16.26 61.268 0.557 7.83 3.65 9
8/13/2022 7:00:00 AM 16.22 61.196 0.557 7.84 3.23 9.06
8/13/2022 7:15:00 AM 16.13 61.034 0.557 7.84 3.18 9.09
8/13/2022 7:30:00 AM 16.09 60.962 0.556 7.84 3.05 9.13
8/13/2022 7:45:00 AM 15.92 60.656 0.556 7.85 3.09 9.22
8/13/2022 8:00:00 AM 15.92 60.656 0.556 7.85 3.09 9.22
8/13/2022 8:15:00 AM 15.89 60.602 0.556 7.86 3.03 9.31
8/13/2022 8:30:00 AM 15.86 60.548 0.556 7.86 3.18 9.26
8/13/2022 8:45:00 AM 15.86 60.548 0.556 7.85 3.26 9.25
8/13/2022 9:00:00 AM 15.95 60.71 0.557 7.86 3.19 9.32
8/13/2022 9:15:00 AM 16.28 61.304 0.557 7.84 3.46 9.3
8/13/2022 9:30:00 AM 16.55 61.79 0.557 7.86 3.29 9.4
8/13/2022 9:45:00 AM 16.66 61.988 0.556 7.87 3.27 9.56
8/13/2022 10:00:00 AM 16.87 62.366 0.557 7.9 3.23 9.7
8/13/2022 10:15:00 AM 16.97 62.546 0.557 7.91 3.11 9.66
8/13/2022 10:30:00 AM 17.16 62.888 0.557 7.93 2.98 9.74
8/13/2022 10:45:00 AM 17.28 63.104 0.557 7.93 3.64 9.66
8/13/2022 11:00:00 AM 17.38 63.284 0.557 7.94 3.15 9.6
8/13/2022 11:15:00 AM 17.55 63.59 0.557 7.95 2.96 9.56
8/13/2022 11:30:00 AM 17.68 63.824 0.558 7.96 2.81 9.54
8/13/2022 11:45:00 AM 18.01 64.418 0.558 7.95 2.98 9.57
8/13/2022 12:00:00 PM 18.48 65.264 0.557 7.96 3.04 9.6
8/13/2022 12:15:00 PM 19.2 66.56 0.556 7.95 3.11 9.75
8/13/2022 12:30:00 PM 19.56 67.208 0.557 7.91 3.81 9.61
8/13/2022 12:45:00 PM 20.07 68.126 0.557 7.93 3.54 9.59
8/13/2022 1:00:00 PM 20.49 68.882 0.557 7.93 3.46 9.53
8/13/2022 1:15:00 PM 21.4 70.52 0.555 7.97 3.33 9.67
8/13/2022 1:30:00 PM 21.71 71.078 0.558 7.95 3.93 9.76
8/13/2022 1:45:00 PM 22.5 72.5 0.557 7.96 3.79 9.92
8/13/2022 2:00:00 PM 22.75 72.95 0.557 7.98 3.93 9.98
8/13/2022 2:15:00 PM 23.3 73.94 0.557 7.97 4.57 10.05
8/13/2022 2:30:00 PM 23.34 74.012 0.554 8 4.31 10.06
8/13/2022 2:45:00 PM 23.97 75.146 0.559 7.98 5.19 9.95
8/13/2022 3:00:00 PM 23.73 74.714 0.555 7.98 5.37 9.88
8/13/2022 3:15:00 PM 23.65 74.57 0.557 8 4.68 10.01
8/13/2022 3:30:00 PM 23.57 74.426 0.555 8.02 3.98 9.85
8/13/2022 3:45:00 PM 23.6 74.48 0.558 8.04 3.77 9.86
8/13/2022 4:00:00 PM 24.01 75.218 0.555 8.04 3.99 9.63
8/13/2022 4:15:00 PM 23.96 75.128 0.558 8.04 5.11 9.78
8/13/2022 4:30:00 PM 23.98 75.164 0.555 8.02 4.66 9.63
8/13/2022 4:45:00 PM 23.9 75.02 0.555 8.01 5.67 9.4
8/13/2022 5:00:00 PM 23.48 74.264 0.556 8.02 5.17 9.36
8/13/2022 5:15:00 PM 23.46 74.228 0.559 8.02 5 9.14
8/13/2022 5:30:00 PM 23.35 74.03 0.559 8.01 5.68 9.05
8/13/2022 5:45:00 PM 23.18 73.724 0.558 8.01 5.44 8.96
8/13/2022 6:00:00 PM 23.16 73.688 0.559 7.96 6.32 8.4
8/13/2022 6:15:00 PM 22.82 73.076 0.559 7.97 6.02 8.43
8/13/2022 6:30:00 PM 22.67 72.806 0.559 7.98 5.42 8.46
8/13/2022 6:45:00 PM 22.38 72.284 0.56 7.99 5.09 8.41
8/13/2022 7:00:00 PM 22.08 71.744 0.56 8.03 3.47 8.57
8/13/2022 7:15:00 PM 21.9 71.42 0.56 8.02 4.56 8.42
8/13/2022 7:30:00 PM 21.82 71.276 0.56 7.96 6.13 8.13
8/13/2022 7:45:00 PM 21.66 70.988 0.561 7.9 6.97 7.74
8/13/2022 8:00:00 PM 21.42 70.556 0.561 7.94 5.67 7.96
8/13/2022 8:15:00 PM 21.17 70.106 0.562 7.96 3.99 8.15
8/13/2022 8:30:00 PM 20.99 69.782 0.562 7.94 4.18 8.03
8/13/2022 8:45:00 PM 20.76 69.368 0.562 7.95 3.47 8.2
8/13/2022 9:00:00 PM 20.59 69.062 0.563 7.95 3.68 8.21
8/13/2022 9:15:00 PM 20.43 68.774 0.563 7.93 3.99 8.17
8/13/2022 9:30:00 PM 20.26 68.468 0.564 7.92 4.19 8.16
8/13/2022 9:45:00 PM 20.13 68.234 0.564 7.91 4.61 8.11
8/13/2022 10:00:00 PM 19.94 67.892 0.564 7.9 3.54 8.22
8/13/2022 10:15:00 PM 19.81 67.658 0.564 7.9 3.23 8.21
8/13/2022 10:30:00 PM 19.68 67.424 0.565 7.88 3.28 8.21
8/13/2022 10:45:00 PM 19.55 67.19 0.565 7.88 3.56 8.18
8/13/2022 11:00:00 PM 19.43 66.974 0.565 7.88 3.33 8.29
8/13/2022 11:15:00 PM 19.29 66.722 0.565 7.87 3.33 8.31
8/13/2022 11:30:00 PM 19.19 66.542 0.565 7.87 3.3 8.36
8/13/2022 11:45:00 PM 19.07 66.326 0.566 7.87 3.34 8.37
8/14/2022 12:00:00 AM 19 66.2 0.565 7.87 3.25 8.4
8/14/2022 12:15:00 AM 18.92 66.056 0.565 7.86 3.77 8.42
8/14/2022 12:30:00 AM 18.79 65.82201 0.565 7.86 3.23 8.43
8/14/2022 12:45:00 AM 18.76 65.768 0.566 7.86 3.23 8.44
8/14/2022 1:00:00 AM 18.66 65.588 0.566 7.85 3.43 8.41
8/14/2022 1:15:00 AM 18.6 65.48 0.566 7.85 3.26 8.48
8/14/2022 1:30:00 AM 18.53 65.354 0.565 7.84 3.37 8.47
8/14/2022 1:45:00 AM 18.44 65.192 0.565 7.85 3.44 8.5
8/14/2022 2:00:00 AM 18.39 65.102 0.565 7.84 3.43 8.5
8/14/2022 2:15:00 AM 18.27 64.886 0.565 7.84 3.44 8.51
8/14/2022 2:30:00 AM 18.22 64.796 0.565 7.84 3.27 8.53
8/14/2022 2:45:00 AM 18.14 64.652 0.565 7.84 3.33 8.54
8/14/2022 3:00:00 AM 18.06 64.508 0.565 7.84 3.38 8.59
8/14/2022 3:15:00 AM 17.99 64.382 0.564 7.84 3.38 8.59
8/14/2022 3:30:00 AM 17.87 64.166 0.565 7.84 3.4 8.62
8/14/2022 3:45:00 AM 17.8 64.04 0.565 7.83 3.27 8.63
8/14/2022 4:00:00 AM 17.7 63.86 0.564 7.83 3.34 8.62
8/14/2022 4:15:00 AM 17.66 63.788 0.564 7.83 3.11 8.64
8/14/2022 4:30:00 AM 17.55 63.59 0.564 7.83 3.17 8.65
8/14/2022 4:45:00 AM 17.53 63.554 0.565 7.83 3.07 8.69
8/14/2022 5:00:00 AM 17.47 63.446 0.564 7.83 3.3 8.73
8/14/2022 5:15:00 AM 17.4 63.32 0.564 7.83 3.59 8.73
8/14/2022 5:30:00 AM 17.35 63.23 0.564 7.82 3.2 8.69
8/14/2022 5:45:00 AM 17.26 63.068 0.564 7.82 3.3 8.7
8/14/2022 6:00:00 AM 17.23 63.014 0.564 7.82 3.41 8.73
8/14/2022 6:15:00 AM 17.15 62.87 0.564 7.82 3.35 8.73
8/14/2022 6:30:00 AM 17.09 62.762 0.564 7.82 3.35 8.75
8/14/2022 6:45:00 AM 16.96 62.528 0.564 7.82 3.41 8.79
8/14/2022 7:00:00 AM 16.94 62.492 0.564 7.82 3.42 8.8
8/14/2022 7:15:00 AM 16.91 62.438 0.564 7.82 3.44 8.84
8/14/2022 7:30:00 AM 16.81 62.258 0.564 7.83 3.16 8.9
8/14/2022 7:45:00 AM 16.81 62.258 0.564 7.83 3.29 8.94
8/14/2022 8:00:00 AM 16.8 62.24 0.565 7.85 3.06 9.06
8/14/2022 8:15:00 AM 16.82 62.276 0.565 7.85 3.19 9.07
8/14/2022 8:30:00 AM 16.77 62.186 0.564 7.85 3.32 9.05
8/14/2022 8:45:00 AM 16.76 62.168 0.564 7.86 3.28 9.12
8/14/2022 9:00:00 AM 16.85 62.33 0.564 7.85 3.45 9.09
8/14/2022 9:15:00 AM 17.24 63.032 0.564 7.83 3.73 9.08
8/14/2022 9:30:00 AM 17.54 63.572 0.565 7.84 3.66 9.28
8/14/2022 9:45:00 AM 17.48 63.464 0.564 7.87 3.75 9.33
8/14/2022 10:00:00 AM 17.59 63.662 0.564 7.89 3.75 9.36
8/14/2022 10:15:00 AM 17.8 64.04 0.564 7.89 4.02 9.43
8/14/2022 10:30:00 AM 17.98 64.364 0.564 7.92 3.72 9.58
8/14/2022 10:45:00 AM 18.2 64.76 0.564 7.94 3.56 9.62
8/14/2022 11:00:00 AM 18.47 65.246 0.563 7.98 3.26 9.79
8/14/2022 11:15:00 AM 18.65 65.57 0.563 7.96 3.82 9.68
8/14/2022 11:30:00 AM 18.99 66.182 0.563 7.93 4.28 9.72
8/14/2022 11:45:00 AM 19.29 66.722 0.562 7.92 4.74 9.75
8/14/2022 12:00:00 PM 19.51 67.118 0.561 7.93 4.62 9.84
8/14/2022 12:15:00 PM 19.8 67.64 0.56 7.93 4.75 9.93
8/14/2022 12:30:00 PM 19.86 67.748 0.561 7.95 4.84 9.92
8/14/2022 12:45:00 PM 19.98 67.964 0.56 7.95 5.7 9.94
8/14/2022 1:00:00 PM 19.99 67.982 0.56 7.96 5.3 10
8/14/2022 1:15:00 PM 20.09 68.162 0.56 7.98 5.36 9.97
8/14/2022 1:30:00 PM 20.24 68.432 0.56 7.99 6.13 9.97
8/14/2022 1:45:00 PM 20.46 68.828 0.559 7.99 5.87 10.01
8/14/2022 2:00:00 PM 21.01 69.818 0.558 8 5.85 9.99
8/14/2022 2:15:00 PM 21.03 69.854 0.557 8.03 5.35 10.11
8/14/2022 2:30:00 PM 21.29 70.32201 0.558 8.02 5.71 10.17
8/14/2022 2:45:00 PM 21.3 70.34 0.558 8.05 4.57 10.22
8/14/2022 3:00:00 PM 21.23 70.214 0.559 8.04 6.07 10.06
8/14/2022 3:15:00 PM 20.78 69.404 0.558 8.11 3.89 9.94
8/14/2022 3:30:00 PM 21.25 70.25 0.558 8.07 5.17 9.72
8/14/2022 3:45:00 PM 21.17 70.106 0.558 8.08 4.54 9.66
8/14/2022 4:00:00 PM 21.05 69.89 0.558 8.07 5.65 9.54
8/14/2022 4:15:00 PM 20.98 69.764 0.558 8.07 4.15 9.41
8/14/2022 4:30:00 PM 20.65 69.17 0.558 8.05 4.35 9.04
8/14/2022 4:45:00 PM 20.44 68.792 0.558 8.02 13.24 8.75
8/14/2022 5:00:00 PM 20.09 68.162 0.542 8.01 17.33 8.73
8/14/2022 5:15:00 PM 20.04 68.07201 0.53 7.99 16.37 8.57
8/14/2022 5:30:00 PM 20.01 68.018 0.523 7.91 21.28 8.3
8/14/2022 5:45:00 PM 19.9 67.82 0.527 7.9 15.62 8.18
8/14/2022 6:00:00 PM 19.8 67.64 0.523 7.82 17.36 7.87
8/14/2022 6:15:00 PM 19.73 67.514 0.521 7.77 17.1 7.64
8/14/2022 6:30:00 PM 19.65 67.37 0.525 7.77 13.15 7.67
8/14/2022 6:45:00 PM 19.54 67.172 0.533 7.78 10.63 7.72
8/14/2022 7:00:00 PM 19.52 67.136 0.532 7.73 10.32 7.47
8/14/2022 7:15:00 PM 19.39 66.902 0.541 7.79 6.17 7.81
8/14/2022 7:30:00 PM 19.35 66.83 0.54 7.77 6.14 7.67
8/14/2022 7:45:00 PM 19.26 66.668 0.544 7.76 5.89 7.63
8/14/2022 8:00:00 PM 19.17 66.506 0.548 7.77 5.51 7.83
8/14/2022 8:15:00 PM 19.05 66.29 0.552 7.83 4.03 8.2
8/14/2022 8:30:00 PM 18.94 66.092 0.553 7.86 3.43 8.41
8/14/2022 8:45:00 PM 18.94 66.092 0.553 7.82 4.24 8.08
8/14/2022 9:00:00 PM 18.85 65.93 0.555 7.84 3.75 8.26
8/14/2022 9:15:00 PM 18.78 65.804 0.555 7.85 3.43 8.37
8/14/2022 9:30:00 PM 18.73 65.714 0.556 7.84 4.3 8.34
8/14/2022 9:45:00 PM 18.69 65.642 0.556 7.83 3.73 8.29
8/14/2022 10:00:00 PM 18.65 65.57 0.556 7.83 3.59 8.36
8/14/2022 10:15:00 PM 18.6 65.48 0.556 7.83 3.43 8.38
8/14/2022 10:30:00 PM 18.55 65.39 0.556 7.81 3.84 8.25
8/14/2022 10:45:00 PM 18.53 65.354 0.556 7.82 3.74 8.34
8/14/2022 11:00:00 PM 18.49 65.282 0.557 7.82 3.45 8.41
8/14/2022 11:15:00 PM 18.43 65.174 0.557 7.84 3.19 8.5
8/14/2022 11:30:00 PM 18.4 65.12 0.558 7.83 3.16 8.5
8/14/2022 11:45:00 PM 18.33 64.994 0.558 7.83 3.24 8.49
8/15/2022 12:00:00 AM 18.32 64.976 0.558 7.83 3.18 8.53
8/15/2022 12:15:00 AM 18.29 64.922 0.559 7.83 3.24 8.52
8/15/2022 12:30:00 AM 18.28 64.904 0.559 7.83 3.39 8.54
8/15/2022 12:45:00 AM 18.26 64.868 0.56 7.83 3.18 8.56
8/15/2022 1:00:00 AM 18.23 64.814 0.56 7.83 3.14 8.59
8/15/2022 1:15:00 AM 18.2 64.76 0.56 7.83 3.24 8.59
8/15/2022 1:30:00 AM 18.18 64.724 0.56 7.83 3.46 8.54
8/15/2022 1:45:00 AM 18.17 64.706 0.561 7.83 3.27 8.58
8/15/2022 2:00:00 AM 18.12 64.616 0.561 7.83 3.01 8.58
8/15/2022 2:15:00 AM 18.1 64.58 0.561 7.83 3.26 8.59
8/15/2022 2:30:00 AM 18.08 64.544 0.561 7.82 4.11 8.58
8/15/2022 2:45:00 AM 18.04 64.472 0.561 7.83 3.26 8.62
8/15/2022 3:00:00 AM 18.01 64.418 0.561 7.83 3.19 8.62
8/15/2022 3:15:00 AM 18 64.4 0.562 7.82 3.56 8.61
8/15/2022 3:30:00 AM 17.97 64.346 0.562 7.82 3.26 8.65
8/15/2022 3:45:00 AM 17.97 64.346 0.562 7.82 3.34 8.64
8/15/2022 4:00:00 AM 17.93 64.274 0.562 7.82 3.3 8.61
8/15/2022 4:15:00 AM 17.89 64.202 0.562 7.82 3.48 8.6
8/15/2022 4:30:00 AM 17.88 64.184 0.562 7.82 3.37 8.66
8/15/2022 4:45:00 AM 17.83 64.094 0.562 7.82 4.09 8.66
8/15/2022 5:00:00 AM 17.8 64.04 0.562 7.82 3.33 8.67
8/15/2022 5:15:00 AM 17.76 63.968 0.563 7.81 3.29 8.66
8/15/2022 5:30:00 AM 17.74 63.932 0.563 7.81 3.35 8.69
8/15/2022 5:45:00 AM 17.71 63.878 0.563 7.81 3.43 8.66
8/15/2022 6:00:00 AM 17.67 63.806 0.563 7.81 3.45 8.62
8/15/2022 6:15:00 AM 17.66 63.788 0.563 7.81 3.66 8.67
8/15/2022 6:30:00 AM 17.62 63.716 0.564 7.81 3.31 8.68
8/15/2022 6:45:00 AM 17.61 63.698 0.564 7.81 3.14 8.71
8/15/2022 7:00:00 AM 17.6 63.68 0.564 7.81 3.41 8.73
8/15/2022 7:15:00 AM 17.6 63.68 0.564 7.81 3.35 8.72
8/15/2022 7:30:00 AM 17.59 63.662 0.564 7.81 3.39 8.75
8/15/2022 7:45:00 AM 17.61 63.698 0.564 7.82 3.2 8.83
8/15/2022 8:00:00 AM 17.61 63.698 0.565 7.82 3.2 8.86
8/15/2022 8:15:00 AM 17.63 63.734 0.565 7.83 3.17 8.88
8/15/2022 8:30:00 AM 17.65 63.77 0.565 7.83 3.12 8.93
8/15/2022 8:45:00 AM 17.69 63.842 0.565 7.84 3.08 8.97
8/15/2022 9:00:00 AM 17.71 63.878 0.565 7.85 3 9.05
8/15/2022 9:15:00 AM 17.73 63.914 0.565 7.85 3.09 9.03
8/15/2022 9:30:00 AM 17.74 63.932 0.565 7.86 3.07 9.04
8/15/2022 9:45:00 AM 17.76 63.968 0.566 7.86 3.03 9.04
8/15/2022 10:00:00 AM 17.79 64.022 0.566 7.86 3.02 9.04
8/15/2022 10:15:00 AM 17.83 64.094 0.566 7.87 3.21 9.04
8/15/2022 10:30:00 AM 17.86 64.148 0.566 7.88 3.1 9.14
8/15/2022 10:45:00 AM 17.9 64.22 0.566 7.89 3 9.19
8/15/2022 11:00:00 AM 17.95 64.31 0.566 7.89 3.14 9.19
8/15/2022 11:15:00 AM 17.97 64.346 0.566 7.92 3.16 9.29
8/15/2022 11:30:00 AM 18 64.4 0.566 7.92 3.41 9.27
8/15/2022 11:45:00 AM 18.02 64.436 0.566 7.92 2.99 9.28
8/15/2022 12:00:00 PM 18.05 64.49 0.566 7.93 3.14 9.28
8/15/2022 12:15:00 PM 18.09 64.562 0.566 7.95 3.11 9.34
8/15/2022 12:30:00 PM 18.09 64.562 0.566 7.95 2.97 9.37
8/15/2022 12:45:00 PM 18.07 64.526 0.566 7.95 2.94 9.33
8/15/2022 1:00:00 PM 18.07 64.526 0.566 7.95 3.13 9.26
8/15/2022 1:15:00 PM 18.07 64.526 0.567 7.95 3 9.25
8/15/2022 1:30:00 PM 18.08 64.544 0.567 7.95 3.14 9.25
8/15/2022 1:45:00 PM 18.09 64.562 0.567 7.96 3 9.26
8/15/2022 2:00:00 PM 18.09 64.562 0.567 7.96 3.25 9.28
8/15/2022 2:15:00 PM 18.11 64.598 0.563 7.96 4.04 9.3
8/15/2022 2:30:00 PM 18.16 64.688 0.563 7.97 3.86 9.37
8/15/2022 2:45:00 PM 18.2 64.76 0.562 7.97 3.58 9.41
8/15/2022 3:00:00 PM 18.24 64.832 0.562 7.97 3.53 9.4
8/15/2022 3:15:00 PM 18.23 64.814 0.562 7.97 3.3 9.38
8/15/2022 3:30:00 PM 18.22 64.796 0.563 7.98 3.43 9.35
8/15/2022 3:45:00 PM 18.22 64.796 0.563 7.98 3.11 9.29
8/15/2022 4:00:00 PM 18.2 64.76 0.563 7.97 3.16 9.26
8/15/2022 4:15:00 PM 18.2 64.76 0.564 7.97 3.1 9.26
8/15/2022 4:30:00 PM 18.19 64.742 0.564 7.96 3.22 9.23
8/15/2022 4:45:00 PM 18.2 64.76 0.564 7.96 3.24 9.2
8/15/2022 5:00:00 PM 18.19 64.742 0.564 7.96 3.33 9.19
8/15/2022 5:15:00 PM 18.19 64.742 0.563 7.95 3.16 9.17
8/15/2022 5:30:00 PM 18.24 64.832 0.563 7.96 3.43 9.25
8/15/2022 5:45:00 PM 18.28 64.904 0.563 7.95 3.18 9.2
8/15/2022 6:00:00 PM 18.28 64.904 0.563 7.96 3.18 9.23
8/15/2022 6:15:00 PM 18.27 64.886 0.564 7.96 3.29 9.2
8/15/2022 6:30:00 PM 18.24 64.832 0.564 7.95 3.11 9.15
8/15/2022 6:45:00 PM 18.21 64.778 0.564 7.95 3.19 9.08
8/15/2022 7:00:00 PM 18.19 64.742 0.564 7.94 3.16 9.06
8/15/2022 7:15:00 PM 18.16 64.688 0.564 7.94 3.25 9.04
8/15/2022 7:30:00 PM 18.15 64.67 0.565 7.93 3.27 8.98
8/15/2022 7:45:00 PM 18.12 64.616 0.565 7.93 3.19 8.98
8/15/2022 8:00:00 PM 18.1 64.58 0.566 7.92 3.21 8.94
8/15/2022 8:15:00 PM 18.07 64.526 0.566 7.92 3.15 8.92
8/15/2022 8:30:00 PM 18.02 64.436 0.567 7.92 3.2 8.88
8/15/2022 8:45:00 PM 18.01 64.418 0.567 7.91 3.33 8.81
8/15/2022 9:00:00 PM 17.98 64.364 0.568 7.9 3.44 8.8
8/15/2022 9:15:00 PM 17.94 64.292 0.568 7.89 4.5 8.78
8/15/2022 9:30:00 PM 17.91 64.238 0.569 7.89 3.41 8.8
8/15/2022 9:45:00 PM 17.87 64.166 0.569 7.88 3.25 8.75
8/15/2022 10:00:00 PM 17.83 64.094 0.569 7.88 3.55 8.8
8/15/2022 10:15:00 PM 17.81 64.058 0.569 7.88 3.31 8.74
8/15/2022 10:30:00 PM 17.78 64.004 0.57 7.87 3.23 8.78
8/15/2022 10:45:00 PM 17.75 63.95 0.57 7.87 3.08 8.73
8/15/2022 11:00:00 PM 17.72 63.896 0.57 7.87 3.89 8.82
8/15/2022 11:15:00 PM 17.69 63.842 0.57 7.87 3.38 8.82
8/15/2022 11:30:00 PM 17.67 63.806 0.571 7.87 3.16 8.8
8/15/2022 11:45:00 PM 17.64 63.752 0.571 7.87 3.3 8.82
8/16/2022 12:00:00 AM 17.58 63.644 0.571 7.86 3.49 8.8
8/16/2022 12:15:00 AM 17.54 63.572 0.571 7.86 3.5 8.84
8/16/2022 12:30:00 AM 17.49 63.482 0.572 7.86 3.18 8.82
8/16/2022 12:45:00 AM 17.45 63.41 0.572 7.86 3.24 8.88
8/16/2022 1:00:00 AM 17.41 63.338 0.572 7.86 3.44 8.86
8/16/2022 1:15:00 AM 17.39 63.302 0.572 7.86 4.22 8.84
8/16/2022 1:30:00 AM 17.37 63.266 0.572 7.86 3.38 8.87
8/16/2022 1:45:00 AM 17.35 63.23 0.573 7.86 3.73 8.9
8/16/2022 2:00:00 AM 17.31 63.158 0.573 7.86 3.81 8.9
8/16/2022 2:15:00 AM 17.3 63.14 0.573 7.86 3.84 8.84
8/16/2022 2:30:00 AM 17.28 63.104 0.573 7.86 3.17 8.9
8/16/2022 2:45:00 AM 17.27 63.086 0.574 7.86 3.21 8.92
8/16/2022 3:00:00 AM 17.25 63.05 0.574 7.86 3.07 8.92
8/16/2022 3:15:00 AM 17.23 63.014 0.574 7.86 3.12 8.91
8/16/2022 3:30:00 AM 17.21 62.978 0.574 7.86 3.23 8.93
8/16/2022 3:45:00 AM 17.2 62.96 0.574 7.86 3.99 8.86
8/16/2022 4:00:00 AM 17.16 62.888 0.575 7.85 3.22 8.81
8/16/2022 4:15:00 AM 17.16 62.888 0.575 7.86 3.21 8.92
8/16/2022 4:30:00 AM 17.15 62.87 0.575 7.86 3.14 8.95
8/16/2022 4:45:00 AM 17.13 62.834 0.575 7.86 3.39 8.95
8/16/2022 5:00:00 AM 17.11 62.798 0.575 7.86 3.22 8.92
8/16/2022 5:15:00 AM 17.1 62.78 0.575 7.85 3.22 8.96
8/16/2022 5:30:00 AM 17.09 62.762 0.575 7.85 3.31 8.96
8/16/2022 5:45:00 AM 17.06 62.708 0.575 7.85 3.42 8.96
8/16/2022 6:00:00 AM 17.05 62.69 0.575 7.85 3.3 8.98
8/16/2022 6:15:00 AM 17.03 62.654 0.576 7.85 3.26 8.98
8/16/2022 6:30:00 AM 17.01 62.618 0.576 7.85 3.27 8.99
8/16/2022 6:45:00 AM 16.96 62.528 0.576 7.85 3.18 8.97
8/16/2022 7:00:00 AM 16.96 62.528 0.576 7.85 3.31 8.99
8/16/2022 7:15:00 AM 16.93 62.474 0.575 7.86 3.13 9.05
8/16/2022 7:30:00 AM 16.95 62.51 0.575 7.86 2.97 9.09
8/16/2022 7:45:00 AM 16.96 62.528 0.575 7.87 3.09 9.17
8/16/2022 8:00:00 AM 16.98 62.564 0.575 7.87 3.03 9.24
8/16/2022 8:15:00 AM 16.97 62.546 0.575 7.88 2.9 9.29
8/16/2022 8:30:00 AM 17 62.6 0.575 7.88 3.03 9.31
8/16/2022 8:45:00 AM 17.07 62.726 0.574 7.89 3 9.4
8/16/2022 9:00:00 AM 17.12 62.816 0.574 7.91 2.94 9.46
8/16/2022 9:15:00 AM 17.2 62.96 0.574 7.91 3.3 9.53
8/16/2022 9:30:00 AM 17.35 63.23 0.573 7.93 3.48 9.65
8/16/2022 9:45:00 AM 17.46 63.428 0.573 7.94 2.93 9.71
8/16/2022 10:00:00 AM 17.55 63.59 0.572 7.96 2.93 9.81
8/16/2022 10:15:00 AM 17.79 64.022 0.572 7.99 3.02 9.94
8/16/2022 10:30:00 AM 17.85 64.13 0.572 8.01 2.88 9.93
8/16/2022 10:45:00 AM 18.04 64.472 0.571 8.01 2.9 9.98
8/16/2022 11:00:00 AM 18.14 64.652 0.571 8.03 2.91 9.98
8/16/2022 11:15:00 AM 18.27 64.886 0.571 8.04 2.86 10.02
8/16/2022 11:30:00 AM 18.43 65.174 0.571 8.05 3.08 10.04
8/16/2022 11:45:00 AM 18.68 65.624 0.571 8.06 3.12 10.05
8/16/2022 12:00:00 PM 18.98 66.164 0.571 8.02 3.39 10.12
8/16/2022 12:15:00 PM 19.37 66.866 0.57 8.04 3.55 10.21
8/16/2022 12:30:00 PM 19.44 66.992 0.57 8.05 3.12 10.15
8/16/2022 12:45:00 PM 19.79 67.622 0.57 8.02 4.61 10.26
8/16/2022 1:00:00 PM 20.12 68.216 0.569 8.04 4.2 10.31
8/16/2022 1:15:00 PM 20.22 68.396 0.57 8.08 3.01 10.22
8/16/2022 1:30:00 PM 20.64 69.152 0.57 8.07 3.3 10.2
8/16/2022 1:45:00 PM 21.33 70.394 0.57 8.07 3.21 10.31
8/16/2022 2:00:00 PM 21.13 70.034 0.571 8.09 3.06 9.99
8/16/2022 2:15:00 PM 20.99 69.782 0.571 8.1 2.82 9.93
8/16/2022 2:30:00 PM 21.09 69.962 0.571 8.1 2.7 9.89
8/16/2022 2:45:00 PM 21.49 70.682 0.57 8.11 2.75 10.04
8/16/2022 3:00:00 PM 22.1 71.78 0.57 8.1 3 10.12
8/16/2022 3:15:00 PM 21.75 71.15 0.571 8.1 2.96 9.95
8/16/2022 3:30:00 PM 21.34 70.412 0.571 8.11 2.85 9.63
8/16/2022 3:45:00 PM 21.26 70.268 0.571 8.1 2.67 9.55
8/16/2022 4:00:00 PM 21.84 71.312 0.572 8.09 3.01 9.53
8/16/2022 4:15:00 PM 22.09 71.762 0.571 8.07 3.61 9.66
8/16/2022 4:30:00 PM 22.24 72.032 0.571 8.09 2.97 9.73
8/16/2022 4:45:00 PM 22.3 72.14 0.571 8.1 3.02 9.72
8/16/2022 5:00:00 PM 22.35 72.23 0.571 8.11 2.83 9.61
8/16/2022 5:15:00 PM 22.23 72.014 0.571 8.1 2.54 9.57
8/16/2022 5:30:00 PM 22.17 71.906 0.571 8.11 2.72 9.53
8/16/2022 5:45:00 PM 22.15 71.87 0.571 8.1 2.77 9.28
8/16/2022 6:00:00 PM 21.78 71.204 0.571 8.09 2.96 9.16
8/16/2022 6:15:00 PM 21.53 70.754 0.57 8.1 2.97 9.04
8/16/2022 6:30:00 PM 21.32 70.376 0.569 8.09 2.8 8.92
8/16/2022 6:45:00 PM 21.17 70.106 0.568 8.08 2.83 8.81
8/16/2022 7:00:00 PM 21.04 69.872 0.568 8.07 2.76 8.74
8/16/2022 7:15:00 PM 20.9 69.62 0.567 8.06 2.76 8.65
8/16/2022 7:30:00 PM 20.76 69.368 0.567 8.04 3.2 8.59
8/16/2022 7:45:00 PM 20.6 69.08 0.566 8.03 2.73 8.59
8/16/2022 8:00:00 PM 20.48 68.864 0.566 8.02 2.72 8.52
8/16/2022 8:15:00 PM 20.35 68.63 0.566 8.01 2.75 8.48
8/16/2022 8:30:00 PM 20.23 68.414 0.566 7.99 2.91 8.39
8/16/2022 8:45:00 PM 20.08 68.144 0.566 7.98 2.79 8.41
8/16/2022 9:00:00 PM 19.93 67.874 0.566 7.97 3.15 8.38
8/16/2022 9:15:00 PM 19.78 67.604 0.566 7.96 3.13 8.44
8/16/2022 9:30:00 PM 19.68 67.424 0.566 7.96 3.01 8.43
8/16/2022 9:45:00 PM 19.61 67.298 0.566 7.95 2.97 8.41
8/16/2022 10:00:00 PM 19.56 67.208 0.566 7.94 2.91 8.41
8/16/2022 10:15:00 PM 19.48 67.064 0.566 7.94 2.86 8.43
8/16/2022 10:30:00 PM 19.43 66.974 0.566 7.93 2.84 8.43
8/16/2022 10:45:00 PM 19.38 66.884 0.565 7.93 2.79 8.46
8/16/2022 11:00:00 PM 19.35 66.83 0.565 7.92 2.87 8.47
8/16/2022 11:15:00 PM 19.32 66.776 0.565 7.92 2.88 8.46
8/16/2022 11:30:00 PM 19.26 66.668 0.565 7.92 2.73 8.47
8/16/2022 11:45:00 PM 19.2 66.56 0.565 7.91 2.8 8.46
8/17/2022 12:00:00 AM 19.15 66.47 0.565 7.91 2.93 8.47
8/17/2022 12:15:00 AM 19.1 66.38 0.564 7.9 3.08 8.49
8/17/2022 12:30:00 AM 19.03 66.254 0.564 7.91 3.07 8.49
8/17/2022 12:45:00 AM 18.98 66.164 0.564 7.9 2.96 8.51
8/17/2022 1:00:00 AM 18.95 66.11 0.563 7.9 2.78 8.52
8/17/2022 1:15:00 AM 18.92 66.056 0.563 7.89 2.82 8.52
8/17/2022 1:30:00 AM 18.9 66.02 0.563 7.9 3.16 8.53
8/17/2022 1:45:00 AM 18.87 65.966 0.563 7.89 2.84 8.54
8/17/2022 2:00:00 AM 18.81 65.858 0.562 7.89 3.25 8.54
8/17/2022 2:15:00 AM 18.78 65.804 0.562 7.89 2.71 8.55
8/17/2022 2:30:00 AM 18.74 65.732 0.562 7.89 3.05 8.57
8/17/2022 2:45:00 AM 18.71 65.67799 0.562 7.88 2.89 8.57
8/17/2022 3:00:00 AM 18.66 65.588 0.562 7.88 2.92 8.58
8/17/2022 3:15:00 AM 18.62 65.516 0.562 7.88 3 8.6
8/17/2022 3:30:00 AM 18.57 65.426 0.561 7.88 2.95 8.59
8/17/2022 3:45:00 AM 18.49 65.282 0.561 7.88 3 8.59
8/17/2022 4:00:00 AM 18.46 65.228 0.561 7.87 2.79 8.62
8/17/2022 4:15:00 AM 18.42 65.156 0.561 7.87 2.91 8.64
8/17/2022 4:30:00 AM 18.37 65.066 0.561 7.87 2.99 8.65
8/17/2022 4:45:00 AM 18.31 64.958 0.561 7.87 2.99 8.65
8/17/2022 5:00:00 AM 18.27 64.886 0.561 7.87 3.06 8.66
8/17/2022 5:15:00 AM 18.23 64.814 0.561 7.86 2.99 8.66
8/17/2022 5:30:00 AM 18.19 64.742 0.561 7.86 3.08 8.68
8/17/2022 5:45:00 AM 18.12 64.616 0.561 7.86 3.11 8.69
8/17/2022 6:00:00 AM 18.07 64.526 0.561 7.86 2.96 8.68
8/17/2022 6:15:00 AM 18.03 64.454 0.561 7.86 3 8.72
8/17/2022 6:30:00 AM 18 64.4 0.561 7.85 3.2 8.7
8/17/2022 6:45:00 AM 17.94 64.292 0.561 7.85 3.1 8.72
8/17/2022 7:00:00 AM 17.91 64.238 0.561 7.85 3.18 8.73
8/17/2022 7:15:00 AM 17.9 64.22 0.561 7.86 3.15 8.81
8/17/2022 7:30:00 AM 17.85 64.13 0.561 7.85 3.07 8.8
8/17/2022 7:45:00 AM 17.83 64.094 0.561 7.86 3.14 8.85
8/17/2022 8:00:00 AM 17.82 64.076 0.561 7.87 2.98 8.95
8/17/2022 8:15:00 AM 17.83 64.094 0.561 7.88 2.98 9.05
8/17/2022 8:30:00 AM 17.87 64.166 0.561 7.89 2.77 9.12
8/17/2022 8:45:00 AM 17.91 64.238 0.561 7.9 2.93 9.22
8/17/2022 9:00:00 AM 17.99 64.382 0.561 7.91 2.77 9.3
8/17/2022 9:15:00 AM 18.23 64.814 0.561 7.92 2.97 9.36
8/17/2022 9:30:00 AM 18.4 65.12 0.561 7.92 3.01 9.43
8/17/2022 9:45:00 AM 18.46 65.228 0.561 7.94 2.85 9.45
8/17/2022 10:00:00 AM 18.5 65.3 0.561 7.94 3.06 9.44
8/17/2022 10:15:00 AM 18.61 65.498 0.561 7.97 2.72 9.49
8/17/2022 10:30:00 AM 18.82 65.876 0.561 7.98 2.75 9.59
8/17/2022 10:45:00 AM 18.98 66.164 0.561 8 2.86 9.59
8/17/2022 11:00:00 AM 19.07 66.326 0.561 8.01 2.76 9.62
8/17/2022 11:15:00 AM 19.21 66.578 0.561 8.03 2.75 9.64
8/17/2022 11:30:00 AM 19.34 66.812 0.561 8.04 2.81 9.6
8/17/2022 11:45:00 AM 19.4 66.92 0.561 8.05 2.78 9.57
8/17/2022 12:00:00 PM 19.53 67.154 0.561 8.04 2.81 9.58
8/17/2022 12:15:00 PM 19.96 67.92799 0.561 8.03 3.29 9.73
8/17/2022 12:30:00 PM 20.17 68.306 0.562 8.04 4.34 9.65
8/17/2022 12:45:00 PM 20.64 69.152 0.561 8.03 3.07 9.71
8/17/2022 1:00:00 PM 20.96 69.728 0.561 8.02 3.29 9.73
8/17/2022 1:15:00 PM 21.14 70.052 0.561 8.04 3.31 9.76
8/17/2022 1:30:00 PM 21.17 70.106 0.561 8.06 3.5 9.9
8/17/2022 1:45:00 PM 21.38 70.484 0.561 8.03 4.28 9.99
8/17/2022 2:00:00 PM 21.68 71.024 0.562 8.08 3.41 10.05
8/17/2022 2:15:00 PM 22.52 72.536 0.562 8.06 3.82 10.06
8/17/2022 2:30:00 PM 22.44 72.392 0.561 8.09 3.54 10.21
8/17/2022 2:45:00 PM 22.85 73.13 0.562 8.08 3.76 10.11
8/17/2022 3:00:00 PM 23.09 73.562 0.562 8.09 3.79 10.01
8/17/2022 3:15:00 PM 23.43 74.174 0.561 8.08 3.73 10.11
8/17/2022 3:30:00 PM 23.68 74.624 0.565 8.08 3.67 9.96
8/17/2022 3:45:00 PM 23.81 74.858 0.563 8.07 3.66 9.9
8/17/2022 4:00:00 PM 23.26 73.868 0.566 8.1 3.07 9.58
8/17/2022 4:15:00 PM 23.01 73.418 0.566 8.09 3.36 9.35
8/17/2022 4:30:00 PM 22.34 72.212 0.566 8.1 3.48 9.09
8/17/2022 4:45:00 PM 22.12 71.816 0.565 8.08 4.15 8.89
8/17/2022 5:00:00 PM 21.76 71.168 0.564 8.08 3.65 8.73
8/17/2022 5:15:00 PM 21.64 70.952 0.561 8.06 3.81 8.59
8/17/2022 5:30:00 PM 21.33 70.394 0.553 8.05 3.35 8.53
8/17/2022 5:45:00 PM 21.14 70.052 0.549 8.04 3.3 8.44
8/17/2022 6:00:00 PM 20.93 69.674 0.543 8.02 3.73 8.36
8/17/2022 6:15:00 PM 20.81 69.458 0.536 7.98 3.55 8.31
8/17/2022 6:30:00 PM 20.58 69.044 0.526 7.96 4.64 8.29
8/17/2022 6:45:00 PM 20.46 68.828 0.522 7.94 4.09 8.31
8/17/2022 7:00:00 PM 20.38 68.684 0.52 7.93 3.97 8.25
8/17/2022 7:15:00 PM 20.29 68.522 0.519 7.92 3.81 8.25
8/17/2022 7:30:00 PM 20.21 68.378 0.519 7.9 3.84 8.26
8/17/2022 7:45:00 PM 20.11 68.198 0.52 7.89 3.94 8.23
8/17/2022 8:00:00 PM 20 68 0.522 7.87 4.53 8.22
8/17/2022 8:15:00 PM 19.88 67.784 0.523 7.87 5.22 8.23
8/17/2022 8:30:00 PM 19.75 67.55 0.524 7.86 6.2 8.23
8/17/2022 8:45:00 PM 19.57 67.226 0.526 7.86 6.86 8.27
8/17/2022 9:00:00 PM 19.47 67.046 0.527 7.85 6.71 8.24
8/17/2022 9:15:00 PM 19.39 66.902 0.53 7.84 6.17 8.26
8/17/2022 9:30:00 PM 19.26 66.668 0.532 7.84 5.99 8.29
8/17/2022 9:45:00 PM 19.17 66.506 0.534 7.84 5.04 8.28
8/17/2022 10:00:00 PM 19.1 66.38 0.537 7.84 4.51 8.32
8/17/2022 10:15:00 PM 19.03 66.254 0.539 7.84 4.22 8.37
8/17/2022 10:30:00 PM 18.96 66.128 0.539 7.84 4.25 8.35
8/17/2022 10:45:00 PM 18.89 66.002 0.54 7.84 4.07 8.39
8/17/2022 11:00:00 PM 18.87 65.966 0.541 7.84 4.46 8.39
8/17/2022 11:15:00 PM 18.84 65.912 0.542 7.84 4.2 8.44
8/17/2022 11:30:00 PM 18.83 65.894 0.543 7.84 3.71 8.43
8/17/2022 11:45:00 PM 18.79 65.82201 0.544 7.83 3.78 8.42
8/18/2022 12:00:00 AM 18.77 65.786 0.544 7.83 3.66 8.4
8/18/2022 12:15:00 AM 18.73 65.714 0.545 7.83 3.39 8.46
8/18/2022 12:30:00 AM 18.7 65.66 0.545 7.83 3.66 8.42
8/18/2022 12:45:00 AM 18.73 65.714 0.546 7.84 3.47 8.45
8/18/2022 1:00:00 AM 18.69 65.642 0.547 7.83 3.3 8.48
8/18/2022 1:15:00 AM 18.69 65.642 0.547 7.84 3.33 8.51
8/18/2022 1:30:00 AM 18.62 65.516 0.547 7.83 3.41 8.5
8/18/2022 1:45:00 AM 18.62 65.516 0.548 7.84 3.23 8.51
8/18/2022 2:00:00 AM 18.57 65.426 0.548 7.83 3.21 8.51
8/18/2022 2:15:00 AM 18.45 65.21 0.548 7.82 3.36 8.43
8/18/2022 2:30:00 AM 18.38 65.084 0.548 7.82 3.32 8.44
8/18/2022 2:45:00 AM 18.37 65.066 0.549 7.82 3.52 8.43
8/18/2022 3:00:00 AM 18.41 65.138 0.55 7.82 3.35 8.51
8/18/2022 3:15:00 AM 18.39 65.102 0.551 7.83 3.16 8.54
8/18/2022 3:30:00 AM 18.36 65.048 0.551 7.82 3.91 8.49
8/18/2022 3:45:00 AM 18.31 64.958 0.553 7.82 3.57 8.51
8/18/2022 4:00:00 AM 18.33 64.994 0.557 7.83 4.64 8.59
8/18/2022 4:15:00 AM 18.32 64.976 0.56 7.83 5.44 8.61
8/18/2022 4:30:00 AM 18.3 64.94 0.564 7.83 5.76 8.62
8/18/2022 4:45:00 AM 18.29 64.922 0.566 7.83 5.33 8.64
8/18/2022 5:00:00 AM 18.23 64.814 0.568 7.83 4.69 8.56
8/18/2022 5:15:00 AM 18.2 64.76 0.57 7.83 4.08 8.61
8/18/2022 5:30:00 AM 18.15 64.67 0.572 7.83 4.31 8.61
8/18/2022 5:45:00 AM 18.11 64.598 0.572 7.84 4.13 8.65
8/18/2022 6:00:00 AM 18.06 64.508 0.572 7.84 4.05 8.61
8/18/2022 6:15:00 AM 18.05 64.49 0.571 7.84 3.74 8.67
8/18/2022 6:30:00 AM 17.98 64.364 0.57 7.84 4.04 8.66
8/18/2022 6:45:00 AM 17.92 64.256 0.568 7.84 4.03 8.69
8/18/2022 7:00:00 AM 17.87 64.166 0.567 7.85 3.9 8.71
8/18/2022 7:15:00 AM 17.85 64.13 0.565 7.85 4.13 8.78
8/18/2022 7:30:00 AM 17.82 64.076 0.564 7.86 4.07 8.81
8/18/2022 7:45:00 AM 17.8 64.04 0.563 7.87 4.13 8.85
8/18/2022 8:00:00 AM 17.77 63.986 0.563 7.87 3.67 8.9
8/18/2022 8:15:00 AM 17.76 63.968 0.563 7.88 4.34 8.97
8/18/2022 8:30:00 AM 17.75 63.95 0.564 7.89 3.61 9.03
8/18/2022 8:45:00 AM 17.73 63.914 0.565 7.9 3.53 9.06
8/18/2022 9:00:00 AM 17.74 63.932 0.565 7.91 3.45 9.12
8/18/2022 9:15:00 AM 17.77 63.986 0.567 7.92 3.63 9.21
8/18/2022 9:30:00 AM 17.82 64.076 0.567 7.93 3.09 9.31
8/18/2022 9:45:00 AM 18 64.4 0.568 7.95 3.04 9.4
8/18/2022 10:00:00 AM 18.17 64.706 0.568 7.97 3.09 9.5
8/18/2022 10:15:00 AM 18.2 64.76 0.568 7.98 3.07 9.54
8/18/2022 10:30:00 AM 18.19 64.742 0.568 7.99 3.31 9.53
8/18/2022 10:45:00 AM 18.11 64.598 0.568 7.99 2.99 9.47
8/18/2022 11:00:00 AM 18.16 64.688 0.568 7.99 3.04 9.44
8/18/2022 11:15:00 AM 18.33 64.994 0.568 7.99 3.47 9.4
8/18/2022 11:30:00 AM 18.53 65.354 0.567 8 2.95 9.36
8/18/2022 11:45:00 AM 18.79 65.82201 0.567 8.01 2.9 9.38
8/18/2022 12:00:00 PM 19.1 66.38 0.566 8.01 3.15 9.39
8/18/2022 12:15:00 PM 19.53 67.154 0.566 8.01 2.77 9.36
8/18/2022 12:30:00 PM 19.74 67.532 0.565 8.02 2.78 9.41
8/18/2022 12:45:00 PM 20.15 68.27 0.565 8.02 2.66 9.43
8/18/2022 1:00:00 PM 20.5 68.9 0.565 8.02 2.88 9.49
8/18/2022 1:15:00 PM 20.87 69.566 0.564 8.04 3.07 9.48
8/18/2022 1:30:00 PM 20.97 69.746 0.563 8.05 2.75 9.46
8/18/2022 1:45:00 PM 21.07 69.926 0.563 8.06 2.49 9.4
8/18/2022 2:00:00 PM 21.39 70.502 0.563 8.06 2.69 9.5
8/18/2022 2:15:00 PM 21.89 71.402 0.563 8.07 2.94 9.55
8/18/2022 2:30:00 PM 22.18 71.924 0.562 8.06 2.88 9.61
8/18/2022 2:45:00 PM 22.2 71.96 0.562 8.08 2.97 9.56
8/18/2022 3:00:00 PM 22.51 72.518 0.562 8.08 2.88 9.59
8/18/2022 3:15:00 PM 22.66 72.788 0.562 8.08 2.95 9.59
8/18/2022 3:30:00 PM 22.77 72.986 0.562 8.09 2.76 9.5
8/18/2022 3:45:00 PM 23 73.4 0.562 8.09 2.65 9.46
8/18/2022 4:00:00 PM 23.17 73.706 0.561 8.09 2.67 9.49
8/18/2022 4:15:00 PM 23.26 73.868 0.561 8.09 2.98 9.43
8/18/2022 4:30:00 PM 23.32 73.976 0.561 8.1 2.81 9.35
8/18/2022 4:45:00 PM 23.3 73.94 0.561 8.09 2.91 9.25
8/18/2022 5:00:00 PM 23.17 73.706 0.56 8.09 2.71 9.16
8/18/2022 5:15:00 PM 23.07 73.526 0.56 8.09 2.78 9.08
8/18/2022 5:30:00 PM 22.89 73.202 0.559 8.09 3.47 8.94
8/18/2022 5:45:00 PM 22.78 73.004 0.559 8.08 3.09 8.82
8/18/2022 6:00:00 PM 22.63 72.734 0.559 8.08 2.81 8.72
8/18/2022 6:15:00 PM 22.46 72.42799 0.558 8.06 2.77 8.63
8/18/2022 6:30:00 PM 22.4 72.32 0.558 8.05 2.73 8.55
8/18/2022 6:45:00 PM 22.29 72.122 0.558 8.05 2.85 8.53
8/18/2022 7:00:00 PM 22.13 71.834 0.557 8.05 3.1 8.49
8/18/2022 7:15:00 PM 21.96 71.528 0.557 8.03 2.84 8.42
8/18/2022 7:30:00 PM 21.79 71.222 0.556 8.03 2.85 8.37
8/18/2022 7:45:00 PM 21.63 70.934 0.556 8.01 2.67 8.32
8/18/2022 8:00:00 PM 21.47 70.646 0.555 8 2.83 8.27
8/18/2022 8:15:00 PM 21.35 70.43 0.555 7.99 2.78 8.25
8/18/2022 8:30:00 PM 21.23 70.214 0.555 7.98 3.49 8.2
8/18/2022 8:45:00 PM 21.19 70.142 0.554 7.97 3.28 8.16
8/18/2022 9:00:00 PM 21.14 70.052 0.554 7.95 2.88 8.02
8/18/2022 9:15:00 PM 21.1 69.98 0.553 7.94 2.88 8.08
8/18/2022 9:30:00 PM 21.04 69.872 0.552 7.93 3.08 7.84
8/18/2022 9:45:00 PM 20.98 69.764 0.552 7.92 3 8.07
8/18/2022 10:00:00 PM 20.89 69.602 0.551 7.91 3.09 8.07
8/18/2022 10:15:00 PM 20.81 69.458 0.55 7.91 3 8.06
8/18/2022 10:30:00 PM 20.74 69.332 0.549 7.91 3.13 8.13
8/18/2022 10:45:00 PM 20.66 69.188 0.549 7.91 2.86 8.09
8/18/2022 11:00:00 PM 20.57 69.026 0.548 7.91 2.91 8.04
8/18/2022 11:15:00 PM 20.49 68.882 0.548 7.9 3.24 8.15
8/18/2022 11:30:00 PM 20.41 68.738 0.547 7.9 3.04 8.13
8/18/2022 11:45:00 PM 20.34 68.612 0.547 7.9 3.84 8.16
8/19/2022 12:00:00 AM 20.27 68.486 0.546 7.89 3.14 8.1
8/19/2022 12:15:00 AM 20.19 68.342 0.546 7.89 3.2 8.18
8/19/2022 12:30:00 AM 20.11 68.198 0.545 7.89 2.86 8.18
8/19/2022 12:45:00 AM 20.01 68.018 0.545 7.89 3.34 8.23
8/19/2022 1:00:00 AM 19.91 67.838 0.545 7.89 3.54 8.24
8/19/2022 1:15:00 AM 19.82 67.676 0.544 7.88 3.28 8.2
8/19/2022 1:30:00 AM 19.74 67.532 0.544 7.88 3.46 8.27
8/19/2022 1:45:00 AM 19.66 67.388 0.544 7.88 3.28 8.24
8/19/2022 2:00:00 AM 19.57 67.226 0.543 7.87 3.67 8.29
8/19/2022 2:15:00 AM 19.48 67.064 0.543 7.87 4.13 8.31
8/19/2022 2:30:00 AM 19.4 66.92 0.543 7.87 3.1 8.37
8/19/2022 2:45:00 AM 19.3 66.74 0.542 7.87 3.17 8.38
8/19/2022 3:00:00 AM 19.21 66.578 0.542 7.87 3.47 8.39
8/19/2022 3:15:00 AM 19.13 66.434 0.542 7.86 3.2 8.39
8/19/2022 3:30:00 AM 19.04 66.272 0.541 7.86 3.35 8.39
8/19/2022 3:45:00 AM 18.96 66.128 0.541 7.86 3.32 8.41
8/19/2022 4:00:00 AM 18.88 65.984 0.54 7.86 3.52 8.46
8/19/2022 4:15:00 AM 18.78 65.804 0.54 7.85 3.39 8.49
8/19/2022 4:30:00 AM 18.71 65.67799 0.539 7.85 3.65 8.48
8/19/2022 4:45:00 AM 18.64 65.552 0.539 7.84 3.87 8.49
8/19/2022 5:00:00 AM 18.6 65.48 0.538 7.84 3.68 8.52
8/19/2022 5:15:00 AM 18.55 65.39 0.538 7.84 3.4 8.51
8/19/2022 5:30:00 AM 18.47 65.246 0.537 7.84 3.36 8.56
8/19/2022 5:45:00 AM 18.43 65.174 0.536 7.84 3.79 8.57
8/19/2022 6:00:00 AM 18.38 65.084 0.536 7.84 3.31 8.62
8/19/2022 6:15:00 AM 18.29 64.922 0.535 7.84 3.53 8.61
8/19/2022 6:30:00 AM 18.25 64.85 0.535 7.84 3.38 8.62
8/19/2022 6:45:00 AM 18.21 64.778 0.534 7.84 3.79 8.63
8/19/2022 7:00:00 AM 18.14 64.652 0.533 7.84 3.19 8.68
8/19/2022 7:15:00 AM 18.09 64.562 0.533 7.84 3.24 8.7
8/19/2022 7:30:00 AM 18.05 64.49 0.532 7.84 3.4 8.74
8/19/2022 7:45:00 AM 17.99 64.382 0.532 7.84 3.21 8.79
8/19/2022 8:00:00 AM 17.96 64.328 0.531 7.85 3.24 8.84
8/19/2022 8:15:00 AM 17.97 64.346 0.531 7.86 3.21 8.94
8/19/2022 8:30:00 AM 17.89 64.202 0.53 7.86 3.11 8.97
8/19/2022 8:45:00 AM 17.9 64.22 0.53 7.86 3.36 8.98
8/19/2022 9:00:00 AM 18.04 64.472 0.53 7.85 3.31 8.91
8/19/2022 9:15:00 AM 18.19 64.742 0.53 7.84 3.36 8.92
8/19/2022 9:30:00 AM 18.33 64.994 0.529 7.86 3.74 9.11
8/19/2022 9:45:00 AM 18.38 65.084 0.528 7.88 3.45 9.18
8/19/2022 10:00:00 AM 18.47 65.246 0.527 7.88 3.34 9.2
8/19/2022 10:15:00 AM 18.62 65.516 0.527 7.9 3.1 9.3
8/19/2022 10:30:00 AM 18.81 65.858 0.526 7.92 3.09 9.35
8/19/2022 10:45:00 AM 18.85 65.93 0.526 7.93 3.06 9.32
8/19/2022 11:00:00 AM 19.03 66.254 0.526 7.93 2.93 9.34
8/19/2022 11:15:00 AM 19.25 66.65 0.526 7.93 3.12 9.29
8/19/2022 11:30:00 AM 19.32 66.776 0.526 7.94 3.07 9.27
8/19/2022 11:45:00 AM 19.52 67.136 0.525 7.95 2.91 9.23
8/19/2022 12:00:00 PM 20.02 68.036 0.526 7.95 2.87 9.24
8/19/2022 12:15:00 PM 20.45 68.81 0.525 7.91 3.19 9.25
8/19/2022 12:30:00 PM 20.7 69.26 0.525 7.94 3.37 9.27
8/19/2022 12:45:00 PM 21.22 70.196 0.526 7.93 3.65 9.34
8/19/2022 1:00:00 PM 21.61 70.898 0.525 7.93 3.32 9.36
8/19/2022 1:15:00 PM 22.2 71.96 0.525 7.96 3.28 9.49
8/19/2022 1:30:00 PM 22.36 72.248 0.525 7.95 3.3 9.64
8/19/2022 1:45:00 PM 22.55 72.59 0.525 7.97 3.11 9.64
8/19/2022 2:00:00 PM 22.83 73.094 0.525 7.99 3.29 9.67
8/19/2022 2:15:00 PM 23 73.4 0.525 8 3.5 9.76
8/19/2022 2:30:00 PM 24 75.2 0.521 8 3.95 9.99
8/19/2022 2:45:00 PM 23.72 74.696 0.523 8.01 3.55 9.85
8/19/2022 3:00:00 PM 24.06 75.308 0.524 8.02 3.23 9.76
8/19/2022 3:15:00 PM 24.16 75.488 0.524 8.03 3.05 9.86
8/19/2022 3:30:00 PM 24.1 75.38 0.525 8.04 3.76 9.73
8/19/2022 3:45:00 PM 24.26 75.668 0.525 8.04 3.35 9.7
8/19/2022 4:00:00 PM 24.12 75.416 0.526 8.05 3.32 9.51
8/19/2022 4:15:00 PM 24.54 76.172 0.527 8.03 3.77 9.53
8/19/2022 4:30:00 PM 24.21 75.578 0.527 8.04 3.57 9.44
8/19/2022 4:45:00 PM 23.99 75.182 0.526 8.03 4.04 9.23
8/19/2022 5:00:00 PM 23.96 75.128 0.526 8.02 4.32 9.08
8/19/2022 5:15:00 PM 23.66 74.588 0.527 8.02 4.09 8.76
8/19/2022 5:30:00 PM 23.59 74.462 0.528 8.01 4.23 8.69
8/19/2022 5:45:00 PM 23.45 74.21 0.528 8 4.36 8.54
8/19/2022 6:00:00 PM 23.35 74.03 0.529 7.99 4.07 8.44
8/19/2022 6:15:00 PM 23.2 73.76 0.528 8 3.69 8.43
8/19/2022 6:30:00 PM 23.06 73.508 0.529 8 3.09 8.44
8/19/2022 6:45:00 PM 23 73.4 0.529 7.99 3.26 8.36
8/19/2022 7:00:00 PM 22.94 73.292 0.53 7.97 3.67 8.18
8/19/2022 7:15:00 PM 22.81 73.058 0.53 7.99 3.42 8.28
8/19/2022 7:30:00 PM 22.69 72.842 0.53 7.98 2.99 8.2
8/19/2022 7:45:00 PM 22.53 72.554 0.531 7.97 3.01 8.17
8/19/2022 8:00:00 PM 22.41 72.338 0.531 7.95 3.05 8.06
8/19/2022 8:15:00 PM 22.26 72.068 0.532 7.93 3.12 7.95
8/19/2022 8:30:00 PM 22.1 71.78 0.532 7.85 4.66 7.39
8/19/2022 8:45:00 PM 21.91 71.438 0.533 7.88 4.31 7.78
8/19/2022 9:00:00 PM 21.74 71.132 0.533 7.89 3.05 7.92
8/19/2022 9:15:00 PM 21.59 70.862 0.533 7.88 3.17 7.88
8/19/2022 9:30:00 PM 21.48 70.664 0.534 7.85 3.35 7.69
8/19/2022 9:45:00 PM 21.3 70.34 0.534 7.87 2.85 7.92
8/19/2022 10:00:00 PM 21.17 70.106 0.534 7.87 2.91 7.99
8/19/2022 10:15:00 PM 21.06 69.908 0.534 7.87 2.98 8.08
8/19/2022 10:30:00 PM 20.96 69.728 0.535 7.87 3.31 8.08
8/19/2022 10:45:00 PM 20.86 69.548 0.535 7.86 3.39 8.09
8/19/2022 11:00:00 PM 20.78 69.404 0.535 7.86 3.16 8.11
8/19/2022 11:15:00 PM 20.73 69.314 0.535 7.86 2.99 8.15
8/19/2022 11:30:00 PM 20.66 69.188 0.535 7.85 3.74 8.14
8/19/2022 11:45:00 PM 20.62 69.116 0.535 7.85 3.16 8.17
8/20/2022 12:00:00 AM 20.56 69.008 0.536 7.85 3.24 8.14
8/20/2022 12:15:00 AM 20.48 68.864 0.536 7.85 3.05 8.18
8/20/2022 12:30:00 AM 20.43 68.774 0.536 7.84 2.91 8.18
8/20/2022 12:45:00 AM 20.38 68.684 0.536 7.84 2.89 8.19
8/20/2022 1:00:00 AM 20.33 68.594 0.536 7.84 3.16 8.21
8/20/2022 1:15:00 AM 20.24 68.432 0.536 7.83 3.04 8.21
8/20/2022 1:30:00 AM 20.19 68.342 0.536 7.83 3.09 8.22
8/20/2022 1:45:00 AM 20.1 68.18 0.537 7.83 2.89 8.25
8/20/2022 2:00:00 AM 20.03 68.054 0.537 7.82 3.15 8.24
8/20/2022 2:15:00 AM 19.97 67.946 0.537 7.82 3.15 8.26
8/20/2022 2:30:00 AM 19.9 67.82 0.537 7.82 3.39 8.29
8/20/2022 2:45:00 AM 19.83 67.694 0.538 7.81 3.23 8.29
8/20/2022 3:00:00 AM 19.76 67.568 0.538 7.81 3.31 8.28
8/20/2022 3:15:00 AM 19.69 67.442 0.538 7.81 3.14 8.29
8/20/2022 3:30:00 AM 19.62 67.316 0.539 7.81 2.93 8.31
8/20/2022 3:45:00 AM 19.56 67.208 0.539 7.8 3.16 8.32
8/20/2022 4:00:00 AM 19.51 67.118 0.539 7.8 2.88 8.34
8/20/2022 4:15:00 AM 19.42 66.956 0.54 7.8 3.01 8.37
8/20/2022 4:30:00 AM 19.35 66.83 0.54 7.8 3.06 8.4
8/20/2022 4:45:00 AM 19.29 66.722 0.54 7.8 3.43 8.39
8/20/2022 5:00:00 AM 19.25 66.65 0.541 7.8 3.18 8.42
8/20/2022 5:15:00 AM 19.18 66.524 0.541 7.8 3.04 8.45
8/20/2022 5:30:00 AM 19.1 66.38 0.542 7.8 3.17 8.45
8/20/2022 5:45:00 AM 19.02 66.236 0.542 7.79 3.07 8.47
8/20/2022 6:00:00 AM 19.01 66.218 0.542 7.8 2.92 8.47
8/20/2022 6:15:00 AM 18.97 66.146 0.543 7.8 3.02 8.48
8/20/2022 6:30:00 AM 18.93 66.074 0.544 7.8 3.28 8.48
8/20/2022 6:45:00 AM 18.88 65.984 0.544 7.8 3.21 8.51
8/20/2022 7:00:00 AM 18.83 65.894 0.544 7.79 3.29 8.51
8/20/2022 7:15:00 AM 18.78 65.804 0.545 7.8 3.16 8.59
8/20/2022 7:30:00 AM 18.77 65.786 0.545 7.8 3.22 8.63
8/20/2022 7:45:00 AM 18.74 65.732 0.545 7.81 3.02 8.67
8/20/2022 8:00:00 AM 18.73 65.714 0.546 7.81 2.98 8.7
8/20/2022 8:15:00 AM 18.71 65.67799 0.546 7.81 4.8 8.73
8/20/2022 8:30:00 AM 18.71 65.67799 0.546 7.82 3.07 8.8
8/20/2022 8:45:00 AM 18.76 65.768 0.546 7.82 2.99 8.78
8/20/2022 9:00:00 AM 18.89 66.002 0.546 7.82 3.22 8.8
8/20/2022 9:15:00 AM 19.18 66.524 0.547 7.82 4.05 8.96
8/20/2022 9:30:00 AM 19.4 66.92 0.547 7.8 3.64 8.88
8/20/2022 9:45:00 AM 19.36 66.848 0.546 7.83 3.33 9.03
8/20/2022 10:00:00 AM 19.58 67.244 0.547 7.86 3.05 9.11
8/20/2022 10:15:00 AM 19.74 67.532 0.548 7.88 2.91 9.25
8/20/2022 10:30:00 AM 19.76 67.568 0.548 7.9 2.79 9.23
8/20/2022 10:45:00 AM 19.96 67.92799 0.548 7.91 2.86 9.26
8/20/2022 11:00:00 AM 20.18 68.324 0.548 7.92 2.94 9.29
8/20/2022 11:15:00 AM 20.46 68.828 0.548 7.94 2.81 9.34
8/20/2022 11:30:00 AM 20.7 69.26 0.548 7.95 2.81 9.26
8/20/2022 11:45:00 AM 21.01 69.818 0.547 7.94 2.96 9.38
8/20/2022 12:00:00 PM 21.25 70.25 0.548 7.94 2.99 9.4
8/20/2022 12:15:00 PM 21.69 71.042 0.547 7.93 3.18 9.46
8/20/2022 12:30:00 PM 22.22 71.996 0.546 7.92 3.27 9.56
8/20/2022 12:45:00 PM 22.61 72.698 0.547 7.92 3.83 9.57
8/20/2022 1:00:00 PM 22.7 72.86 0.547 7.94 3.27 9.45
8/20/2022 1:15:00 PM 22.76 72.968 0.547 7.93 3.97 9.38
8/20/2022 1:30:00 PM 22.75 72.95 0.547 7.97 3.45 9.55
8/20/2022 1:45:00 PM 23.11 73.598 0.547 7.95 3.75 9.45
8/20/2022 2:00:00 PM 23.2 73.76 0.547 7.95 3.71 9.43
8/20/2022 2:15:00 PM 23.36 74.048 0.547 7.99 3.6 9.69
8/20/2022 2:30:00 PM 23.92 75.056 0.548 7.98 4.98 9.74
8/20/2022 2:45:00 PM 23.92 75.056 0.547 8 4.85 9.71
8/20/2022 3:00:00 PM 24.02 75.236 0.547 8.02 4.12 9.62
8/20/2022 3:15:00 PM 23.92 75.056 0.548 8.01 5.15 9.57
8/20/2022 3:30:00 PM 24.03 75.254 0.548 8.04 4.19 9.56
8/20/2022 3:45:00 PM 23.8 74.84 0.548 8.04 4.39 9.34
8/20/2022 4:00:00 PM 23.91 75.038 0.546 8.05 3.65 9.44
8/20/2022 4:15:00 PM 24.53 76.154 0.548 8.04 4.22 9.39
8/20/2022 4:30:00 PM 24.46 76.028 0.546 8.04 4.39 9.47
8/20/2022 4:45:00 PM 24.53 76.154 0.547 8.04 4.36 9.56
8/20/2022 5:00:00 PM 24.67 76.406 0.548 8.06 3.46 9.42
8/20/2022 5:15:00 PM 24.29 75.722 0.547 8.06 3.47 9.3
8/20/2022 5:30:00 PM 24.54 76.172 0.546 8.05 3.69 9.11
8/20/2022 5:45:00 PM 24.14 75.452 0.548 8.04 3.95 8.86
8/20/2022 6:00:00 PM 23.81 74.858 0.548 8.05 3.56 8.75
8/20/2022 6:15:00 PM 23.52 74.336 0.548 8.03 3.45 8.55
8/20/2022 6:30:00 PM 23.53 74.354 0.548 8 4.3 8.32
8/20/2022 6:45:00 PM 23.25 73.85 0.548 8.01 3.18 8.35
8/20/2022 7:00:00 PM 22.99 73.382 0.548 8.02 3.15 8.38
8/20/2022 7:15:00 PM 22.86 73.148 0.548 8 3.1 8.29
8/20/2022 7:30:00 PM 22.78 73.004 0.548 7.99 3.12 8.15
8/20/2022 7:45:00 PM 22.6 72.68 0.548 7.97 2.95 8.12
8/20/2022 8:00:00 PM 22.41 72.338 0.549 7.96 2.84 8.1
8/20/2022 8:15:00 PM 22.25 72.05 0.549 7.94 2.82 8.03
8/20/2022 8:30:00 PM 22.1 71.78 0.549 7.93 3.02 8
8/20/2022 8:45:00 PM 21.95 71.51 0.549 7.92 3.66 8
8/20/2022 9:00:00 PM 21.83 71.294 0.55 7.9 3.01 7.96
8/20/2022 9:15:00 PM 21.71 71.078 0.55 7.89 3.05 7.94
8/20/2022 9:30:00 PM 21.6 70.88 0.55 7.88 3.14 7.88
8/20/2022 9:45:00 PM 21.48 70.664 0.55 7.87 3.88 7.96
8/20/2022 10:00:00 PM 21.42 70.556 0.551 7.86 3.21 7.96
8/20/2022 10:15:00 PM 21.31 70.358 0.551 7.86 2.93 8.01
8/20/2022 10:30:00 PM 21.24 70.232 0.551 7.86 2.95 8
8/20/2022 10:45:00 PM 21.14 70.052 0.551 7.85 3.09 8.01
8/20/2022 11:00:00 PM 21.05 69.89 0.551 7.84 3.1 7.99
8/20/2022 11:15:00 PM 20.95 69.71 0.551 7.83 3.41 7.97
8/20/2022 11:30:00 PM 20.86 69.548 0.551 7.83 3.03 7.99
8/20/2022 11:45:00 PM 20.73 69.314 0.551 7.83 3.17 8.09
8/21/2022 12:00:00 AM 20.69 69.242 0.551 7.83 3.16 8.07
8/21/2022 12:15:00 AM 20.63 69.134 0.551 7.83 2.97 8.1
8/21/2022 12:30:00 AM 20.58 69.044 0.551 7.82 2.92 8.07
8/21/2022 12:45:00 AM 20.53 68.954 0.551 7.82 3.13 8.11
8/21/2022 1:00:00 AM 20.5 68.9 0.551 7.82 3.21 8.12
8/21/2022 1:15:00 AM 20.47 68.846 0.551 7.82 2.93 7.9
8/21/2022 1:30:00 AM 20.43 68.774 0.55 7.81 7.28 8.12
8/21/2022 1:45:00 AM 20.39 68.702 0.55 7.81 4.18 8.13
8/21/2022 2:00:00 AM 20.35 68.63 0.55 7.81 3.21 8.15
8/21/2022 2:15:00 AM 20.31 68.558 0.55 7.81 3.19 8.15
8/21/2022 2:30:00 AM 20.32 68.576 0.55 7.8 3.62 8.15
8/21/2022 2:45:00 AM 20.31 68.558 0.55 7.8 3.06 8.19
8/21/2022 3:00:00 AM 20.29 68.522 0.55 7.8 3.47 8.16
8/21/2022 3:15:00 AM 20.2 68.36 0.533 7.78 43.58 8.19
8/21/2022 3:30:00 AM 20.19 68.342 0.53 7.78 10.84 8.17
8/21/2022 3:45:00 AM 20.13 68.234 0.525 7.74 11.5 7.91
8/21/2022 4:00:00 AM 20.13 68.234 0.529 7.75 6 8.08
8/21/2022 4:15:00 AM 20.13 68.234 0.532 7.77 5.1 8.11
8/21/2022 4:30:00 AM 20.12 68.216 0.533 7.77 3.91 8.13
8/21/2022 4:45:00 AM 20.13 68.234 0.534 7.77 3.68 8.13
8/21/2022 5:00:00 AM 20.11 68.198 0.536 7.77 3.48 8.14
8/21/2022 5:15:00 AM 20.11 68.198 0.537 7.78 3.53 8.16
8/21/2022 5:30:00 AM 20.08 68.144 0.537 7.78 3.44 8.19
8/21/2022 5:45:00 AM 20.05 68.09 0.537 7.78 3.8 8.17
8/21/2022 6:00:00 AM 20.01 68.018 0.537 7.78 3.29 8.22
8/21/2022 6:15:00 AM 19.98 67.964 0.537 7.77 3.51 8.12
8/21/2022 6:30:00 AM 19.92 67.856 0.538 7.76 3.54 8.09
8/21/2022 6:45:00 AM 19.9 67.82 0.539 7.77 3.41 8.22
8/21/2022 7:00:00 AM 19.85 67.73 0.54 7.77 3.41 8.24
8/21/2022 7:15:00 AM 19.84 67.712 0.541 7.77 3.44 8.26
8/21/2022 7:30:00 AM 19.83 67.694 0.541 7.78 3.41 8.3
8/21/2022 7:45:00 AM 19.83 67.694 0.541 7.78 3.51 8.35
8/21/2022 8:00:00 AM 19.83 67.694 0.541 7.79 3.36 8.41
8/21/2022 8:15:00 AM 19.82 67.676 0.541 7.77 3.55 8.28
8/21/2022 8:30:00 AM 19.82 67.676 0.541 7.79 3.25 8.44
8/21/2022 8:45:00 AM 19.86 67.748 0.541 7.81 3.17 8.51
8/21/2022 9:00:00 AM 19.9 67.82 0.542 7.82 3.24 8.6
8/21/2022 9:15:00 AM 19.99 67.982 0.542 7.78 3.68 8.43
8/21/2022 9:30:00 AM 20.14 68.252 0.541 7.76 3.86 8.45
8/21/2022 9:45:00 AM 20.31 68.558 0.541 7.75 4.16 8.48
8/21/2022 10:00:00 AM 20.56 69.008 0.541 7.77 4.17 8.73
8/21/2022 10:15:00 AM 20.59 69.062 0.541 7.79 3.94 8.78
8/21/2022 10:30:00 AM 20.82 69.476 0.541 7.75 4.5 8.71
8/21/2022 10:45:00 AM 20.88 69.584 0.541 7.83 3.72 9.09
8/21/2022 11:00:00 AM 21.12 70.016 0.54 7.84 3.99 9.19
8/21/2022 11:15:00 AM 21.03 69.854 0.54 7.85 4.17 9.14
8/21/2022 11:30:00 AM 20.8 69.44 0.538 7.93 3.94 9.02
8/21/2022 11:45:00 AM 20.85 69.53 0.533 7.89 4.21 8.87
8/21/2022 12:00:00 PM 20.59 69.062 0.513 7.91 12.91 8.73
8/21/2022 12:15:00 PM 20.52 68.936 0.516 7.91 6.42 8.67
8/21/2022 12:30:00 PM 20.49 68.882 0.508 7.86 13.06 8.45
8/21/2022 12:45:00 PM 20.47 68.846 0.509 7.84 8.73 8.36
8/21/2022 1:00:00 PM 20.45 68.81 0.507 7.82 7.53 8.25
8/21/2022 1:15:00 PM 20.49 68.882 0.505 7.8 7.75 8.18
8/21/2022 1:30:00 PM 20.56 69.008 0.496 7.72 10.09 7.98
8/21/2022 1:45:00 PM 20.81 69.458 0.495 7.7 8.53 8.14
8/21/2022 2:00:00 PM 21.39 70.502 0.499 7.73 6.88 8.62
8/21/2022 2:15:00 PM 22.22 71.996 0.5 7.77 5.46 9.11
8/21/2022 2:30:00 PM 22.64 72.752 0.502 7.8 4.96 9.38
8/21/2022 2:45:00 PM 22.92 73.256 0.502 7.82 5.19 9.49
8/21/2022 3:00:00 PM 22.92 73.256 0.506 7.87 5.24 9.63
8/21/2022 3:15:00 PM 23.5 74.3 0.508 7.88 4.43 9.62
8/21/2022 3:30:00 PM 23.19 73.742 0.513 7.92 4.81 9.65
8/21/2022 3:45:00 PM 23.5 74.3 0.513 7.93 4.75 9.7
8/21/2022 4:00:00 PM 23.14 73.652 0.515 7.96 4.23 9.66
8/21/2022 4:15:00 PM 23.82 74.876 0.514 7.94 4.72 9.64
8/21/2022 4:30:00 PM 23.79 74.82201 0.516 7.96 5.54 9.59
8/21/2022 4:45:00 PM 23.34 74.012 0.516 7.97 5.01 9.48
8/21/2022 5:00:00 PM 22.81 73.058 0.486 7.97 16.84 8.89
8/21/2022 5:15:00 PM 22.55 72.59 0.497 7.95 9.56 8.63
8/21/2022 5:30:00 PM 22.23 72.014 0.483 7.94 7.49 8.5
8/21/2022 5:45:00 PM 22.07 71.726 0.479 7.9 7.49 8.35
8/21/2022 6:00:00 PM 21.92 71.456 0.477 7.82 7.07 8.21
8/21/2022 6:15:00 PM 21.8 71.24 0.476 7.81 6.39 8.16
8/21/2022 6:30:00 PM 21.73 71.114 0.476 7.83 5.85 8.18
8/21/2022 6:45:00 PM 21.68 71.024 0.479 7.81 6.24 8.16
8/21/2022 7:00:00 PM 21.62 70.916 0.482 7.81 5.31 8.2
8/21/2022 7:15:00 PM 21.49 70.682 0.485 7.79 5.19 8.15
8/21/2022 7:30:00 PM 21.42 70.556 0.488 7.79 5.26 8.15
8/21/2022 7:45:00 PM 21.29 70.32201 0.491 7.8 8.19 8.19
8/21/2022 8:00:00 PM 21.15 70.07 0.493 7.79 10.38 8.17
8/21/2022 8:15:00 PM 21.07 69.926 0.493 7.78 10.64 8.18
8/21/2022 8:30:00 PM 20.98 69.764 0.494 7.77 8.39 8.12
8/21/2022 8:45:00 PM 20.92 69.656 0.495 7.76 7.5 8.15
8/21/2022 9:00:00 PM 20.85 69.53 0.498 7.76 6.95 8.11
8/21/2022 9:15:00 PM 20.8 69.44 0.502 7.75 6.24 8.1
8/21/2022 9:30:00 PM 20.76 69.368 0.506 7.75 5.76 8.14
8/21/2022 9:45:00 PM 20.74 69.332 0.508 7.75 5.85 8.11
8/21/2022 10:00:00 PM 20.73 69.314 0.511 7.75 6.25 8.14
8/21/2022 10:15:00 PM 20.72 69.296 0.514 7.73 5.73 8.1
8/21/2022 10:30:00 PM 20.73 69.314 0.517 7.73 5.94 8.1
8/21/2022 10:45:00 PM 20.73 69.314 0.52 7.73 5.79 8.08
8/21/2022 11:00:00 PM 20.74 69.332 0.522 7.73 5.4 8.09
8/21/2022 11:15:00 PM 20.74 69.332 0.522 7.73 5.74 8.12
8/21/2022 11:30:00 PM 20.74 69.332 0.521 7.73 5.16 8.13
8/21/2022 11:45:00 PM 20.73 69.314 0.519 7.72 5.14 8.13
8/22/2022 12:00:00 AM 20.7 69.26 0.515 7.71 5.99 8.17
8/22/2022 12:15:00 AM 20.69 69.242 0.513 7.7 5.81 8.18
8/22/2022 12:30:00 AM 20.65 69.17 0.51 7.7 6.27 8.21
8/22/2022 12:45:00 AM 20.62 69.116 0.511 7.68 6.17 8.19
8/22/2022 1:00:00 AM 20.58 69.044 0.509 7.68 6.44 8.2
8/22/2022 1:15:00 AM 20.53 68.954 0.507 7.67 7.49 8.22
8/22/2022 1:30:00 AM 20.49 68.882 0.507 7.67 6.86 8.23
8/22/2022 1:45:00 AM 20.46 68.828 0.507 7.66 7.96 8.24
8/22/2022 2:00:00 AM 20.41 68.738 0.507 7.66 9.9 8.24
8/22/2022 2:15:00 AM 20.37 68.666 0.506 7.66 9.85 8.25
8/22/2022 2:30:00 AM 20.31 68.558 0.502 7.67 11.59 8.27
8/22/2022 2:45:00 AM 20.24 68.432 0.495 7.66 14.36 8.28
8/22/2022 3:00:00 AM 20.15 68.27 0.488 7.65 14.55 8.3
8/22/2022 3:15:00 AM 20 68 0.477 7.65 31.11 8.37
8/22/2022 3:30:00 AM 19.94 67.892 0.477 7.64 32.27 8.39
8/22/2022 3:45:00 AM 19.95 67.91 0.484 7.64 33.07 8.36
8/22/2022 4:00:00 AM 19.98 67.964 0.49 7.65 25.49 8.33
8/22/2022 4:15:00 AM 19.98 67.964 0.497 7.66 27.04 8.35
8/22/2022 4:30:00 AM 19.93 67.874 0.499 7.67 24.7 8.37
8/22/2022 4:45:00 AM 19.89 67.802 0.499 7.66 25.5 8.36
8/22/2022 5:00:00 AM 19.82 67.676 0.498 7.66 22.3 8.41
8/22/2022 5:15:00 AM 19.76 67.568 0.496 7.67 22.67 8.43
8/22/2022 5:30:00 AM 19.72 67.496 0.495 7.67 20.05 8.45
8/22/2022 5:45:00 AM 19.68 67.424 0.494 7.68 22.16 8.46
8/22/2022 6:00:00 AM 19.65 67.37 0.494 7.68 19.61 8.44
8/22/2022 6:15:00 AM 19.63 67.334 0.494 7.68 22.44 8.45
8/22/2022 6:30:00 AM 19.61 67.298 0.495 7.69 24.37 8.46
8/22/2022 6:45:00 AM 19.6 67.28 0.495 7.69 19.59 8.42
8/22/2022 7:00:00 AM 19.59 67.262 0.496 7.69 21.94 8.46
8/22/2022 7:15:00 AM 19.58 67.244 0.495 7.71 21.15 8.48
8/22/2022 7:30:00 AM 19.57 67.226 0.495 7.71 19.94 8.46
8/22/2022 7:45:00 AM 19.58 67.244 0.495 7.72 18.67 8.49
8/22/2022 8:00:00 AM 19.58 67.244 0.495 7.72 17.36 8.49
8/22/2022 8:15:00 AM 19.57 67.226 0.494 7.73 16.17 8.51
8/22/2022 8:30:00 AM 19.56 67.208 0.494 7.74 18.73 8.52
8/22/2022 8:45:00 AM 19.56 67.208 0.493 7.74 15.54 8.52
8/22/2022 9:00:00 AM 19.57 67.226 0.493 7.75 13.42 8.53
8/22/2022 9:15:00 AM 19.58 67.244 0.491 7.75 15.05 8.55
8/22/2022 9:30:00 AM 19.62 67.316 0.491 7.77 14.69 8.64
8/22/2022 9:45:00 AM 19.66 67.388 0.49 7.78 12.38 8.68
8/22/2022 10:00:00 AM 19.68 67.424 0.489 7.79 11.49 8.68
8/22/2022 10:15:00 AM 19.72 67.496 0.488 7.79 14.76 8.74
8/22/2022 10:30:00 AM 19.75 67.55 0.486 7.8 11.14 8.77
8/22/2022 10:45:00 AM 19.79 67.622 0.485 7.81 12.33 8.81
8/22/2022 11:00:00 AM 19.86 67.748 0.483 7.83 13 8.83
8/22/2022 11:15:00 AM 19.94 67.892 0.482 7.84 12.96 8.87
8/22/2022 11:30:00 AM 19.97 67.946 0.481 7.85 11.97 8.86
8/22/2022 11:45:00 AM 20.07 68.126 0.48 7.86 11.9 8.86
8/22/2022 12:00:00 PM 20.25 68.45 0.479 7.85 9.66 8.85
8/22/2022 12:15:00 PM 20.41 68.738 0.479 7.85 10.76 8.88
8/22/2022 12:30:00 PM 20.61 69.098 0.478 7.86 10.36 8.9
8/22/2022 12:45:00 PM 20.7 69.26 0.478 7.88 9.47 8.89
8/22/2022 1:00:00 PM 20.72 69.296 0.479 7.89 11.02 8.9
8/22/2022 1:15:00 PM 20.73 69.314 0.479 7.9 10.73 8.88
8/22/2022 1:30:00 PM 20.8 69.44 0.48 7.91 11.97 8.89
8/22/2022 1:45:00 PM 21.05 69.89 0.481 7.91 11.99 8.96
8/22/2022 2:00:00 PM 20.9 69.62 0.477 7.93 11.45 8.89
8/22/2022 2:15:00 PM 20.85 69.53 0.475 7.92 13.09 8.8
8/22/2022 2:30:00 PM 20.97 69.746 0.473 7.92 12.13 8.82
8/22/2022 2:45:00 PM 21.02 69.836 0.473 7.92 11.42 8.83
8/22/2022 3:00:00 PM 21.17 70.106 0.473 7.93 12.56 8.86
8/22/2022 3:15:00 PM 21.22 70.196 0.471 7.93 11.6 8.87
8/22/2022 3:30:00 PM 21.13 70.034 0.468 7.94 13 8.83
8/22/2022 3:45:00 PM 21 69.8 0.465 7.93 13.81 8.72
8/22/2022 4:00:00 PM 21.06 69.908 0.463 7.92 12.94 8.73
8/22/2022 4:15:00 PM 21.1 69.98 0.459 7.92 14.43 8.76
8/22/2022 4:30:00 PM 20.98 69.764 0.456 7.92 15.11 8.76
8/22/2022 4:45:00 PM 20.88 69.584 0.454 7.91 40.62 8.72
8/22/2022 5:00:00 PM 20.97 69.746 0.452 7.91 15.3 8.74
8/22/2022 5:15:00 PM 20.96 69.728 0.451 7.91 14.67 8.74
8/22/2022 5:30:00 PM 20.97 69.746 0.451 7.91 14.86 8.69
8/22/2022 5:45:00 PM 20.94 69.692 0.451 7.91 15.21 8.66
8/22/2022 6:00:00 PM 20.9 69.62 0.451 7.89 16.84 8.59
8/22/2022 6:15:00 PM 20.86 69.548 0.451 7.88 14.47 8.55
8/22/2022 6:30:00 PM 20.86 69.548 0.451 7.88 14.94 8.55
8/22/2022 6:45:00 PM 20.86 69.548 0.451 7.87 14.22 8.56
8/22/2022 7:00:00 PM 20.81 69.458 0.452 7.88 13.16 8.55
8/22/2022 7:15:00 PM 20.76 69.368 0.453 7.87 13.02 8.51
8/22/2022 7:30:00 PM 20.73 69.314 0.453 7.86 12.65 8.48
8/22/2022 7:45:00 PM 20.72 69.296 0.452 7.86 12.85 8.49
8/22/2022 8:00:00 PM 20.69 69.242 0.453 7.85 11.94 8.48
8/22/2022 8:15:00 PM 20.65 69.17 0.455 7.85 11.42 8.47
8/22/2022 8:30:00 PM 20.6 69.08 0.458 7.85 12.08 8.42
8/22/2022 8:45:00 PM 20.56 69.008 0.46 7.85 11.43 8.41
8/22/2022 9:00:00 PM 20.51 68.918 0.463 7.85 11.33 8.41
8/22/2022 9:15:00 PM 20.47 68.846 0.465 7.83 11.45 8.39
8/22/2022 9:30:00 PM 20.43 68.774 0.468 7.83 10.99 8.39
8/22/2022 9:45:00 PM 20.4 68.72 0.47 7.83 11.01 8.38
8/22/2022 10:00:00 PM 20.36 68.648 0.472 7.83 10.87 8.38
8/22/2022 10:15:00 PM 20.32 68.576 0.473 7.83 10.85 8.39
8/22/2022 10:30:00 PM 20.29 68.522 0.475 7.82 10.15 8.38
8/22/2022 10:45:00 PM 20.26 68.468 0.476 7.83 10.13 8.39
8/22/2022 11:00:00 PM 20.22 68.396 0.478 7.83 9.69 8.38
8/22/2022 11:15:00 PM 20.19 68.342 0.479 7.82 9.06 8.37
8/22/2022 11:30:00 PM 20.16 68.288 0.48 7.82 8.71 8.38
8/22/2022 11:45:00 PM 20.12 68.216 0.481 7.82 8.34 8.38
8/23/2022 12:00:00 AM 20.08 68.144 0.482 7.82 8.26 8.37
8/23/2022 12:15:00 AM 20.05 68.09 0.484 7.82 8.27 8.39
8/23/2022 12:30:00 AM 20.01 68.018 0.484 7.81 7.41 8.35
8/23/2022 12:45:00 AM 19.96 67.92799 0.485 7.81 7.82 8.37
8/23/2022 1:00:00 AM 19.93 67.874 0.485 7.81 7.58 8.39
8/23/2022 1:15:00 AM 19.9 67.82 0.485 7.8 7.61 8.39
8/23/2022 1:30:00 AM 19.87 67.766 0.485 7.8 7.84 8.36
8/23/2022 1:45:00 AM 19.83 67.694 0.485 7.79 7.47 8.36
8/23/2022 2:00:00 AM 19.79 67.622 0.485 7.79 7.33 8.37
8/23/2022 2:15:00 AM 19.75 67.55 0.484 7.79 7.56 8.37
8/23/2022 2:30:00 AM 19.72 67.496 0.484 7.79 7.29 8.39
8/23/2022 2:45:00 AM 19.68 67.424 0.483 7.79 7.32 8.38
8/23/2022 3:00:00 AM 19.66 67.388 0.483 7.78 6.73 8.36
8/23/2022 3:15:00 AM 19.62 67.316 0.482 7.78 7.01 8.37
8/23/2022 3:30:00 AM 19.59 67.262 0.481 7.77 7.13 8.32
8/23/2022 3:45:00 AM 19.53 67.154 0.48 7.77 8.78 8.35
8/23/2022 4:00:00 AM 19.5 67.1 0.48 7.75 6.5 8.27
8/23/2022 4:15:00 AM 19.44 66.992 0.478 7.75 9.02 8.31
8/23/2022 4:30:00 AM 19.43 66.974 0.477 7.75 6.58 8.31
8/23/2022 4:45:00 AM 19.39 66.902 0.476 7.76 6.94 8.34
8/23/2022 5:00:00 AM 19.36 66.848 0.475 7.76 7.64 8.38
8/23/2022 5:15:00 AM 19.32 66.776 0.473 7.77 6.15 8.43
8/23/2022 5:30:00 AM 19.3 66.74 0.473 7.75 6.13 8.34
8/23/2022 5:45:00 AM 19.26 66.668 0.471 7.74 6.36 8.35
8/23/2022 6:00:00 AM 19.21 66.578 0.47 7.75 6.06 8.41
8/23/2022 6:15:00 AM 19.18 66.524 0.469 7.75 5.95 8.47
8/23/2022 6:30:00 AM 19.16 66.488 0.468 7.75 7.1 8.46
8/23/2022 6:45:00 AM 19.14 66.452 0.468 7.75 6.05 8.44
8/23/2022 7:00:00 AM 19.1 66.38 0.466 7.75 6.06 8.49
8/23/2022 7:15:00 AM 19.08 66.344 0.466 7.75 6.34 8.5
8/23/2022 7:30:00 AM 19.08 66.344 0.466 7.75 5.83 8.48
8/23/2022 7:45:00 AM 19.07 66.326 0.465 7.75 5.67 8.49
8/23/2022 8:00:00 AM 19.07 66.326 0.465 7.75 5.78 8.56
8/23/2022 8:15:00 AM 19.11 66.398 0.463 7.76 6.07 8.58
8/23/2022 8:30:00 AM 19.1 66.38 0.459 7.77 5.78 8.7
8/23/2022 8:45:00 AM 19.08 66.344 0.455 7.77 6.83 8.7
8/23/2022 9:00:00 AM 19.08 66.344 0.454 7.76 6.05 8.66
8/23/2022 9:15:00 AM 19.1 66.38 0.454 7.76 5.9 8.68
8/23/2022 9:30:00 AM 19.11 66.398 0.455 7.76 6.06 8.7
8/23/2022 9:45:00 AM 19.17 66.506 0.455 7.75 5.22 8.73
8/23/2022 10:00:00 AM 19.28 66.704 0.456 7.79 5.48 8.88
8/23/2022 10:15:00 AM 19.31 66.758 0.456 7.79 5.47 8.92
8/23/2022 10:30:00 AM 19.4 66.92 0.457 7.8 4.79 8.97
8/23/2022 10:45:00 AM 19.51 67.118 0.457 7.81 5.21 9.02
8/23/2022 11:00:00 AM 19.65 67.37 0.458 7.83 4.8 9.12
8/23/2022 11:15:00 AM 19.7 67.46 0.458 7.85 4.72 9.14
8/23/2022 11:30:00 AM 19.74 67.532 0.458 7.87 4.57 9.1
8/23/2022 11:45:00 AM 19.79 67.622 0.459 7.87 4.49 9.12
8/23/2022 12:00:00 PM 19.98 67.964 0.459 7.88 4.47 9.14
8/23/2022 12:15:00 PM 20.15 68.27 0.459 7.89 4.93 9.15
8/23/2022 12:30:00 PM 20.19 68.342 0.459 7.89 4.69 9.15
8/23/2022 12:45:00 PM 20.49 68.882 0.459 7.91 4.5 9.2
8/23/2022 1:00:00 PM 20.5 68.9 0.459 7.92 4.53 9.2
8/23/2022 1:15:00 PM 20.87 69.566 0.459 7.93 4.36 9.21
8/23/2022 1:30:00 PM 20.82 69.476 0.459 7.93 4.78 9.2
8/23/2022 1:45:00 PM 20.88 69.584 0.459 7.94 4.3 9.2
8/23/2022 2:00:00 PM 21.2 70.16 0.459 7.95 8.41 9.22
8/23/2022 2:15:00 PM 21.31 70.358 0.459 7.95 5.12 9.23
8/23/2022 2:30:00 PM 21.47 70.646 0.46 7.95 4.35 9.22
8/23/2022 2:45:00 PM 21.41 70.538 0.459 7.96 4.91 9.17
8/23/2022 3:00:00 PM 21.26 70.268 0.459 7.96 4.53 9.08
8/23/2022 3:15:00 PM 21.23 70.214 0.459 7.96 4.4 9.08
8/23/2022 3:30:00 PM 21.47 70.646 0.459 7.96 4.46 9.03
8/23/2022 3:45:00 PM 21.62 70.916 0.459 7.96 4.39 9.07
8/23/2022 4:00:00 PM 21.65 70.97 0.459 7.97 4.32 9.06
8/23/2022 4:15:00 PM 21.85 71.33 0.459 7.96 4.55 9.04
8/23/2022 4:30:00 PM 21.88 71.384 0.458 7.97 4.99 9.07
8/23/2022 4:45:00 PM 21.95 71.51 0.458 7.98 5.03 9.07
8/23/2022 5:00:00 PM 21.98 71.564 0.457 7.98 4.46 9.07
8/23/2022 5:15:00 PM 21.88 71.384 0.457 7.99 4.25 9.01
8/23/2022 5:30:00 PM 21.83 71.294 0.456 7.99 5.02 8.93
8/23/2022 5:45:00 PM 21.77 71.186 0.457 7.98 4.71 8.8
8/23/2022 6:00:00 PM 21.72 71.096 0.456 7.97 5.05 8.76
8/23/2022 6:15:00 PM 21.68 71.024 0.456 7.96 4.28 8.66
8/23/2022 6:30:00 PM 21.63 70.934 0.456 7.95 4.6 8.61
8/23/2022 6:45:00 PM 21.59 70.862 0.456 7.93 4.14 8.53
8/23/2022 7:00:00 PM 21.53 70.754 0.456 7.92 4.55 8.47
8/23/2022 7:15:00 PM 21.47 70.646 0.456 7.9 4.36 8.41
8/23/2022 7:30:00 PM 21.41 70.538 0.456 7.89 4.39 8.38
8/23/2022 7:45:00 PM 21.33 70.394 0.456 7.88 5.18 8.35
8/23/2022 8:00:00 PM 21.25 70.25 0.457 7.86 6.82 8.22
8/23/2022 8:15:00 PM 21.17 70.106 0.456 7.86 4.63 8.27
8/23/2022 8:30:00 PM 21.09 69.962 0.456 7.85 4.87 8.22
8/23/2022 8:45:00 PM 21.02 69.836 0.456 7.83 5.01 8.18
8/23/2022 9:00:00 PM 20.96 69.728 0.456 7.81 4.91 8.13
8/23/2022 9:15:00 PM 20.9 69.62 0.456 7.81 5.22 8.11
8/23/2022 9:30:00 PM 20.84 69.512 0.456 7.8 4.88 8.14
8/23/2022 9:45:00 PM 20.78 69.404 0.455 7.8 4.84 8.13
8/23/2022 10:00:00 PM 20.74 69.332 0.455 7.79 4.88 8.09
8/23/2022 10:15:00 PM 20.67 69.206 0.455 7.79 5.28 8.07
8/23/2022 10:30:00 PM 20.6 69.08 0.454 7.79 4.61 8.2
8/23/2022 10:45:00 PM 20.52 68.936 0.454 7.78 4.63 8.13
8/23/2022 11:00:00 PM 20.46 68.828 0.454 7.78 5.16 8.2
8/23/2022 11:15:00 PM 20.39 68.702 0.453 7.77 5.25 8.17
8/23/2022 11:30:00 PM 20.28 68.504 0.453 7.77 4.47 8.12
8/23/2022 11:45:00 PM 20.24 68.432 0.453 7.76 4.71 8.16
8/24/2022 12:00:00 AM 20.19 68.342 0.453 7.77 4.97 8.17
8/24/2022 12:15:00 AM 20.1 68.18 0.452 7.76 4.85 8.18
8/24/2022 12:30:00 AM 20.09 68.162 0.452 7.76 6.36 8.19
8/24/2022 12:45:00 AM 20.04 68.07201 0.452 7.75 5.13 8.2
8/24/2022 1:00:00 AM 20 68 0.452 7.76 4.61 8.25
8/24/2022 1:15:00 AM 19.92 67.856 0.452 7.75 4.66 8.19
8/24/2022 1:30:00 AM 19.88 67.784 0.452 7.75 5.22 8.26
8/24/2022 1:45:00 AM 19.81 67.658 0.452 7.75 4.51 7.99
8/24/2022 2:00:00 AM 19.75 67.55 0.452 7.74 6.59 8.17
8/24/2022 2:15:00 AM 19.67 67.406 0.452 7.74 4.68 8.21
8/24/2022 2:30:00 AM 19.61 67.298 0.452 7.73 4.79 8.16
8/24/2022 2:45:00 AM 19.54 67.172 0.452 7.74 4.79 8.25
8/24/2022 3:00:00 AM 19.46 67.028 0.452 7.74 4.37 8.28
8/24/2022 3:15:00 AM 19.39 66.902 0.452 7.73 4.67 8.28
8/24/2022 3:30:00 AM 19.32 66.776 0.452 7.73 4.28 8.32
8/24/2022 3:45:00 AM 19.25 66.65 0.452 7.72 5.56 8.26
8/24/2022 4:00:00 AM 19.18 66.524 0.452 7.72 6.52 8.14
8/24/2022 4:15:00 AM 19.1 66.38 0.452 7.72 6.13 8.36
8/24/2022 4:30:00 AM 19.01 66.218 0.452 7.71 4.23 8.36
8/24/2022 4:45:00 AM 18.97 66.146 0.452 7.7 4.41 8.28
8/24/2022 5:00:00 AM 18.89 66.002 0.452 7.71 4.16 8.27
8/24/2022 5:15:00 AM 18.84 65.912 0.452 7.71 4.43 8.3
8/24/2022 5:30:00 AM 18.76 65.768 0.452 7.71 4.3 8.33
8/24/2022 5:45:00 AM 18.7 65.66 0.452 7.7 4.16 8.37
8/24/2022 6:00:00 AM 18.64 65.552 0.452 7.71 4.41 8.36
8/24/2022 6:15:00 AM 18.58 65.444 0.452 7.71 4.69 8.46
8/24/2022 6:30:00 AM 18.52 65.336 0.452 7.72 5.41 8.46
8/24/2022 6:45:00 AM 18.44 65.192 0.451 7.72 4.53 8.49
8/24/2022 7:00:00 AM 18.38 65.084 0.451 7.72 4.44 8.53
8/24/2022 7:15:00 AM 18.33 64.994 0.451 7.71 4.45 8.52
8/24/2022 7:30:00 AM 18.3 64.94 0.451 7.71 4.4 8.51
8/24/2022 7:45:00 AM 18.29 64.922 0.451 7.73 4.74 8.61
8/24/2022 8:00:00 AM 18.24 64.832 0.451 7.73 4.61 8.6
8/24/2022 8:15:00 AM 18.2 64.76 0.451 7.73 4.43 8.69
8/24/2022 8:30:00 AM 18.19 64.742 0.451 7.74 4.04 8.77
8/24/2022 8:45:00 AM 18.2 64.76 0.451 7.76 4.09 8.85
8/24/2022 9:00:00 AM 18.26 64.868 0.451 7.77 4.2 8.94
8/24/2022 9:15:00 AM 18.33 64.994 0.451 7.78 4.29 9.01
8/24/2022 9:30:00 AM 18.39 65.102 0.451 7.8 4.2 9.12
8/24/2022 9:45:00 AM 18.48 65.264 0.451 7.8 4.21 9.2
8/24/2022 10:00:00 AM 18.59 65.462 0.451 7.82 4.06 9.22
8/24/2022 10:15:00 AM 18.7 65.66 0.451 7.83 4.37 9.22
8/24/2022 10:30:00 AM 18.73 65.714 0.451 7.84 4.05 9.27
8/24/2022 10:45:00 AM 18.84 65.912 0.451 7.83 4.21 9.24
8/24/2022 11:00:00 AM 18.99 66.182 0.451 7.84 3.99 9.26
8/24/2022 11:15:00 AM 19.11 66.398 0.451 7.81 3.81 9.21
8/24/2022 11:30:00 AM 19.25 66.65 0.451 7.8 3.94 9.2
8/24/2022 11:45:00 AM 19.48 67.064 0.451 7.87 3.81 9.33
8/24/2022 12:00:00 PM 19.7 67.46 0.451 7.89 4.06 9.37
8/24/2022 12:15:00 PM 19.89 67.802 0.451 7.91 3.6 9.36
8/24/2022 12:30:00 PM 20.09 68.162 0.451 7.92 3.55 9.39
8/24/2022 12:45:00 PM 20.2 68.36 0.451 7.93 4.49 9.41
8/24/2022 1:00:00 PM 20.46 68.828 0.451 7.94 3.68 9.39
8/24/2022 1:15:00 PM 20.73 69.314 0.451 7.96 4.43 9.43
8/24/2022 1:30:00 PM 20.85 69.53 0.451 7.96 3.65 9.46
8/24/2022 1:45:00 PM 20.95 69.71 0.451 7.98 3.79 9.52
8/24/2022 2:00:00 PM 21.2 70.16 0.451 7.98 3.47 9.52
8/24/2022 2:15:00 PM 21.09 69.962 0.451 8 4.05 9.53
8/24/2022 2:30:00 PM 20.98 69.764 0.451 8.01 3.65 9.45
8/24/2022 2:45:00 PM 21.07 69.926 0.451 8.01 3.58 9.48
8/24/2022 3:00:00 PM 21.32 70.376 0.451 8.02 3.87 9.52
8/24/2022 3:15:00 PM 21.62 70.916 0.451 8.02 3.62 9.57
8/24/2022 3:30:00 PM 21.84 71.312 0.451 8.03 3.78 9.59
8/24/2022 3:45:00 PM 21.8 71.24 0.451 8.04 4.17 9.49
8/24/2022 4:00:00 PM 21.71 71.078 0.451 8.04 3.64 9.4
8/24/2022 4:15:00 PM 21.72 71.096 0.451 8.04 4.06 9.35
8/24/2022 4:30:00 PM 21.68 71.024 0.451 8.04 3.56 9.29
8/24/2022 4:45:00 PM 21.53 70.754 0.451 8.03 3.63 9.19
8/24/2022 5:00:00 PM 21.57 70.826 0.452 8.03 3.59 9.15
8/24/2022 5:15:00 PM 21.67 71.006 0.452 8.02 3.44 9.19
8/24/2022 5:30:00 PM 21.65 70.97 0.452 8.01 3.7 9.14
8/24/2022 5:45:00 PM 21.58 70.844 0.452 8.01 3.54 9
8/24/2022 6:00:00 PM 21.61 70.898 0.452 7.99 3.99 8.88
8/24/2022 6:15:00 PM 21.56 70.808 0.452 7.98 4 8.78
8/24/2022 6:30:00 PM 21.57 70.826 0.453 7.96 4.03 8.69
8/24/2022 6:45:00 PM 21.49 70.682 0.452 7.95 3.76 8.64
8/24/2022 7:00:00 PM 21.44 70.592 0.452 7.94 3.6 8.59
8/24/2022 7:15:00 PM 21.44 70.592 0.452 7.93 3.81 8.5
8/24/2022 7:30:00 PM 21.39 70.502 0.452 7.91 3.68 8.43
8/24/2022 7:45:00 PM 21.35 70.43 0.453 7.9 3.48 8.36
8/24/2022 8:00:00 PM 21.32 70.376 0.454 7.88 3.4 8.29
8/24/2022 8:15:00 PM 21.27 70.286 0.453 7.86 3.83 8.16
8/24/2022 8:30:00 PM 21.2 70.16 0.453 7.83 7.54 8.02
8/24/2022 8:45:00 PM 21.12 70.016 0.453 7.81 5.75 7.95
8/24/2022 9:00:00 PM 21.06 69.908 0.453 7.79 5.1 7.93
8/24/2022 9:15:00 PM 21 69.8 0.453 7.78 4.32 7.86
8/24/2022 9:30:00 PM 20.92 69.656 0.453 7.76 4.61 7.85
8/24/2022 9:45:00 PM 20.85 69.53 0.452 7.75 5.69 7.81
8/24/2022 10:00:00 PM 20.78 69.404 0.452 7.76 4.05 7.91
8/24/2022 10:15:00 PM 20.74 69.332 0.452 7.75 4.08 7.93
8/24/2022 10:30:00 PM 20.67 69.206 0.452 7.75 4.08 7.94
8/24/2022 10:45:00 PM 20.63 69.134 0.452 7.75 3.81 7.98
8/24/2022 11:00:00 PM 20.57 69.026 0.452 7.75 3.36 7.98
8/24/2022 11:15:00 PM 20.52 68.936 0.451 7.75 3.92 8.03
8/24/2022 11:30:00 PM 20.46 68.828 0.452 7.75 3.51 8.02
8/24/2022 11:45:00 PM 20.38 68.684 0.451 7.75 4.06 8.08
8/25/2022 12:00:00 AM 20.31 68.558 0.451 7.75 3.7 8.04
8/25/2022 12:15:00 AM 20.23 68.414 0.451 7.73 4.09 8.05
8/25/2022 12:30:00 AM 20.14 68.252 0.451 7.72 3.97 8.01
8/25/2022 12:45:00 AM 20.08 68.144 0.452 7.74 3.87 8.1
8/25/2022 1:00:00 AM 20.01 68.018 0.451 7.74 3.64 8.12
8/25/2022 1:15:00 AM 19.91 67.838 0.451 7.73 4.19 8.13
8/25/2022 1:30:00 AM 19.87 67.766 0.451 7.74 4.86 8.19
8/25/2022 1:45:00 AM 19.75 67.55 0.452 7.74 3.81 8.17
8/25/2022 2:00:00 AM 19.7 67.46 0.452 7.73 4.02 8.17
8/25/2022 2:15:00 AM 19.64 67.352 0.452 7.74 4.37 8.17
8/25/2022 2:30:00 AM 19.6 67.28 0.452 7.73 4.16 8.18
8/25/2022 2:45:00 AM 19.55 67.19 0.453 7.73 3.96 8.24
8/25/2022 3:00:00 AM 19.53 67.154 0.453 7.75 3.63 8.29
8/25/2022 3:15:00 AM 19.5 67.1 0.453 7.73 3.66 8.19
8/25/2022 3:30:00 AM 19.42 66.956 0.454 7.72 3.5 8.19
8/25/2022 3:45:00 AM 19.44 66.992 0.454 7.73 3.73 8.31
8/25/2022 4:00:00 AM 19.41 66.938 0.455 7.73 3.3 8.25
8/25/2022 4:15:00 AM 19.31 66.758 0.455 7.72 3.7 8.17
8/25/2022 4:30:00 AM 19.31 66.758 0.455 7.73 3.56 8.28
8/25/2022 4:45:00 AM 19.22 66.596 0.456 7.72 3.53 8.22
8/25/2022 5:00:00 AM 19.14 66.452 0.456 7.71 3.68 8.24
8/25/2022 5:15:00 AM 19.1 66.38 0.457 7.72 3.54 8.25
8/25/2022 5:30:00 AM 19.07 66.326 0.457 7.72 12.4 8.23
8/25/2022 5:45:00 AM 19.03 66.254 0.458 7.72 6.71 8.34
8/25/2022 6:00:00 AM 18.94 66.092 0.458 7.71 4.74 8.29
8/25/2022 6:15:00 AM 18.88 65.984 0.459 7.71 4.07 8.33
8/25/2022 6:30:00 AM 18.83 65.894 0.459 7.7 4.52 8.29
8/25/2022 6:45:00 AM 18.73 65.714 0.459 7.7 4.42 8.29
8/25/2022 7:00:00 AM 18.68 65.624 0.46 7.69 4.54 8.28
8/25/2022 7:15:00 AM 18.63 65.534 0.46 7.7 4.1 8.37
8/25/2022 7:30:00 AM 18.63 65.534 0.46 7.7 3.89 8.38
8/25/2022 7:45:00 AM 18.58 65.444 0.461 7.71 4.03 8.41
8/25/2022 8:00:00 AM 18.55 65.39 0.461 7.72 3.9 8.47
8/25/2022 8:15:00 AM 18.51 65.318 0.461 7.73 3.63 8.6
8/25/2022 8:30:00 AM 18.55 65.39 0.461 7.74 3.98 8.71
8/25/2022 8:45:00 AM 18.57 65.426 0.462 7.75 3.96 8.82
8/25/2022 9:00:00 AM 18.64 65.552 0.462 7.76 4 8.88
8/25/2022 9:15:00 AM 18.75 65.75 0.462 7.76 3.88 8.89
8/25/2022 9:30:00 AM 18.93 66.074 0.462 7.79 3.66 9.15
8/25/2022 9:45:00 AM 19.04 66.272 0.462 7.81 3.76 9.21
8/25/2022 10:00:00 AM 19.03 66.254 0.462 7.82 3.78 9.25
8/25/2022 10:15:00 AM 19.07 66.326 0.463 7.82 4 9.22
8/25/2022 10:30:00 AM 19.14 66.452 0.463 7.82 4.15 9.18
8/25/2022 10:45:00 AM 19.23 66.614 0.463 7.8 3.95